Darstellungsparameter: Aktuell verwendete Einstellungen:
Skalierung der Graphiken ... ?
xyx+y,   Skalierungsfaktor:      Skalierung: Modus: x, Faktor: 1
Darstellungszeitraum ... ?
Vom - - bis: - -   Zeitraum: 20.02.2020 - 19.03.2020
Min/Max/Avg-Anzeige ... ?
Zeige MMA aktuell
Zeige MMA Monat
Zeige MMA alles
Zeige --A aktuell
Zeige --A Monat
Zeige --A alles
Keine MMA-Anzeige
MMA:
Average (ber die Originaldaten)
MMA-Basis: 20.02.2020 - 19.03.2020
Quicknavigation für Darstellung... ?
Tage:      1T, 2T, 3T, 5T -1T -2T -3T -5T +1T +2T +3T +5T
Wochen: 1W, 2W, 3W -1W -2W -3W +1W +2W +3W
Monate: 1M, 3M, 6M -1M -3M -6M +1M +3M +6M
Jahre:    1J, 3J, 5J, 10J -1J -3J -5J -10J +1J +3J +5J +10J
Nutze für die Darstellung ... ?
Originaldaten oder Mittelwerte auf ...
Stundenbasis Tagesbasis Wochenbasis
Monatsbasis Jahresbasis      Datenbasis: Original-Daten
Darstellen als:
Statistik (Auto) Statistik J:M      Darstellung:
Zur Graphik,    zurück zur Übersicht aller Sensoren.
 
Tabellarische Datenbersicht: ?
 
Sensor: Nr:Datum:Temp:Feuchte:
Aussen-T/F 1 20-02-2020 00:07:17 4.9 C 36 %
2 20-02-2020 00:17:17 4.9 C 36 %
3 20-02-2020 00:27:18 5.2 C 35 %
4 20-02-2020 00:37:18 5.4 C 35 %
5 20-02-2020 00:47:17 5.5 C 35 %
6 20-02-2020 00:57:17 4.9 C 36 %
7 20-02-2020 01:07:17 4.8 C 38 %
8 20-02-2020 01:17:17 4.8 C 38 %
9 20-02-2020 01:27:18 4.8 C 38 %
10 20-02-2020 01:37:18 5 C 37 %
11 20-02-2020 01:47:17 5.3 C 37 %
12 20-02-2020 01:57:17 5.4 C 36 %
13 20-02-2020 02:07:18 5.6 C 36 %
14 20-02-2020 02:17:17 5.6 C 36 %
15 20-02-2020 02:27:17 5.8 C 36 %
16 20-02-2020 02:37:17 5.7 C 35 %
17 20-02-2020 02:47:17 5.8 C 35 %
18 20-02-2020 02:57:17 5.9 C 35 %
19 20-02-2020 03:07:17 6 C 35 %
20 20-02-2020 03:17:17 6.2 C 35 %
21 20-02-2020 03:27:17 6.3 C 35 %
22 20-02-2020 03:37:18 6.3 C 35 %
23 20-02-2020 03:47:17 6.4 C 35 %
24 20-02-2020 03:57:17 6.3 C 35 %
25 20-02-2020 04:07:18 6.4 C 35 %
Sensor: Nr:Datum:Temp:Feuchte:
Aussen-T/F 26 20-02-2020 04:17:17 6.5 C 35 %
27 20-02-2020 04:27:17 6.5 C 35 %
28 20-02-2020 04:37:17 6.6 C 35 %
29 20-02-2020 04:47:18 6.5 C 35 %
30 20-02-2020 04:57:18 6.5 C 35 %
31 20-02-2020 05:07:18 6.5 C 35 %
32 20-02-2020 05:17:17 6.5 C 35 %
33 20-02-2020 05:27:17 6.5 C 35 %
34 20-02-2020 05:37:17 6.7 C 35 %
35 20-02-2020 05:47:17 6.5 C 35 %
36 20-02-2020 05:57:17 6.6 C 35 %
37 20-02-2020 06:07:17 6.5 C 35 %
38 20-02-2020 06:17:17 6.3 C 36 %
39 20-02-2020 06:27:17 6.3 C 36 %
40 20-02-2020 06:37:17 6.5 C 36 %
41 20-02-2020 06:47:17 6.6 C 36 %
42 20-02-2020 06:57:17 6.5 C 36 %
43 20-02-2020 07:07:17 6.5 C 36 %
44 20-02-2020 07:17:17 6.3 C 37 %
45 20-02-2020 07:27:17 6.5 C 37 %
46 20-02-2020 07:37:17 6.6 C 36 %
47 20-02-2020 07:47:17 6.7 C 36 %
48 20-02-2020 07:57:17 6.6 C 37 %
49 20-02-2020 08:07:17 6.5 C 37 %
50 20-02-2020 08:17:17 6.6 C 37 %
Sensor: Nr:Datum:Temp:Feuchte:
Aussen-T/F 51 20-02-2020 08:27:17 6.6 C 37 %
52 20-02-2020 08:37:17 6.6 C 37 %
53 20-02-2020 08:47:18 6.7 C 37 %
54 20-02-2020 08:57:18 6.8 C 37 %
55 20-02-2020 09:07:18 7.2 C 36 %
56 20-02-2020 09:17:18 7.3 C 36 %
57 20-02-2020 09:27:18 7.6 C 35 %
58 20-02-2020 09:37:17 7.8 C 35 %
59 20-02-2020 09:47:17 7.9 C 35 %
60 20-02-2020 09:57:17 8.1 C 34 %
61 20-02-2020 10:07:18 8.1 C 34 %
62 20-02-2020 10:17:17 8.3 C 34 %
63 20-02-2020 10:27:17 8.5 C 33 %
64 20-02-2020 10:37:17 9 C 32 %
65 20-02-2020 10:47:17 8.8 C 32 %
66 20-02-2020 10:57:17 8.9 C 32 %
67 20-02-2020 11:07:18 9.1 C 32 %
68 20-02-2020 11:17:18 10.1 C 30 %
69 20-02-2020 11:27:18 10 C 30 %
70 20-02-2020 11:37:18 9.4 C 30 %
71 20-02-2020 11:47:17 9.1 C 30 %
72 20-02-2020 11:57:18 9.2 C 30 %
73 20-02-2020 12:07:18 9.3 C 30 %
74 20-02-2020 12:17:18 9.8 C 30 %
75 20-02-2020 12:27:18 10.1 C 28 %
Sensor: Nr:Datum:Temp:Feuchte:
Aussen-T/F 76 20-02-2020 12:37:18 9.2 C 30 %
77 20-02-2020 12:47:18 8.2 C 33 %
78 20-02-2020 12:57:18 8.6 C 33 %
79 20-02-2020 13:07:18 9.1 C 32 %
80 20-02-2020 13:17:18 9.7 C 31 %
81 20-02-2020 13:27:18 9.6 C 30 %
82 20-02-2020 13:37:18 9.6 C 30 %
83 20-02-2020 13:47:17 9.4 C 31 %
84 20-02-2020 13:57:17 10.3 C 29 %
85 20-02-2020 14:07:17 10.2 C 29 %
86 20-02-2020 14:17:17 10.1 C 28 %
87 20-02-2020 14:27:18 10 C 28 %
88 20-02-2020 14:37:18 10.7 C 28 %
89 20-02-2020 14:47:17 9.8 C 29 %
90 20-02-2020 14:57:17 9.8 C 29 %
91 20-02-2020 15:07:18 9.6 C 30 %
92 20-02-2020 15:17:17 10.1 C 28 %
93 20-02-2020 15:27:18 10.1 C 28 %
94 20-02-2020 15:37:18 10.5 C 28 %
95 20-02-2020 15:47:17 10.5 C 28 %
96 20-02-2020 15:57:17 9.6 C 29 %
97 20-02-2020 16:07:17 9.5 C 29 %
98 20-02-2020 16:17:17 9.5 C 29 %
99 20-02-2020 16:27:18 9.3 C 29 %
100 20-02-2020 16:37:18 9.1 C 30 %
Sensor: Nr:Datum:Temp:Feuchte:
Aussen-T/F 101 20-02-2020 16:47:17 9.1 C 29 %
102 20-02-2020 16:57:17 9.1 C 29 %
103 20-02-2020 17:07:18 9 C 29 %
104 20-02-2020 17:17:17 9.2 C 29 %
105 20-02-2020 17:27:18 9.2 C 29 %
106 20-02-2020 17:37:18 9.2 C 29 %
107 20-02-2020 17:47:17 9.1 C 29 %
108 20-02-2020 17:57:17 9.1 C 29 %
109 20-02-2020 18:07:18 9.1 C 29 %
110 20-02-2020 18:17:18 9 C 29 %
111 20-02-2020 18:27:18 8.9 C 30 %
112 20-02-2020 18:37:18 8.3 C 30 %
113 20-02-2020 18:47:18 8.1 C 31 %
114 20-02-2020 18:57:18 7.7 C 33 %
115 20-02-2020 19:07:18 7.7 C 33 %
116 20-02-2020 19:17:18 7.8 C 32 %
117 20-02-2020 19:27:18 8.1 C 31 %
118 20-02-2020 19:37:17 8.6 C 30 %
119 20-02-2020 19:47:18 9 C 30 %
120 20-02-2020 19:57:18 9.1 C 30 %
121 20-02-2020 20:07:18 9 C 30 %
122 20-02-2020 20:17:18 9 C 30 %
123 20-02-2020 20:27:18 9.3 C 29 %
124 20-02-2020 20:37:18 9.3 C 29 %
125 20-02-2020 20:47:18 9.2 C 29 %
Sensor: Nr:Datum:Temp:Feuchte:
Aussen-T/F 126 20-02-2020 20:57:18 9.2 C 29 %
127 20-02-2020 21:07:18 8.8 C 30 %
128 20-02-2020 21:17:18 8.6 C 30 %
129 20-02-2020 21:27:18 8.6 C 31 %
130 20-02-2020 21:37:18 8.2 C 31 %
131 20-02-2020 21:47:17 8.2 C 32 %
132 20-02-2020 21:57:18 7.8 C 33 %
133 20-02-2020 22:07:18 7.9 C 33 %
134 20-02-2020 22:17:17 7.8 C 35 %
135 20-02-2020 22:27:18 7.4 C 35 %
136 20-02-2020 22:37:18 7.1 C 38 %
137 20-02-2020 22:47:18 6 C 37 %
138 20-02-2020 22:57:18 5.8 C 37 %
139 20-02-2020 23:07:18 5.7 C 39 %
140 20-02-2020 23:17:18 5.8 C 37 %
141 20-02-2020 23:27:18 5.8 C 37 %
142 20-02-2020 23:37:17 6.1 C 35 %
143 20-02-2020 23:47:17 5.9 C 35 %
144 20-02-2020 23:57:17 5.2 C 35 %
145 21-02-2020 00:07:17 4.6 C 38 %
146 21-02-2020 00:17:18 4.5 C 39 %
147 21-02-2020 00:27:18 4.4 C 37 %
148 21-02-2020 00:37:18 4.8 C 36 %
149 21-02-2020 00:47:18 4.7 C 35 %
150 21-02-2020 00:57:18 4.6 C 35 %
Sensor: Nr:Datum:Temp:Feuchte:
Aussen-T/F 151 21-02-2020 01:07:18 4.5 C 35 %
152 21-02-2020 01:17:17 4.1 C 35 %
153 21-02-2020 01:27:17 4.1 C 34 %
154 21-02-2020 01:37:17 4 C 34 %
155 21-02-2020 01:47:17 3.6 C 35 %
156 21-02-2020 01:57:17 3.6 C 35 %
157 21-02-2020 02:07:18 3.5 C 35 %
158 21-02-2020 02:17:18 3.8 C 35 %
159 21-02-2020 02:27:18 3.4 C 36 %
160 21-02-2020 02:37:18 4 C 35 %
161 21-02-2020 02:47:17 3.9 C 35 %
162 21-02-2020 02:57:18 3.6 C 35 %
163 21-02-2020 03:07:18 4 C 34 %
164 21-02-2020 03:17:18 3.3 C 35 %
165 21-02-2020 03:27:18 2.9 C 37 %
166 21-02-2020 03:37:18 2.4 C 39 %
167 21-02-2020 03:47:17 2.7 C 38 %
168 21-02-2020 03:57:17 2.1 C 40 %
169 21-02-2020 04:07:18 2.1 C 40 %
170 21-02-2020 04:17:18 2.2 C 39 %
171 21-02-2020 04:27:18 2.4 C 39 %
172 21-02-2020 04:37:18 2 C 40 %
173 21-02-2020 04:47:17 2.5 C 39 %
174 21-02-2020 04:57:17 2.3 C 39 %
175 21-02-2020 05:07:17 2 C 39 %
Sensor: Nr:Datum:Temp:Feuchte:
Aussen-T/F 176 21-02-2020 05:17:17 1.6 C 41 %
177 21-02-2020 05:27:17 2.1 C 39 %
178 21-02-2020 05:37:17 2.5 C 38 %
179 21-02-2020 05:47:17 1.9 C 40 %
180 21-02-2020 05:57:17 2.4 C 38 %
181 21-02-2020 06:07:17 2.3 C 38 %
182 21-02-2020 06:17:17 1.7 C 40 %
183 21-02-2020 06:27:17 1.9 C 40 %
184 21-02-2020 06:37:18 1.4 C 41 %
185 21-02-2020 06:47:17 1.6 C 40 %
186 21-02-2020 06:57:17 2.1 C 38 %
187 21-02-2020 07:07:17 2.4 C 37 %
188 21-02-2020 07:17:18 2.8 C 36 %
189 21-02-2020 07:27:18 2.7 C 36 %
190 21-02-2020 07:37:18 3 C 35 %
191 21-02-2020 07:47:17 2.5 C 36 %
192 21-02-2020 07:57:17 2.2 C 37 %
193 21-02-2020 08:07:17 1.5 C 39 %
194 21-02-2020 08:17:17 1.3 C 40 %
195 21-02-2020 08:27:17 1.1 C 40 %
196 21-02-2020 08:37:17 1.7 C 40 %
197 21-02-2020 08:47:17 2.2 C 38 %
198 21-02-2020 08:57:17 2.7 C 37 %
199 21-02-2020 09:07:17 2.6 C 37 %
200 21-02-2020 09:17:17 3.1 C 36 %
Sensor: Nr:Datum:Temp:Feuchte:
Aussen-T/F 201 21-02-2020 09:27:17 2.9 C 37 %
202 21-02-2020 09:37:17 2.9 C 36 %
203 21-02-2020 09:47:17 3.1 C 36 %
204 21-02-2020 09:57:17 3.6 C 35 %
205 21-02-2020 10:07:17 3.5 C 36 %
206 21-02-2020 10:17:17 3.5 C 36 %
207 21-02-2020 10:27:17 3.9 C 35 %
208 21-02-2020 10:37:18 4.5 C 34 %
209 21-02-2020 10:47:17 4.7 C 34 %
210 21-02-2020 10:57:17 4.8 C 34 %
211 21-02-2020 11:07:18 5.9 C 32 %
212 21-02-2020 11:17:17 6.3 C 31 %
213 21-02-2020 11:27:17 6.8 C 30 %
214 21-02-2020 11:37:18 5.9 C 31 %
215 21-02-2020 11:47:17 6.7 C 30 %
216 21-02-2020 11:57:17 7.1 C 30 %
217 21-02-2020 12:07:18 7.3 C 30 %
218 21-02-2020 12:17:18 7.3 C 29 %
219 21-02-2020 12:27:18 7.3 C 29 %
220 21-02-2020 12:37:18 7.4 C 29 %
221 21-02-2020 12:47:17 7.4 C 29 %
222 21-02-2020 12:57:17 7.9 C 30 %
223 21-02-2020 13:07:17 8.3 C 27 %
224 21-02-2020 13:17:18 7.8 C 27 %
225 21-02-2020 13:27:18 8.9 C 27 %
Sensor: Nr:Datum:Temp:Feuchte:
Aussen-T/F 226 21-02-2020 13:37:18 8.2 C 27 %
227 21-02-2020 13:47:17 7.5 C 27 %
228 21-02-2020 13:57:17 7.9 C 27 %
229 21-02-2020 14:07:18 7.8 C 27 %
230 21-02-2020 14:17:17 7.9 C 27 %
231 21-02-2020 14:27:18 8.8 C 27 %
232 21-02-2020 14:37:18 8.4 C 27 %
233 21-02-2020 14:47:17 8.7 C 27 %
234 21-02-2020 14:57:17 9 C 26 %
235 21-02-2020 15:07:18 9 C 26 %
236 21-02-2020 15:17:18 8.4 C 26 %
237 21-02-2020 15:27:18 8.7 C 26 %
238 21-02-2020 15:37:18 8.1 C 26 %
239 21-02-2020 15:47:17 8.3 C 26 %
240 21-02-2020 15:57:17 8.3 C 26 %
241 21-02-2020 16:07:17 8.1 C 26 %
242 21-02-2020 16:17:17 8 C 27 %
243 21-02-2020 16:27:17 8 C 26 %
244 21-02-2020 16:37:17 8.1 C 26 %
245 21-02-2020 16:47:17 7.9 C 26 %
246 21-02-2020 16:57:17 7.9 C 26 %
247 21-02-2020 17:07:18 7.7 C 26 %
248 21-02-2020 17:17:17 7.3 C 26 %
249 21-02-2020 17:27:17 7.3 C 26 %
250 21-02-2020 17:37:18 6.8 C 28 %
Sensor: Nr:Datum:Temp:Feuchte:
Aussen-T/F 251 21-02-2020 17:47:17 6.5 C 28 %
252 21-02-2020 17:57:18 6.4 C 29 %
253 21-02-2020 18:07:18 5.9 C 30 %
254 21-02-2020 18:17:17 5.6 C 31 %
255 21-02-2020 18:27:17 4.9 C 33 %
256 21-02-2020 18:37:17 4.5 C 33 %
257 21-02-2020 18:47:17 4.3 C 34 %
258 21-02-2020 18:57:17 4.2 C 34 %
259 21-02-2020 19:07:17 4.7 C 34 %
260 21-02-2020 19:17:17 4 C 34 %
261 21-02-2020 19:27:17 4 C 35 %
262 21-02-2020 19:37:17 3.8 C 35 %
263 21-02-2020 19:47:17 4 C 34 %
264 21-02-2020 19:57:17 4.7 C 33 %
265 21-02-2020 20:07:18 4.9 C 33 %
266 21-02-2020 20:17:18 4.4 C 33 %
267 21-02-2020 20:27:18 4.4 C 33 %
268 21-02-2020 20:37:18 5.6 C 31 %
269 21-02-2020 20:47:17 5.8 C 31 %
270 21-02-2020 20:57:17 5.7 C 31 %
271 21-02-2020 21:07:18 5.4 C 31 %
272 21-02-2020 21:17:18 5.1 C 31 %
273 21-02-2020 21:27:18 4.9 C 32 %
274 21-02-2020 21:37:18 4.3 C 34 %
275 21-02-2020 21:47:18 4.3 C 35 %
Sensor: Nr:Datum:Temp:Feuchte:
Aussen-T/F 276 21-02-2020 21:57:18 4.6 C 34 %
277 21-02-2020 22:07:18 4 C 35 %
278 21-02-2020 22:17:17 3.4 C 36 %
279 21-02-2020 22:27:17 3.6 C 38 %
280 21-02-2020 22:37:17 3.8 C 37 %
281 21-02-2020 22:47:17 3.7 C 37 %
282 21-02-2020 22:57:17 3.2 C 37 %
283 21-02-2020 23:07:17 3 C 38 %
284 21-02-2020 23:17:17 3.6 C 38 %
285 21-02-2020 23:27:18 3.3 C 38 %
286 21-02-2020 23:37:18 3.9 C 37 %
287 21-02-2020 23:47:18 4.2 C 36 %
288 21-02-2020 23:57:18 4 C 36 %
289 22-02-2020 00:07:18 3.3 C 37 %
290 22-02-2020 00:17:17 3.4 C 38 %
291 22-02-2020 00:27:17 3.7 C 37 %
292 22-02-2020 00:37:17 3.8 C 37 %
293 22-02-2020 00:47:18 4.1 C 36 %
294 22-02-2020 00:57:18 3.6 C 37 %
295 22-02-2020 01:07:18 3.8 C 37 %
296 22-02-2020 01:17:18 4 C 35 %
297 22-02-2020 01:27:18 3.8 C 37 %
298 22-02-2020 01:37:18 3.4 C 37 %
299 22-02-2020 01:47:17 3.1 C 37 %
300 22-02-2020 01:57:18 3.1 C 38 %
Sensor: Nr:Datum:Temp:Feuchte:
Aussen-T/F 301 22-02-2020 02:07:18 4.6 C 36 %
302 22-02-2020 02:17:18 4.7 C 35 %
303 22-02-2020 02:27:18 4.4 C 35 %
304 22-02-2020 02:37:17 4.8 C 35 %
305 22-02-2020 02:47:17 5.1 C 34 %
306 22-02-2020 02:57:17 4.7 C 35 %
307 22-02-2020 03:07:17 4.8 C 35 %
308 22-02-2020 03:17:17 5 C 34 %
309 22-02-2020 03:27:17 4.7 C 35 %
310 22-02-2020 03:37:17 5.2 C 34 %
311 22-02-2020 03:47:17 4.9 C 35 %
312 22-02-2020 03:57:18 4.6 C 35 %
313 22-02-2020 04:07:18 4.5 C 35 %
314 22-02-2020 04:17:18 4.7 C 35 %
315 22-02-2020 04:27:18 4.2 C 35 %
316 22-02-2020 04:37:18 4.2 C 35 %
317 22-02-2020 04:47:17 4.7 C 35 %
318 22-02-2020 04:57:18 5 C 34 %
319 22-02-2020 05:07:18 5 C 34 %
320 22-02-2020 05:17:18 5.2 C 34 %
321 22-02-2020 05:27:18 5.4 C 34 %
322 22-02-2020 05:37:17 5.4 C 33 %
323 22-02-2020 05:47:18 5.4 C 33 %
324 22-02-2020 05:57:18 5.2 C 34 %
325 22-02-2020 06:07:18 5.2 C 33 %
Sensor: Nr:Datum:Temp:Feuchte:
Aussen-T/F 326 22-02-2020 06:17:17 5.3 C 34 %
327 22-02-2020 06:27:17 5.3 C 34 %
328 22-02-2020 06:37:17 5.5 C 33 %
329 22-02-2020 06:47:18 5.3 C 33 %
330 22-02-2020 06:57:18 5.4 C 33 %
331 22-02-2020 07:07:18 5.2 C 33 %
332 22-02-2020 07:17:18 5 C 33 %
333 22-02-2020 07:27:18 5 C 34 %
334 22-02-2020 07:37:18 4.8 C 35 %
335 22-02-2020 07:47:17 5.3 C 34 %
336 22-02-2020 07:57:18 5 C 34 %
337 22-02-2020 08:07:18 5.4 C 33 %
338 22-02-2020 08:17:18 5.4 C 33 %
339 22-02-2020 08:27:18 5.2 C 33 %
340 22-02-2020 08:37:18 5.4 C 33 %
341 22-02-2020 08:47:17 5.7 C 33 %
342 22-02-2020 08:57:17 5.9 C 33 %
343 22-02-2020 09:07:17 6.1 C 32 %
344 22-02-2020 09:17:17 6.3 C 32 %
345 22-02-2020 09:27:17 6.4 C 32 %
346 22-02-2020 09:37:17 6.4 C 31 %
347 22-02-2020 09:47:17 6.5 C 31 %
348 22-02-2020 09:57:17 6.9 C 31 %
349 22-02-2020 10:07:17 7 C 30 %
350 22-02-2020 10:17:17 7.2 C 30 %
Sensor: Nr:Datum:Temp:Feuchte:
Aussen-T/F 351 22-02-2020 10:27:17 7.2 C 30 %
352 22-02-2020 10:37:17 7.3 C 30 %
353 22-02-2020 10:47:18 7.2 C 30 %
354 22-02-2020 10:57:18 7.4 C 30 %
355 22-02-2020 11:07:18 7.5 C 30 %
356 22-02-2020 11:17:18 7.5 C 30 %
357 22-02-2020 11:27:18 7.6 C 29 %
358 22-02-2020 11:37:18 7.7 C 28 %
359 22-02-2020 11:47:17 7.9 C 28 %
360 22-02-2020 11:57:17 8.1 C 27 %
361 22-02-2020 12:07:18 8.4 C 27 %
362 22-02-2020 12:17:18 8.5 C 26 %
363 22-02-2020 12:27:18 8.6 C 27 %
364 22-02-2020 12:37:18 8.8 C 26 %
365 22-02-2020 12:47:18 8.8 C 26 %
366 22-02-2020 12:57:18 9 C 25 %
367 22-02-2020 13:07:18 9.3 C 25 %
368 22-02-2020 13:17:18 9.7 C 25 %
369 22-02-2020 13:27:18 10.2 C 21 %
370 22-02-2020 13:37:18 10.2 C 20 %
371 22-02-2020 13:47:17 10.2 C 20 %
372 22-02-2020 13:57:18 10.2 C 20 %
373 22-02-2020 14:07:18 10.2 C 20 %
374 22-02-2020 14:17:17 10.1 C 20 %
375 22-02-2020 14:27:18 10.1 C 20 %
Sensor: Nr:Datum:Temp:Feuchte:
Aussen-T/F 376 22-02-2020 14:37:18 10.2 C 20 %
377 22-02-2020 14:47:17 10.2 C 20 %
378 22-02-2020 14:57:17 10.1 C 20 %
379 22-02-2020 15:07:17 10.2 C 20 %
380 22-02-2020 15:17:17 10.2 C 20 %
381 22-02-2020 15:27:18 10.4 C 20 %
382 22-02-2020 15:37:18 10.6 C 21 %
383 22-02-2020 15:47:17 10.7 C 20 %
384 22-02-2020 15:57:17 10.8 C 21 %
385 22-02-2020 16:07:18 10.7 C 21 %
386 22-02-2020 16:17:18 10.6 C 22 %
387 22-02-2020 16:27:18 10.4 C 22 %
388 22-02-2020 16:37:18 10.2 C 23 %
389 22-02-2020 16:47:18 10.3 C 25 %
390 22-02-2020 16:57:18 10.2 C 25 %
391 22-02-2020 17:07:17 10.1 C 25 %
392 22-02-2020 17:17:18 10.1 C 25 %
393 22-02-2020 17:27:18 10.2 C 25 %
394 22-02-2020 17:37:18 10.2 C 25 %
395 22-02-2020 17:47:18 10.2 C 25 %
396 22-02-2020 17:57:18 10 C 25 %
397 22-02-2020 18:07:18 9.9 C 26 %
398 22-02-2020 18:17:18 9.9 C 27 %
399 22-02-2020 18:27:18 9.8 C 27 %
400 22-02-2020 18:37:18 9.7 C 28 %
Sensor: Nr:Datum:Temp:Feuchte:
Aussen-T/F 401 22-02-2020 18:47:18 9.7 C 29 %
402 22-02-2020 18:57:18 9.5 C 30 %
403 22-02-2020 19:07:18 9.6 C 30 %
404 22-02-2020 19:17:17 9.6 C 30 %
405 22-02-2020 19:27:17 9.6 C 31 %
406 22-02-2020 19:37:17 9.6 C 30 %
407 22-02-2020 19:47:18 9.9 C 30 %
408 22-02-2020 19:57:18 9.8 C 31 %
409 22-02-2020 20:07:18 10 C 30 %
410 22-02-2020 20:17:18 9.9 C 31 %
411 22-02-2020 20:27:18 10 C 30 %
412 22-02-2020 20:37:18 9.9 C 31 %
413 22-02-2020 20:47:17 10 C 31 %
414 22-02-2020 20:57:17 9.9 C 32 %
415 22-02-2020 21:07:18 9.9 C 32 %
416 22-02-2020 21:17:17 10.2 C 31 %
417 22-02-2020 21:27:17 10.2 C 31 %
418 22-02-2020 21:37:18 10.3 C 31 %
419 22-02-2020 21:47:17 10.2 C 31 %
420 22-02-2020 21:57:17 10.3 C 31 %
421 22-02-2020 22:07:17 10.4 C 31 %
422 22-02-2020 22:17:17 10.6 C 31 %
423 22-02-2020 22:27:17 10.7 C 31 %
424 22-02-2020 22:37:18 10.7 C 31 %
425 22-02-2020 22:47:17 10.6 C 31 %
Sensor: Nr:Datum:Temp:Feuchte:
Aussen-T/F 426 22-02-2020 22:57:17 10.5 C 31 %
427 22-02-2020 23:07:17 10.5 C 31 %
428 22-02-2020 23:17:17 10.5 C 31 %
429 22-02-2020 23:27:17 10.5 C 31 %
430 22-02-2020 23:37:17 10.5 C 31 %
431 22-02-2020 23:47:17 10.6 C 31 %
432 22-02-2020 23:57:18 10.5 C 31 %
433 23-02-2020 00:07:18 10.7 C 31 %
434 23-02-2020 00:17:18 10.8 C 31 %
435 23-02-2020 00:27:18 10 C 31 %
436 23-02-2020 00:37:18 9.7 C 33 %
437 23-02-2020 00:47:17 9.4 C 35 %
438 23-02-2020 00:57:18 9.2 C 36 %
439 23-02-2020 01:07:18 9 C 38 %
440 23-02-2020 01:17:18 9.3 C 37 %
441 23-02-2020 01:27:18 9.3 C 37 %
442 23-02-2020 01:37:18 9.6 C 36 %
443 23-02-2020 01:47:17 9.6 C 36 %
444 23-02-2020 01:57:17 9.7 C 36 %
445 23-02-2020 02:07:18 9.4 C 36 %
446 23-02-2020 02:17:18 9.3 C 36 %
447 23-02-2020 02:27:18 9.5 C 36 %
448 23-02-2020 02:37:18 9.8 C 35 %
449 23-02-2020 02:47:17 10 C 34 %
450 23-02-2020 02:57:17 10 C 34 %
Sensor: Nr:Datum:Temp:Feuchte:
Aussen-T/F 451 23-02-2020 03:07:18 10 C 33 %
452 23-02-2020 03:17:17 10.2 C 33 %
453 23-02-2020 03:27:17 9.8 C 35 %
454 23-02-2020 03:37:17 9.6 C 35 %
455 23-02-2020 03:47:17 9.7 C 35 %
456 23-02-2020 03:57:17 9.7 C 35 %
457 23-02-2020 04:07:17 10.3 C 33 %
458 23-02-2020 04:17:17 10.2 C 33 %
459 23-02-2020 04:27:17 10.1 C 33 %
460 23-02-2020 04:37:17 10.2 C 33 %
461 23-02-2020 04:47:17 10 C 33 %
462 23-02-2020 04:57:17 10.1 C 33 %
463 23-02-2020 05:07:18 9.6 C 35 %
464 23-02-2020 05:17:17 9.8 C 35 %
465 23-02-2020 05:27:17 10 C 34 %
466 23-02-2020 05:37:18 10.2 C 34 %
467 23-02-2020 05:47:17 10.2 C 34 %
468 23-02-2020 05:57:17 9.6 C 35 %
469 23-02-2020 06:07:18 9.5 C 35 %
470 23-02-2020 06:17:17 9.7 C 35 %
471 23-02-2020 06:27:17 9.8 C 35 %
472 23-02-2020 06:37:18 10 C 34 %
473 23-02-2020 06:47:17 9.7 C 35 %
474 23-02-2020 06:57:17 9.3 C 35 %
475 23-02-2020 07:07:18 9.3 C 35 %
Sensor: Nr:Datum:Temp:Feuchte:
Aussen-T/F 476 23-02-2020 07:17:18 9.5 C 36 %
477 23-02-2020 07:27:18 9.8 C 35 %
478 23-02-2020 07:37:18 9.6 C 36 %
479 23-02-2020 07:47:17 9.6 C 36 %
480 23-02-2020 07:57:17 9.8 C 36 %
481 23-02-2020 08:07:17 9.8 C 36 %
482 23-02-2020 08:17:17 9.8 C 36 %
483 23-02-2020 08:27:17 10.1 C 35 %
484 23-02-2020 08:37:17 10.1 C 35 %
485 23-02-2020 08:47:17 10.2 C 35 %
486 23-02-2020 08:57:17 10.1 C 35 %
487 23-02-2020 09:07:17 10.1 C 35 %
488 23-02-2020 09:17:17 10 C 35 %
489 23-02-2020 09:27:17 10 C 35 %
490 23-02-2020 09:37:17 10 C 35 %
491 23-02-2020 09:47:18 10.1 C 35 %
492 23-02-2020 09:57:18 10.1 C 36 %
493 23-02-2020 10:07:17 10.1 C 36 %
494 23-02-2020 10:17:17 10.5 C 35 %
495 23-02-2020 10:27:18 10.6 C 35 %
496 23-02-2020 10:37:17 10.9 C 35 %
497 23-02-2020 10:47:17 10.9 C 35 %
498 23-02-2020 10:57:17 10.9 C 35 %
499 23-02-2020 11:07:17 11 C 34 %
500 23-02-2020 11:17:17 11.1 C 34 %
Sensor: Nr:Datum:Temp:Feuchte:
Aussen-T/F 501 23-02-2020 11:27:17 11 C 34 %
502 23-02-2020 11:37:17 11.1 C 34 %
503 23-02-2020 11:47:17 11.2 C 34 %
504 23-02-2020 11:57:17 11.4 C 34 %
505 23-02-2020 12:07:17 11.5 C 34 %
506 23-02-2020 12:17:17 11.5 C 34 %
507 23-02-2020 12:27:17 11.6 C 34 %
508 23-02-2020 12:37:18 11.6 C 34 %
509 23-02-2020 12:47:17 11.7 C 34 %
510 23-02-2020 12:57:17 11.7 C 34 %
511 23-02-2020 13:07:17 11.8 C 33 %
512 23-02-2020 13:17:17 11.8 C 33 %
513 23-02-2020 13:27:17 11.8 C 33 %
514 23-02-2020 13:37:18 11.8 C 33 %
515 23-02-2020 13:47:17 11.8 C 33 %
516 23-02-2020 13:57:18 11.8 C 33 %
517 23-02-2020 14:07:17 11.8 C 33 %
518 23-02-2020 14:17:17 11.7 C 33 %
519 23-02-2020 14:27:17 11.8 C 34 %
520 23-02-2020 14:37:18 11.9 C 34 %
521 23-02-2020 14:47:17 11.9 C 34 %
522 23-02-2020 14:57:17 11.9 C 34 %
523 23-02-2020 15:07:17 11.9 C 34 %
524 23-02-2020 15:17:17 11.9 C 34 %
525 23-02-2020 15:27:17 12 C 33 %
Sensor: Nr:Datum:Temp:Feuchte:
Aussen-T/F 526 23-02-2020 15:37:18 11.8 C 34 %
527 23-02-2020 15:47:17 11.9 C 34 %
528 23-02-2020 15:57:17 11.8 C 34 %
529 23-02-2020 16:07:18 11.8 C 34 %
530 23-02-2020 16:17:17 11.8 C 34 %
531 23-02-2020 16:27:17 11.7 C 35 %
532 23-02-2020 16:37:17 11.8 C 35 %
533 23-02-2020 16:47:17 11.8 C 34 %
534 23-02-2020 16:57:17 11.8 C 34 %
535 23-02-2020 17:07:18 11.8 C 34 %
536 23-02-2020 17:17:17 11.5 C 35 %
537 23-02-2020 17:27:17 11.3 C 36 %
538 23-02-2020 17:37:18 10.9 C 38 %
539 23-02-2020 17:47:17 10.8 C 38 %
540 23-02-2020 17:57:17 10.9 C 38 %
541 23-02-2020 18:07:18 10.8 C 38 %
542 23-02-2020 18:17:17 10.8 C 39 %
543 23-02-2020 18:27:17 10.7 C 40 %
544 23-02-2020 18:37:18 10.6 C 41 %
545 23-02-2020 18:47:18 10.5 C 42 %
546 23-02-2020 18:57:18 10.5 C 41 %
547 23-02-2020 19:07:18 10.8 C 40 %
548 23-02-2020 19:17:17 10.8 C 40 %
549 23-02-2020 19:27:17 11.1 C 40 %
550 23-02-2020 19:37:17 9.2 C 40 %
Sensor: Nr:Datum:Temp:Feuchte:
Aussen-T/F 551 23-02-2020 19:47:17 8.6 C 41 %
552 23-02-2020 19:57:17 8.3 C 40 %
553 23-02-2020 20:07:17 7.9 C 41 %
554 23-02-2020 20:17:17 7.8 C 40 %
555 23-02-2020 20:27:17 7.6 C 40 %
556 23-02-2020 20:37:17 7.6 C 40 %
557 23-02-2020 20:47:17 7.6 C 40 %
558 23-02-2020 20:57:17 7.6 C 39 %
559 23-02-2020 21:07:17 7.4 C 39 %
560 23-02-2020 21:17:17 7.7 C 37 %
561 23-02-2020 21:27:17 7.3 C 37 %
562 23-02-2020 21:37:17 7.4 C 37 %
563 23-02-2020 21:47:18 7.4 C 36 %
564 23-02-2020 21:57:18 7.6 C 37 %
565 23-02-2020 22:07:18 7.7 C 36 %
566 23-02-2020 22:17:18 7.7 C 36 %
567 23-02-2020 22:27:18 7.6 C 35 %
568 23-02-2020 22:37:18 7.6 C 35 %
569 23-02-2020 22:47:17 7.6 C 35 %
570 23-02-2020 22:57:18 7.3 C 35 %
571 23-02-2020 23:07:18 7 C 34 %
572 23-02-2020 23:17:18 6.7 C 36 %
573 23-02-2020 23:27:18 7.2 C 33 %
574 23-02-2020 23:37:18 7.1 C 32 %
575 23-02-2020 23:47:17 7.2 C 32 %
Sensor: Nr:Datum:Temp:Feuchte:
Aussen-T/F 576 23-02-2020 23:57:18 6.8 C 33 %
577 24-02-2020 00:07:18 6.7 C 32 %
578 24-02-2020 00:17:18 6.3 C 34 %
579 24-02-2020 00:27:18 6.5 C 34 %
580 24-02-2020 00:37:18 6.4 C 34 %
581 24-02-2020 00:47:18 6 C 34 %
582 24-02-2020 00:57:18 6.1 C 34 %
583 24-02-2020 01:07:18 5.5 C 35 %
584 24-02-2020 01:17:18 5.8 C 35 %
585 24-02-2020 01:27:18 5.8 C 35 %
586 24-02-2020 01:37:17 5.3 C 35 %
587 24-02-2020 01:47:17 5.2 C 35 %
588 24-02-2020 01:57:18 5 C 36 %
589 24-02-2020 02:07:18 4.6 C 37 %
590 24-02-2020 02:17:17 4.4 C 37 %
591 24-02-2020 02:27:17 3.9 C 39 %
592 24-02-2020 02:37:18 3.7 C 40 %
593 24-02-2020 02:47:17 4 C 38 %
594 24-02-2020 02:57:17 4.2 C 38 %
595 24-02-2020 03:07:17 4.3 C 38 %
596 24-02-2020 03:17:17 4.7 C 36 %
597 24-02-2020 03:27:17 4.6 C 37 %
598 24-02-2020 03:37:18 4.5 C 37 %
599 24-02-2020 03:47:17 4.5 C 36 %
600 24-02-2020 03:57:17 4.5 C 36 %
Sensor: Nr:Datum:Temp:Feuchte:
Aussen-T/F 601 24-02-2020 04:07:17 4.6 C 36 %
602 24-02-2020 04:17:17 4.4 C 38 %
603 24-02-2020 04:27:17 4.3 C 38 %
604 24-02-2020 04:37:17 4 C 39 %
605 24-02-2020 04:47:17 3.7 C 41 %
606 24-02-2020 04:57:17 3.8 C 41 %
607 24-02-2020 05:07:17 3.8 C 42 %
608 24-02-2020 05:17:17 4.1 C 41 %
609 24-02-2020 05:27:17 4 C 40 %
610 24-02-2020 05:37:17 3.8 C 41 %
611 24-02-2020 05:47:18 4 C 40 %
612 24-02-2020 05:57:18 4 C 40 %
613 24-02-2020 06:07:17 4 C 40 %
614 24-02-2020 06:17:18 4 C 41 %
615 24-02-2020 06:27:18 3.9 C 42 %
616 24-02-2020 06:37:17 4 C 41 %
617 24-02-2020 06:47:18 3.9 C 42 %
618 24-02-2020 06:57:18 4.2 C 40 %
619 24-02-2020 07:07:18 4.2 C 40 %
620 24-02-2020 07:17:18 4.3 C 40 %
621 24-02-2020 07:27:18 4.3 C 40 %
622 24-02-2020 07:37:18 4.4 C 39 %
623 24-02-2020 07:47:17 4.5 C 39 %
624 24-02-2020 07:57:17 5.1 C 37 %
625 24-02-2020 08:07:18 5.2 C 37 %
Sensor: Nr:Datum:Temp:Feuchte:
Aussen-T/F 626 24-02-2020 08:17:18 5.4 C 37 %
627 24-02-2020 08:27:18 5.7 C 36 %
628 24-02-2020 08:37:18 5.9 C 36 %
629 24-02-2020 08:47:18 6 C 35 %
630 24-02-2020 08:57:18 6.2 C 35 %
631 24-02-2020 09:07:18 6.3 C 35 %
632 24-02-2020 09:17:18 6.3 C 35 %
633 24-02-2020 09:27:18 6.1 C 35 %
634 24-02-2020 09:37:18 6 C 35 %
635 24-02-2020 09:47:18 6 C 35 %
636 24-02-2020 09:57:18 6 C 36 %
637 24-02-2020 10:07:18 5.9 C 37 %
638 24-02-2020 10:17:18 5.7 C 38 %
639 24-02-2020 10:27:18 5.7 C 39 %
640 24-02-2020 10:37:17 5.6 C 40 %
641 24-02-2020 10:47:18 5.7 C 40 %
642 24-02-2020 10:57:18 5.9 C 40 %
643 24-02-2020 11:07:18 6 C 40 %
644 24-02-2020 11:17:18 6 C 40 %
645 24-02-2020 11:27:18 6.1 C 40 %
646 24-02-2020 11:37:18 6.1 C 40 %
647 24-02-2020 11:47:18 6.1 C 40 %
648 24-02-2020 11:57:18 6.5 C 40 %
649 24-02-2020 12:07:17 6.7 C 40 %
650 24-02-2020 12:17:17 6.9 C 40 %
Sensor: Nr:Datum:Temp:Feuchte:
Aussen-T/F 651 24-02-2020 12:27:17 6.7 C 40 %
652 24-02-2020 12:37:18 6.8 C 40 %
653 24-02-2020 12:47:17 7.1 C 41 %
654 24-02-2020 12:57:18 7.3 C 40 %
655 24-02-2020 13:07:18 7.7 C 40 %
656 24-02-2020 13:17:18 7.9 C 40 %
657 24-02-2020 13:27:18 8.2 C 39 %
658 24-02-2020 13:37:18 8.2 C 39 %
659 24-02-2020 13:47:17 8.2 C 40 %
660 24-02-2020 13:57:17 8.4 C 40 %
661 24-02-2020 14:07:18 8.8 C 40 %
662 24-02-2020 14:17:17 9.3 C 40 %
663 24-02-2020 14:27:18 9.6 C 39 %
664 24-02-2020 14:37:18 10.2 C 37 %
665 24-02-2020 14:47:17 10.8 C 37 %
666 24-02-2020 14:57:17 10.9 C 37 %
667 24-02-2020 15:07:18 10.7 C 37 %
668 24-02-2020 15:17:18 10.7 C 37 %
669 24-02-2020 15:27:18 10.8 C 37 %
670 24-02-2020 15:37:18 11 C 36 %
671 24-02-2020 15:47:17 11.3 C 36 %
672 24-02-2020 15:57:18 11.5 C 36 %
673 24-02-2020 16:07:18 11.5 C 35 %
674 24-02-2020 16:17:18 11.8 C 35 %
675 24-02-2020 16:27:18 11.9 C 35 %
Sensor: Nr:Datum:Temp:Feuchte:
Aussen-T/F 676 24-02-2020 16:37:18 11.7 C 35 %
677 24-02-2020 16:47:17 11.3 C 35 %
678 24-02-2020 16:57:17 11.5 C 35 %
679 24-02-2020 17:07:18 11.5 C 35 %
680 24-02-2020 17:17:18 11.5 C 35 %
681 24-02-2020 17:27:18 11.5 C 34 %
682 24-02-2020 17:37:18 11.4 C 34 %
683 24-02-2020 17:47:18 11.5 C 33 %
684 24-02-2020 17:57:18 11.4 C 33 %
685 24-02-2020 18:07:18 11.3 C 33 %
686 24-02-2020 18:17:18 11.2 C 33 %
687 24-02-2020 18:27:18 11.2 C 33 %
688 24-02-2020 18:37:17 11 C 33 %
689 24-02-2020 18:47:17 11 C 33 %
690 24-02-2020 18:57:17 11 C 33 %
691 24-02-2020 19:07:17 11.1 C 33 %
692 24-02-2020 19:17:17 10.8 C 34 %
693 24-02-2020 19:27:17 11.2 C 32 %
694 24-02-2020 19:37:18 11.2 C 32 %
695 24-02-2020 19:47:18 11.1 C 32 %
696 24-02-2020 19:57:18 11.3 C 32 %
697 24-02-2020 20:07:18 11.4 C 32 %
698 24-02-2020 20:17:18 11.2 C 31 %
699 24-02-2020 20:27:18 11.3 C 31 %
700 24-02-2020 20:37:18 11.2 C 31 %
Sensor: Nr:Datum:Temp:Feuchte:
Aussen-T/F 701 24-02-2020 20:47:17 11.2 C 31 %
702 24-02-2020 20:57:18 11 C 31 %
703 24-02-2020 21:07:18 10.9 C 32 %
704 24-02-2020 21:18:17 11 C 32 %
705 24-02-2020 21:27:17 10.9 C 33 %
706 24-02-2020 21:37:17 10.9 C 33 %
707 24-02-2020 21:48:17 10.9 C 33 %
708 24-02-2020 21:57:17 10.8 C 33 %
709 24-02-2020 22:07:17 11 C 32 %
710 24-02-2020 22:17:17 10.9 C 33 %
711 24-02-2020 22:27:17 11 C 32 %
712 24-02-2020 22:37:17 10.9 C 33 %
713 24-02-2020 22:47:17 11.1 C 32 %
714 24-02-2020 22:57:17 11.1 C 32 %
715 24-02-2020 23:08:17 11 C 32 %
716 24-02-2020 23:18:17 10.9 C 33 %
717 24-02-2020 23:28:17 11 C 32 %
718 24-02-2020 23:37:18 10.9 C 33 %
719 24-02-2020 23:48:17 10.8 C 33 %
720 24-02-2020 23:58:17 10.4 C 34 %
721 25-02-2020 00:08:17 10.5 C 34 %
722 25-02-2020 00:17:17 10.4 C 34 %
723 25-02-2020 00:27:17 10.2 C 35 %
724 25-02-2020 00:37:18 10.4 C 35 %
725 25-02-2020 00:47:17 10.6 C 35 %
Sensor: Nr:Datum:Temp:Feuchte:
Aussen-T/F 726 25-02-2020 00:57:17 10.5 C 35 %
727 25-02-2020 01:08:17 10.5 C 35 %
728 25-02-2020 01:18:17 10.5 C 35 %
729 25-02-2020 01:28:17 10.5 C 35 %
730 25-02-2020 01:38:17 10.6 C 35 %
731 25-02-2020 01:48:17 10.4 C 35 %
732 25-02-2020 01:58:17 10.5 C 35 %
733 25-02-2020 02:08:17 10.4 C 35 %
734 25-02-2020 02:18:17 10.3 C 35 %
735 25-02-2020 02:28:17 10.4 C 35 %
736 25-02-2020 02:38:17 10.3 C 35 %
737 25-02-2020 02:48:17 10.3 C 35 %
738 25-02-2020 02:58:17 10.1 C 35 %
739 25-02-2020 03:08:17 9.7 C 36 %
740 25-02-2020 03:18:17 9.8 C 36 %
741 25-02-2020 03:28:18 10 C 36 %
742 25-02-2020 03:38:18 10 C 35 %
743 25-02-2020 03:48:17 10 C 35 %
744 25-02-2020 03:58:18 10 C 35 %
745 25-02-2020 04:08:18 10 C 35 %
746 25-02-2020 04:18:18 9.9 C 36 %
747 25-02-2020 04:28:18 9.9 C 36 %
748 25-02-2020 04:38:18 9.9 C 36 %
749 25-02-2020 04:48:17 9.9 C 36 %
750 25-02-2020 04:58:17 9.9 C 36 %
Sensor: Nr:Datum:Temp:Feuchte:
Aussen-T/F 751 25-02-2020 05:08:18 9.9 C 36 %
752 25-02-2020 05:18:17 9.8 C 36 %
753 25-02-2020 05:28:18 9.7 C 36 %
754 25-02-2020 05:38:18 9.7 C 36 %
755 25-02-2020 05:48:18 9.7 C 36 %
756 25-02-2020 05:58:18 9.7 C 35 %
757 25-02-2020 06:08:18 9.7 C 35 %
758 25-02-2020 06:18:17 9.6 C 35 %
759 25-02-2020 06:28:18 9.5 C 35 %
760 25-02-2020 06:38:18 9.4 C 36 %
761 25-02-2020 06:48:17 9.4 C 36 %
762 25-02-2020 06:58:17 9.3 C 36 %
763 25-02-2020 07:08:17 9.2 C 36 %
764 25-02-2020 07:18:17 9.1 C 36 %
765 25-02-2020 07:28:18 9.1 C 36 %
766 25-02-2020 07:38:18 8.6 C 38 %
767 25-02-2020 07:48:17 8.4 C 40 %
768 25-02-2020 07:58:17 8.2 C 42 %
769 25-02-2020 08:08:18 8.1 C 43 %
770 25-02-2020 08:18:17 8 C 44 %
771 25-02-2020 08:28:17 8 C 42 %
772 25-02-2020 08:38:17 8 C 42 %
773 25-02-2020 08:48:17 8.1 C 42 %
774 25-02-2020 08:58:17 8.2 C 41 %
775 25-02-2020 09:08:18 8.2 C 41 %
Sensor: Nr:Datum:Temp:Feuchte:
Aussen-T/F 776 25-02-2020 09:18:17 8.2 C 40 %
777 25-02-2020 09:28:17 8.5 C 38 %
778 25-02-2020 09:38:18 8.7 C 38 %
779 25-02-2020 09:48:17 8.7 C 36 %
780 25-02-2020 09:58:17 8.6 C 34 %
781 25-02-2020 10:08:17 8.6 C 33 %
782 25-02-2020 10:18:17 8.2 C 33 %
783 25-02-2020 10:28:17 8.7 C 33 %
784 25-02-2020 10:38:18 8.7 C 33 %
785 25-02-2020 10:48:17 9.2 C 32 %
786 25-02-2020 10:58:17 9.6 C 31 %
787 25-02-2020 11:08:18 9.1 C 32 %
788 25-02-2020 11:18:17 8 C 32 %
789 25-02-2020 11:28:17 8.3 C 32 %
790 25-02-2020 11:38:17 8.2 C 31 %
791 25-02-2020 11:48:17 8.5 C 31 %
792 25-02-2020 11:58:18 8.9 C 30 %
793 25-02-2020 12:08:18 11.2 C 26 %
794 25-02-2020 12:18:18 10.4 C 22 %
795 25-02-2020 12:28:18 10.7 C 21 %
796 25-02-2020 12:38:18 10.2 C 23 %
797 25-02-2020 12:48:18 10.2 C 22 %
798 25-02-2020 12:58:18 10.6 C 25 %
799 25-02-2020 13:08:18 10.1 C 25 %
800 25-02-2020 13:18:17 11.1 C 25 %
Sensor: Nr:Datum:Temp:Feuchte:
Aussen-T/F 801 25-02-2020 13:28:17 11.1 C 25 %
802 25-02-2020 13:38:17 11.4 C 23 %
803 25-02-2020 13:48:17 10 C 22 %
804 25-02-2020 13:58:17 10.7 C 23 %
805 25-02-2020 14:08:17 10.7 C 22 %
806 25-02-2020 14:18:17 10.4 C 20 %
807 25-02-2020 14:28:17 10.2 C 22 %
808 25-02-2020 14:38:18 10.2 C 21 %
809 25-02-2020 14:48:17 11 C 21 %
810 25-02-2020 14:58:17 10.4 C 22 %
811 25-02-2020 15:08:17 10.1 C 25 %
812 25-02-2020 15:18:17 11.1 C 22 %
813 25-02-2020 15:28:17 11.1 C 22 %
814 25-02-2020 15:38:17 11.2 C 20 %
815 25-02-2020 15:48:18 11.5 C 20 %
816 25-02-2020 15:58:18 11.7 C 20 %
817 25-02-2020 16:08:18 10.3 C 21 %
818 25-02-2020 16:18:18 10.1 C 21 %
819 25-02-2020 16:28:18 10.1 C 20 %
820 25-02-2020 16:38:18 12.4 C 20 %
821 25-02-2020 16:48:17 11.5 C 20 %
822 25-02-2020 16:58:18 10 C 20 %
823 25-02-2020 17:08:18 9.9 C 20 %
824 25-02-2020 17:18:17 10.8 C 20 %
825 25-02-2020 17:28:18 9.5 C 25 %
Sensor: Nr:Datum:Temp:Feuchte:
Aussen-T/F 826 25-02-2020 17:38:18 9.1 C 25 %
827 25-02-2020 17:48:18 9 C 25 %
828 25-02-2020 17:58:18 8.9 C 27 %
829 25-02-2020 18:08:18 8.8 C 26 %
830 25-02-2020 18:18:18 8.5 C 27 %
831 25-02-2020 18:28:18 8.4 C 28 %
832 25-02-2020 18:38:18 8.6 C 27 %
833 25-02-2020 18:48:17 8.4 C 28 %
834 25-02-2020 18:58:17 7.1 C 31 %
835 25-02-2020 19:08:18 6.5 C 35 %
836 25-02-2020 19:18:18 6.3 C 35 %
837 25-02-2020 19:28:18 6.2 C 35 %
838 25-02-2020 19:38:18 6 C 37 %
839 25-02-2020 19:48:17 5.8 C 40 %
840 25-02-2020 19:58:17 5.7 C 40 %
841 25-02-2020 20:08:18 5.6 C 40 %
842 25-02-2020 20:18:17 5.5 C 41 %
843 25-02-2020 20:28:18 5.6 C 41 %
844 25-02-2020 20:38:18 5.9 C 39 %
845 25-02-2020 20:48:17 6 C 38 %
846 25-02-2020 20:58:17 5.9 C 39 %
847 25-02-2020 21:08:17 5.3 C 40 %
848 25-02-2020 21:18:17 5.3 C 40 %
849 25-02-2020 21:28:17 5.3 C 40 %
850 25-02-2020 21:38:17 5.2 C 41 %
Sensor: Nr:Datum:Temp:Feuchte:
Aussen-T/F 851 25-02-2020 21:48:18 5.8 C 36 %
852 25-02-2020 21:58:18 5.8 C 35 %
853 25-02-2020 22:08:18 5.6 C 34 %
854 25-02-2020 22:18:17 5.6 C 33 %
855 25-02-2020 22:28:17 5.3 C 33 %
856 25-02-2020 22:38:17 4.8 C 34 %
857 25-02-2020 22:48:18 4.4 C 35 %
858 25-02-2020 22:58:18 4.2 C 35 %
859 25-02-2020 23:08:18 4.2 C 35 %
860 25-02-2020 23:18:18 4.4 C 35 %
861 25-02-2020 23:28:18 4.6 C 35 %
862 25-02-2020 23:38:18 5.4 C 34 %
863 25-02-2020 23:48:17 5.5 C 34 %
864 25-02-2020 23:58:17 5.4 C 33 %
865 26-02-2020 00:08:17 5.3 C 35 %
866 26-02-2020 00:18:17 5 C 35 %
867 26-02-2020 00:28:17 4.9 C 36 %
868 26-02-2020 00:38:18 5.1 C 35 %
869 26-02-2020 00:48:17 5.4 C 35 %
870 26-02-2020 00:58:17 5.3 C 35 %
871 26-02-2020 01:08:17 5.4 C 35 %
872 26-02-2020 01:18:17 5.5 C 35 %
873 26-02-2020 01:28:17 5.4 C 35 %
874 26-02-2020 01:38:17 5.3 C 35 %
875 26-02-2020 01:48:17 5.1 C 35 %
Sensor: Nr:Datum:Temp:Feuchte:
Aussen-T/F 876 26-02-2020 01:58:17 5 C 35 %
877 26-02-2020 02:08:18 5.2 C 35 %
878 26-02-2020 02:18:18 5.2 C 34 %
879 26-02-2020 02:28:18 5.2 C 34 %
880 26-02-2020 02:38:17 5 C 34 %
881 26-02-2020 02:48:18 5.1 C 33 %
882 26-02-2020 02:58:18 5 C 32 %
883 26-02-2020 03:08:17 4.8 C 33 %
884 26-02-2020 03:18:17 4.7 C 33 %
885 26-02-2020 03:28:17 4.3 C 34 %
886 26-02-2020 03:38:18 3.8 C 35 %
887 26-02-2020 03:48:18 3.7 C 35 %
888 26-02-2020 03:58:18 4 C 34 %
889 26-02-2020 04:08:18 3.9 C 35 %
890 26-02-2020 04:18:18 3.9 C 35 %
891 26-02-2020 04:28:18 3.9 C 35 %
892 26-02-2020 04:38:18 3.8 C 35 %
893 26-02-2020 04:48:17 3.9 C 35 %
894 26-02-2020 04:58:18 3.9 C 35 %
895 26-02-2020 05:08:18 4 C 33 %
896 26-02-2020 05:18:18 3.9 C 35 %
897 26-02-2020 05:28:18 4 C 33 %
898 26-02-2020 05:38:18 3.9 C 35 %
899 26-02-2020 05:48:17 3.7 C 35 %
900 26-02-2020 05:58:18 3.9 C 34 %
Sensor: Nr:Datum:Temp:Feuchte:
Aussen-T/F 901 26-02-2020 06:08:18 3.9 C 34 %
902 26-02-2020 06:18:18 4 C 32 %
903 26-02-2020 06:28:18 3.7 C 34 %
904 26-02-2020 06:38:18 3.9 C 33 %
905 26-02-2020 06:48:17 3.7 C 33 %
906 26-02-2020 06:58:17 3.6 C 33 %
907 26-02-2020 07:08:18 3.4 C 34 %
908 26-02-2020 07:18:18 3.4 C 34 %
909 26-02-2020 07:28:18 3.2 C 35 %
910 26-02-2020 07:38:17 3.4 C 35 %
911 26-02-2020 07:48:18 3.4 C 35 %
912 26-02-2020 07:58:18 3.4 C 35 %
913 26-02-2020 08:08:18 3.5 C 35 %
914 26-02-2020 08:18:17 3.5 C 35 %
915 26-02-2020 08:28:17 3.6 C 35 %
916 26-02-2020 08:38:18 3.6 C 34 %
917 26-02-2020 08:48:18 3.5 C 35 %
918 26-02-2020 08:58:18 3.3 C 35 %
919 26-02-2020 09:08:17 2.9 C 36 %
920 26-02-2020 09:18:17 2.9 C 37 %
921 26-02-2020 09:28:17 3 C 37 %
922 26-02-2020 09:38:18 3.2 C 36 %
923 26-02-2020 09:48:18 3.6 C 36 %
924 26-02-2020 09:58:18 3.4 C 36 %
925 26-02-2020 10:08:18 3.4 C 36 %
Sensor: Nr:Datum:Temp:Feuchte:
Aussen-T/F 926 26-02-2020 10:18:17 3.4 C 36 %
927 26-02-2020 10:28:17 3.3 C 37 %
928 26-02-2020 10:38:17 3.5 C 36 %
929 26-02-2020 10:48:17 4.2 C 35 %
930 26-02-2020 10:58:17 4.4 C 35 %
931 26-02-2020 11:08:17 4.5 C 34 %
932 26-02-2020 11:18:17 5 C 33 %
933 26-02-2020 11:28:17 5.1 C 33 %
934 26-02-2020 11:38:18 5.4 C 32 %
935 26-02-2020 11:48:18 5.3 C 32 %
936 26-02-2020 11:58:18 5.9 C 32 %
937 26-02-2020 12:08:17 6.1 C 31 %
938 26-02-2020 12:18:17 6.4 C 31 %
939 26-02-2020 12:28:17 5.7 C 31 %
940 26-02-2020 12:38:17 5.7 C 31 %
941 26-02-2020 12:48:17 5.7 C 31 %
942 26-02-2020 12:58:17 6.7 C 29 %
943 26-02-2020 13:08:17 6.7 C 29 %
944 26-02-2020 13:18:18 6.1 C 30 %
945 26-02-2020 13:28:18 5 C 31 %
946 26-02-2020 13:38:17 5.3 C 31 %
947 26-02-2020 13:48:17 5.3 C 31 %
948 26-02-2020 13:58:17 5.1 C 31 %
949 26-02-2020 14:08:17 5.1 C 32 %
950 26-02-2020 14:18:17 5.1 C 32 %
Sensor: Nr:Datum:Temp:Feuchte:
Aussen-T/F 951 26-02-2020 14:28:17 5.1 C 32 %
952 26-02-2020 14:38:17 5.6 C 32 %
953 26-02-2020 14:48:17 5.8 C 32 %
954 26-02-2020 14:58:17 5.6 C 32 %
955 26-02-2020 15:08:17 5.6 C 32 %
956 26-02-2020 15:18:17 6.4 C 31 %
957 26-02-2020 15:28:17 7.6 C 29 %
958 26-02-2020 15:38:17 6.3 C 30 %
959 26-02-2020 15:48:17 6.2 C 30 %
960 26-02-2020 15:58:17 5.8 C 30 %
961 26-02-2020 16:08:17 5.9 C 30 %
962 26-02-2020 16:18:17 5.5 C 30 %
963 26-02-2020 16:28:17 5.5 C 30 %
964 26-02-2020 16:38:17 5.4 C 30 %
965 26-02-2020 16:48:18 5.6 C 30 %
966 26-02-2020 16:58:18 5.4 C 30 %
967 26-02-2020 17:08:18 5.3 C 30 %
968 26-02-2020 17:18:18 5.1 C 30 %
969 26-02-2020 17:28:18 5.1 C 30 %
970 26-02-2020 17:38:17 4.8 C 30 %
971 26-02-2020 17:48:18 4.5 C 31 %
972 26-02-2020 17:58:18 4.2 C 31 %
973 26-02-2020 18:08:18 4 C 32 %
974 26-02-2020 18:18:18 4 C 32 %
975 26-02-2020 18:28:18 4 C 32 %
Sensor: Nr:Datum:Temp:Feuchte:
Aussen-T/F 976 26-02-2020 18:38:18 4 C 32 %
977 26-02-2020 18:48:18 4.1 C 32 %
978 26-02-2020 18:58:18 4.1 C 32 %
979 26-02-2020 19:08:18 4 C 32 %
980 26-02-2020 19:18:17 4 C 33 %
981 26-02-2020 19:28:17 3.9 C 35 %
982 26-02-2020 19:38:17 3.8 C 35 %
983 26-02-2020 19:48:17 3.6 C 35 %
984 26-02-2020 19:58:17 3.4 C 35 %
985 26-02-2020 20:08:17 3.3 C 35 %
986 26-02-2020 20:18:17 3.6 C 35 %
987 26-02-2020 20:28:17 3.6 C 35 %
988 26-02-2020 20:38:17 3.6 C 35 %
989 26-02-2020 20:48:17 3.4 C 35 %
990 26-02-2020 20:58:17 3.6 C 35 %
991 26-02-2020 21:08:18 3.6 C 35 %
992 26-02-2020 21:18:18 3.5 C 35 %
993 26-02-2020 21:28:18 3.2 C 35 %
994 26-02-2020 21:38:18 3.4 C 35 %
995 26-02-2020 21:48:17 3.4 C 35 %
996 26-02-2020 21:58:17 3.5 C 35 %
997 26-02-2020 22:08:18 3.3 C 36 %
998 26-02-2020 22:18:18 3.3 C 36 %
999 26-02-2020 22:28:18 3.3 C 36 %
1000 26-02-2020 22:38:18 3.4 C 36 %
Sensor: Nr:Datum:Temp:Feuchte:
Aussen-T/F 1001 26-02-2020 22:48:17 3.2 C 37 %
1002 26-02-2020 22:58:17 3.3 C 37 %
1003 26-02-2020 23:08:18 3.1 C 37 %
1004 26-02-2020 23:18:18 3 C 37 %
1005 26-02-2020 23:28:18 2.9 C 38 %
1006 26-02-2020 23:38:17 2.8 C 38 %
1007 26-02-2020 23:48:17 2.9 C 37 %
1008 26-02-2020 23:58:17 2.7 C 38 %
1009 27-02-2020 00:08:17 2.9 C 37 %
1010 27-02-2020 00:18:17 3.1 C 37 %
1011 27-02-2020 00:28:17 2.8 C 37 %
1012 27-02-2020 00:38:18 3.1 C 36 %
1013 27-02-2020 00:48:18 2.9 C 37 %
1014 27-02-2020 00:58:18 2.8 C 37 %
1015 27-02-2020 01:08:18 2.3 C 38 %
1016 27-02-2020 01:18:18 2.2 C 38 %
1017 27-02-2020 01:28:18 2.2 C 38 %
1018 27-02-2020 01:38:18 2 C 38 %
1019 27-02-2020 01:48:17 2.6 C 38 %
1020 27-02-2020 01:58:17 2.7 C 38 %
1021 27-02-2020 02:08:18 2.6 C 38 %
1022 27-02-2020 02:18:17 2.9 C 37 %
1023 27-02-2020 02:28:17 2.9 C 37 %
1024 27-02-2020 02:38:17 2.5 C 38 %
1025 27-02-2020 02:48:17 2.7 C 38 %
Sensor: Nr:Datum:Temp:Feuchte:
Aussen-T/F 1026 27-02-2020 02:58:17 3.1 C 36 %
1027 27-02-2020 03:08:18 3.1 C 37 %
1028 27-02-2020 03:18:17 2.6 C 40 %
1029 27-02-2020 03:28:17 2.6 C 40 %
1030 27-02-2020 03:38:17 2.6 C 40 %
1031 27-02-2020 03:48:17 2.7 C 40 %
1032 27-02-2020 03:58:17 2.7 C 40 %
1033 27-02-2020 04:08:18 2.7 C 40 %
1034 27-02-2020 04:18:18 2.7 C 40 %
1035 27-02-2020 04:28:18 2.6 C 40 %
1036 27-02-2020 04:38:18 2.7 C 39 %
1037 27-02-2020 04:48:17 2.3 C 40 %
1038 27-02-2020 04:58:17 2.3 C 39 %
1039 27-02-2020 05:08:18 2.1 C 40 %
1040 27-02-2020 05:18:17 2.3 C 40 %
1041 27-02-2020 05:28:18 2 C 40 %
1042 27-02-2020 05:38:17 2 C 40 %
1043 27-02-2020 05:48:17 2.3 C 40 %
1044 27-02-2020 05:58:17 2.4 C 39 %
1045 27-02-2020 06:08:17 2.2 C 39 %
1046 27-02-2020 06:18:17 2.2 C 38 %
1047 27-02-2020 06:28:17 2.3 C 38 %
1048 27-02-2020 06:38:18 2.3 C 38 %
1049 27-02-2020 06:48:17 2.3 C 38 %
1050 27-02-2020 06:58:17 2.1 C 38 %
Sensor: Nr:Datum:Temp:Feuchte:
Aussen-T/F 1051 27-02-2020 07:08:18 2.3 C 38 %
1052 27-02-2020 07:18:18 2.3 C 38 %
1053 27-02-2020 07:28:18 2.4 C 39 %
1054 27-02-2020 07:38:18 2.5 C 38 %
1055 27-02-2020 07:48:17 2.4 C 39 %
1056 27-02-2020 07:58:17 2.6 C 39 %
1057 27-02-2020 08:08:17 2.5 C 39 %
1058 27-02-2020 08:18:17 2.6 C 40 %
1059 27-02-2020 08:28:17 2.9 C 40 %
1060 27-02-2020 08:38:17 3.2 C 38 %
1061 27-02-2020 08:48:17 3.5 C 37 %
1062 27-02-2020 08:58:17 3.8 C 37 %
1063 27-02-2020 09:08:17 4.2 C 35 %
1064 27-02-2020 09:18:17 4.3 C 35 %
1065 27-02-2020 09:28:17 4.6 C 35 %
1066 27-02-2020 09:38:17 4.7 C 35 %
1067 27-02-2020 09:48:17 4.9 C 35 %
1068 27-02-2020 09:58:17 5.2 C 34 %
1069 27-02-2020 10:08:17 5.1 C 34 %
1070 27-02-2020 10:18:17 5.3 C 33 %
1071 27-02-2020 10:28:17 5.2 C 33 %
1072 27-02-2020 10:38:17 5.4 C 33 %
1073 27-02-2020 10:48:17 5.4 C 33 %
1074 27-02-2020 10:58:17 5 C 33 %
1075 27-02-2020 11:08:17 4.6 C 35 %
Sensor: Nr:Datum:Temp:Feuchte:
Aussen-T/F 1076 27-02-2020 11:18:17 4.2 C 35 %
1077 27-02-2020 11:28:17 3.7 C 36 %
1078 27-02-2020 11:38:17 3.7 C 38 %
1079 27-02-2020 11:48:18 3.9 C 39 %
1080 27-02-2020 11:58:18 3.9 C 39 %
1081 27-02-2020 12:08:18 3.8 C 39 %
1082 27-02-2020 12:18:18 3.9 C 39 %
1083 27-02-2020 12:28:18 3.8 C 40 %
1084 27-02-2020 12:38:18 3.8 C 40 %
1085 27-02-2020 12:48:17 3.5 C 40 %
1086 27-02-2020 12:58:17 3.4 C 41 %
1087 27-02-2020 13:08:18 3.3 C 41 %
1088 27-02-2020 13:18:18 3.2 C 41 %
1089 27-02-2020 13:28:18 3 C 42 %
1090 27-02-2020 13:38:17 2.8 C 42 %
1091 27-02-2020 13:48:17 2.6 C 43 %
1092 27-02-2020 13:58:17 2.6 C 43 %
1093 27-02-2020 14:08:17 2.6 C 44 %
1094 27-02-2020 14:18:17 2.7 C 44 %
1095 27-02-2020 14:28:17 2.5 C 44 %
1096 27-02-2020 14:38:18 2.5 C 44 %
1097 27-02-2020 14:48:18 2.5 C 44 %
1098 27-02-2020 14:58:18 2.4 C 44 %
1099 27-02-2020 15:08:18 2.3 C 44 %
1100 27-02-2020 15:18:18 2.2 C 44 %
Sensor: Nr:Datum:Temp:Feuchte:
Aussen-T/F 1101 27-02-2020 15:28:18 2.3 C 45 %
1102 27-02-2020 15:38:18 2.1 C 44 %
1103 27-02-2020 15:48:17 2.1 C 45 %
1104 27-02-2020 15:58:17 1.8 C 46 %
1105 27-02-2020 16:08:17 1.6 C 46 %
1106 27-02-2020 16:18:17 1.1 C 46 %
1107 27-02-2020 16:28:17 0.8 C 47 %
1108 27-02-2020 16:38:18 0.4 C 48 %
1109 27-02-2020 16:48:17 0.2 C 48 %
1110 27-02-2020 16:58:17 0.2 C 48 %
1111 27-02-2020 17:08:18 0 C 49 %
1112 27-02-2020 17:18:18 0 C 48 %
1113 27-02-2020 17:28:18 0 C 48 %
1114 27-02-2020 17:38:17 0 C 48 %
1115 27-02-2020 17:48:17 0 C 48 %
1116 27-02-2020 17:58:17 0 C 48 %
1117 27-02-2020 18:08:18 0.1 C 48 %
1118 27-02-2020 18:18:17 0.1 C 48 %
1119 27-02-2020 18:28:17 0.1 C 48 %
1120 27-02-2020 18:38:17 0.1 C 48 %
1121 27-02-2020 18:48:18 0.1 C 48 %
1122 27-02-2020 18:58:18 0.1 C 48 %
1123 27-02-2020 19:08:18 0.3 C 48 %
1124 27-02-2020 19:18:18 0.4 C 48 %
1125 27-02-2020 19:28:18 0.3 C 48 %
Sensor: Nr:Datum:Temp:Feuchte:
Aussen-T/F 1126 27-02-2020 19:38:18 0.6 C 48 %
1127 27-02-2020 19:48:18 0.6 C 48 %
1128 27-02-2020 19:58:18 0.6 C 48 %
1129 27-02-2020 20:08:18 0.7 C 48 %
1130 27-02-2020 20:18:18 0.6 C 48 %
1131 27-02-2020 20:28:18 0.8 C 48 %
1132 27-02-2020 20:38:17 0.6 C 48 %
1133 27-02-2020 20:48:17 0.5 C 48 %
1134 27-02-2020 20:58:17 0.6 C 48 %
1135 27-02-2020 21:08:17 0.6 C 48 %
1136 27-02-2020 21:18:17 0.7 C 47 %
1137 27-02-2020 21:28:17 0.7 C 47 %
1138 27-02-2020 21:38:17 0.7 C 47 %
1139 27-02-2020 21:48:17 0.7 C 47 %
1140 27-02-2020 21:58:17 0.7 C 48 %
1141 27-02-2020 22:08:18 0.7 C 48 %
1142 27-02-2020 22:18:17 0.6 C 48 %
1143 27-02-2020 22:28:18 0.7 C 49 %
1144 27-02-2020 22:38:18 1 C 47 %
1145 27-02-2020 22:48:17 1 C 45 %
1146 27-02-2020 22:58:18 1 C 46 %
1147 27-02-2020 23:08:18 1.1 C 46 %
1148 27-02-2020 23:18:18 1.4 C 46 %
1149 27-02-2020 23:28:18 1.6 C 45 %
1150 27-02-2020 23:38:18 1.5 C 44 %
Sensor: Nr:Datum:Temp:Feuchte:
Aussen-T/F 1151 27-02-2020 23:48:18 1.7 C 44 %
1152 27-02-2020 23:58:18 1.6 C 43 %
1153 28-02-2020 00:08:18 1.7 C 43 %
1154 28-02-2020 00:18:17 1.9 C 43 %
1155 28-02-2020 00:28:17 1.7 C 43 %
1156 28-02-2020 00:38:18 1.6 C 45 %
1157 28-02-2020 00:48:17 1.5 C 45 %
1158 28-02-2020 00:58:17 1.7 C 45 %
1159 28-02-2020 01:08:17 1.4 C 46 %
1160 28-02-2020 01:18:17 1.4 C 46 %
1161 28-02-2020 01:28:17 1.3 C 46 %
1162 28-02-2020 01:38:17 1.5 C 45 %
1163 28-02-2020 01:48:18 1.5 C 45 %
1164 28-02-2020 01:58:18 1.4 C 45 %
1165 28-02-2020 02:08:18 1.4 C 46 %
1166 28-02-2020 02:18:18 1.4 C 45 %
1167 28-02-2020 02:28:18 1.5 C 45 %
1168 28-02-2020 02:38:18 1.4 C 44 %
1169 28-02-2020 02:48:17 1.4 C 44 %
1170 28-02-2020 02:58:18 1.4 C 43 %
1171 28-02-2020 03:08:18 1.5 C 42 %
1172 28-02-2020 03:18:18 1.3 C 43 %
1173 28-02-2020 03:28:18 1.1 C 43 %
1174 28-02-2020 03:38:18 1 C 43 %
1175 28-02-2020 03:48:17 0.9 C 44 %
Sensor: Nr:Datum:Temp:Feuchte:
Aussen-T/F 1176 28-02-2020 03:58:17 1.1 C 44 %
1177 28-02-2020 04:08:17 1.2 C 43 %
1178 28-02-2020 04:18:17 1.3 C 43 %
1179 28-02-2020 04:28:18 1.3 C 43 %
1180 28-02-2020 04:38:18 1.3 C 43 %
1181 28-02-2020 04:48:17 1.3 C 43 %
1182 28-02-2020 04:58:17 1.4 C 42 %
1183 28-02-2020 05:08:17 1.2 C 42 %
1184 28-02-2020 05:18:17 1 C 43 %
1185 28-02-2020 05:28:17 0.9 C 45 %
1186 28-02-2020 05:38:17 1 C 43 %
1187 28-02-2020 05:48:17 1.1 C 42 %
1188 28-02-2020 05:58:17 1.1 C 43 %
1189 28-02-2020 06:08:17 0.8 C 44 %
1190 28-02-2020 06:18:17 0.6 C 45 %
1191 28-02-2020 06:28:17 0.8 C 44 %
1192 28-02-2020 06:38:18 0.8 C 43 %
1193 28-02-2020 06:48:18 0.7 C 44 %
1194 28-02-2020 06:58:18 0.5 C 43 %
1195 28-02-2020 07:08:18 0.6 C 43 %
1196 28-02-2020 07:18:17 0.2 C 45 %
1197 28-02-2020 07:28:17 0.7 C 43 %
1198 28-02-2020 07:38:17 0.7 C 43 %
1199 28-02-2020 07:48:18 0.4 C 44 %
1200 28-02-2020 07:58:18 0.4 C 44 %
Sensor: Nr:Datum:Temp:Feuchte:
Aussen-T/F 1201 28-02-2020 08:08:18 0.2 C 45 %
1202 28-02-2020 08:18:18 0.4 C 44 %
1203 28-02-2020 08:28:18 0.2 C 45 %
1204 28-02-2020 08:38:17 0.7 C 44 %
1205 28-02-2020 08:48:17 0.8 C 43 %
1206 28-02-2020 08:58:17 1.1 C 42 %
1207 28-02-2020 09:08:17 1.4 C 41 %
1208 28-02-2020 09:18:17 1.3 C 42 %
1209 28-02-2020 09:28:17 1.5 C 41 %
1210 28-02-2020 09:38:17 1.7 C 41 %
1211 28-02-2020 09:48:18 1.8 C 41 %
1212 28-02-2020 09:58:18 1.9 C 41 %
1213 28-02-2020 10:08:18 2.1 C 40 %
1214 28-02-2020 10:18:18 2.5 C 40 %
1215 28-02-2020 10:28:18 2.8 C 39 %
1216 28-02-2020 10:38:17 3.2 C 37 %
1217 28-02-2020 10:48:17 3.1 C 37 %
1218 28-02-2020 10:58:17 3.3 C 37 %
1219 28-02-2020 11:08:17 3.6 C 37 %
1220 28-02-2020 11:18:17 3.8 C 37 %
1221 28-02-2020 11:28:17 4.2 C 36 %
1222 28-02-2020 11:38:17 4.5 C 36 %
1223 28-02-2020 11:48:18 3.8 C 37 %
1224 28-02-2020 11:58:18 4.1 C 35 %
1225 28-02-2020 12:08:18 4.3 C 35 %
Sensor: Nr:Datum:Temp:Feuchte:
Aussen-T/F 1226 28-02-2020 12:18:18 4.3 C 36 %
1227 28-02-2020 12:28:18 4.6 C 35 %
1228 28-02-2020 12:38:18 5.1 C 34 %
1229 28-02-2020 12:48:18 6.3 C 33 %
1230 28-02-2020 12:58:18 6.5 C 33 %
1231 28-02-2020 13:08:18 6.8 C 32 %
1232 28-02-2020 13:18:18 7.2 C 31 %
1233 28-02-2020 13:28:18 6.7 C 31 %
1234 28-02-2020 13:38:18 7 C 30 %
1235 28-02-2020 13:48:17 7.8 C 29 %
1236 28-02-2020 13:58:17 8 C 28 %
1237 28-02-2020 14:08:18 8.1 C 27 %
1238 28-02-2020 14:18:18 8 C 28 %
1239 28-02-2020 14:28:18 8.2 C 28 %
1240 28-02-2020 14:38:18 8.1 C 27 %
1241 28-02-2020 14:48:17 8.3 C 27 %
1242 28-02-2020 14:58:18 7.7 C 27 %
1243 28-02-2020 15:08:18 8 C 27 %
1244 28-02-2020 15:18:17 8 C 27 %
1245 28-02-2020 15:28:17 8.8 C 26 %
1246 28-02-2020 15:38:18 8.5 C 25 %
1247 28-02-2020 15:48:18 7.8 C 26 %
1248 28-02-2020 15:58:18 7.8 C 26 %
1249 28-02-2020 16:08:18 7.3 C 26 %
1250 28-02-2020 16:18:18 7.5 C 27 %
Sensor: Nr:Datum:Temp:Feuchte:
Aussen-T/F 1251 28-02-2020 16:28:18 7 C 30 %
1252 28-02-2020 16:38:18 6.8 C 31 %
1253 28-02-2020 16:48:17 6.6 C 32 %
1254 28-02-2020 16:58:18 6.7 C 31 %
1255 28-02-2020 17:08:18 6.1 C 32 %
1256 28-02-2020 17:18:18 5.8 C 35 %
1257 28-02-2020 17:28:18 5.1 C 35 %
1258 28-02-2020 17:38:18 5.2 C 35 %
1259 28-02-2020 17:48:17 4.8 C 37 %
1260 28-02-2020 17:58:18 4.6 C 37 %
1261 28-02-2020 18:08:17 4.5 C 37 %
1262 28-02-2020 18:18:17 4.5 C 37 %
1263 28-02-2020 18:28:17 4.7 C 36 %
1264 28-02-2020 18:38:18 5.1 C 34 %
1265 28-02-2020 18:48:17 5.1 C 33 %
1266 28-02-2020 18:58:17 4.9 C 35 %
1267 28-02-2020 19:08:17 5 C 32 %
1268 28-02-2020 19:18:17 5 C 32 %
1269 28-02-2020 19:28:18 4.8 C 35 %
1270 28-02-2020 19:38:17 5.3 C 33 %
1271 28-02-2020 19:48:17 5 C 34 %
1272 28-02-2020 19:58:17 5 C 34 %
1273 28-02-2020 20:08:17 4.7 C 35 %
1274 28-02-2020 20:18:18 4.9 C 33 %
1275 28-02-2020 20:28:18 4.5 C 35 %
Sensor: Nr:Datum:Temp:Feuchte:
Aussen-T/F 1276 28-02-2020 20:38:18 4.4 C 36 %
1277 28-02-2020 20:48:17 4.1 C 36 %
1278 28-02-2020 20:58:17 4 C 38 %
1279 28-02-2020 21:08:18 3.7 C 40 %
1280 28-02-2020 21:18:18 3.7 C 41 %
1281 28-02-2020 21:28:18 3.8 C 40 %
1282 28-02-2020 21:38:18 3.8 C 40 %
1283 28-02-2020 21:48:17 4.2 C 37 %
1284 28-02-2020 21:58:17 4 C 38 %
1285 28-02-2020 22:08:18 3.9 C 39 %
1286 28-02-2020 22:18:18 3.7 C 40 %
1287 28-02-2020 22:28:18 3.7 C 41 %
1288 28-02-2020 22:38:17 3.6 C 42 %
1289 28-02-2020 22:48:17 3.5 C 44 %
1290 28-02-2020 22:58:17 3.6 C 45 %
1291 28-02-2020 23:08:17 3.4 C 46 %
1292 28-02-2020 23:18:17 3.5 C 46 %
1293 28-02-2020 23:28:18 3.6 C 45 %
1294 28-02-2020 23:38:18 3.8 C 43 %
1295 28-02-2020 23:48:18 3.9 C 44 %
1296 28-02-2020 23:58:18 3.9 C 44 %
1297 29-02-2020 00:08:18 4.3 C 42 %
1298 29-02-2020 00:18:18 4.5 C 42 %
1299 29-02-2020 00:28:18 4.7 C 41 %
1300 29-02-2020 00:38:18 5.1 C 40 %
Sensor: Nr:Datum:Temp:Feuchte:
Aussen-T/F 1301 29-02-2020 00:48:17 5 C 41 %
1302 29-02-2020 00:58:17 4.8 C 42 %
1303 29-02-2020 01:08:18 5 C 42 %
1304 29-02-2020 01:18:18 4.8 C 43 %
1305 29-02-2020 01:28:18 4.9 C 45 %
1306 29-02-2020 01:38:18 5 C 44 %
1307 29-02-2020 01:48:17 5.1 C 45 %
1308 29-02-2020 01:58:17 5.1 C 45 %
1309 29-02-2020 02:08:18 5.2 C 44 %
1310 29-02-2020 02:18:18 5.2 C 45 %
1311 29-02-2020 02:28:18 5.3 C 45 %
1312 29-02-2020 02:38:18 5.6 C 44 %
1313 29-02-2020 02:48:17 5.9 C 43 %
1314 29-02-2020 02:58:17 7 C 41 %
1315 29-02-2020 03:08:18 7.5 C 40 %
1316 29-02-2020 03:18:18 7.8 C 39 %
1317 29-02-2020 03:28:18 8.5 C 38 %
1318 29-02-2020 03:38:18 8.3 C 38 %
1319 29-02-2020 03:48:17 8.8 C 38 %
1320 29-02-2020 03:58:17 8.9 C 38 %
1321 29-02-2020 04:08:18 9.1 C 37 %
1322 29-02-2020 04:18:17 9.4 C 37 %
1323 29-02-2020 04:28:18 9.5 C 37 %
1324 29-02-2020 04:38:18 9 C 37 %
1325 29-02-2020 04:48:17 9.3 C 37 %
Sensor: Nr:Datum:Temp:Feuchte:
Aussen-T/F 1326 29-02-2020 04:58:17 9 C 37 %
1327 29-02-2020 05:08:18 9.1 C 37 %
1328 29-02-2020 05:18:17 9 C 37 %
1329 29-02-2020 05:28:17 9.2 C 36 %
1330 29-02-2020 05:38:17 8.6 C 37 %
1331 29-02-2020 05:48:18 8.8 C 37 %
1332 29-02-2020 05:58:18 9.1 C 36 %
1333 29-02-2020 06:08:17 8.8 C 37 %
1334 29-02-2020 06:18:17 8.4 C 37 %
1335 29-02-2020 06:28:17 8.6 C 37 %
1336 29-02-2020 06:38:17 8.7 C 37 %
1337 29-02-2020 06:48:17 8.6 C 37 %
1338 29-02-2020 06:58:17 8.4 C 37 %
1339 29-02-2020 07:08:17 8.1 C 37 %
1340 29-02-2020 07:18:17 8 C 37 %
1341 29-02-2020 07:28:17 8.3 C 37 %
1342 29-02-2020 07:38:17 7.8 C 38 %
1343 29-02-2020 07:48:17 7.6 C 38 %
1344 29-02-2020 07:58:17 7.3 C 39 %
1345 29-02-2020 08:08:17 7.6 C 38 %
1346 29-02-2020 08:18:17 7.4 C 39 %
1347 29-02-2020 08:28:17 7.5 C 39 %
1348 29-02-2020 08:38:17 7.4 C 39 %
1349 29-02-2020 08:48:17 7.6 C 39 %
1350 29-02-2020 08:58:17 8 C 38 %
Sensor: Nr:Datum:Temp:Feuchte:
Aussen-T/F 1351 29-02-2020 09:08:17 8.3 C 37 %
1352 29-02-2020 09:18:17 8.9 C 36 %
1353 29-02-2020 09:28:17 9.2 C 36 %
1354 29-02-2020 09:38:17 9.6 C 35 %
1355 29-02-2020 09:48:17 10 C 33 %
1356 29-02-2020 09:58:17 10 C 32 %
1357 29-02-2020 10:08:17 10 C 32 %
1358 29-02-2020 10:18:17 9.9 C 33 %
1359 29-02-2020 10:28:17 10.1 C 31 %
1360 29-02-2020 10:38:18 10.4 C 31 %
1361 29-02-2020 10:48:17 10.7 C 31 %
1362 29-02-2020 10:58:17 10.7 C 31 %
1363 29-02-2020 11:08:18 11.1 C 30 %
1364 29-02-2020 11:18:17 12.1 C 30 %
1365 29-02-2020 11:28:17 13.9 C 25 %
1366 29-02-2020 11:38:17 13.7 C 23 %
1367 29-02-2020 11:48:17 13.4 C 24 %
1368 29-02-2020 11:58:17 14.3 C 23 %
1369 29-02-2020 12:08:17 15.5 C 20 %
1370 29-02-2020 12:18:18 15.4 C 20 %
1371 29-02-2020 12:28:18 15.1 C 20 %
1372 29-02-2020 12:38:17 16.2 C 20 %
1373 29-02-2020 12:48:17 15.1 C 20 %
1374 29-02-2020 12:58:17 15.4 C 20 %
1375 29-02-2020 13:08:17 15.5 C 20 %
Sensor: Nr:Datum:Temp:Feuchte:
Aussen-T/F 1376 29-02-2020 13:18:17 15 C 20 %
1377 29-02-2020 13:28:17 14.8 C 20 %
1378 29-02-2020 13:38:18 15.4 C 20 %
1379 29-02-2020 13:48:18 15.6 C 20 %
1380 29-02-2020 13:58:18 16.4 C 20 %
1381 29-02-2020 14:08:18 15.1 C 20 %
1382 29-02-2020 14:18:17 15.1 C 20 %
1383 29-02-2020 14:28:17 14.8 C 21 %
1384 29-02-2020 14:38:17 13.1 C 26 %
1385 29-02-2020 14:48:17 12 C 32 %
1386 29-02-2020 14:58:17 10.5 C 38 %
1387 29-02-2020 15:08:17 10.4 C 39 %
1388 29-02-2020 15:18:17 10.8 C 39 %
1389 29-02-2020 15:28:17 10.6 C 40 %
1390 29-02-2020 15:38:18 10.4 C 39 %
1391 29-02-2020 15:48:17 10.7 C 37 %
1392 29-02-2020 15:58:17 11.3 C 35 %
1393 29-02-2020 16:08:18 12.6 C 32 %
1394 29-02-2020 16:18:17 12 C 32 %
1395 29-02-2020 16:28:18 10.7 C 35 %
1396 29-02-2020 16:38:18 10.1 C 37 %
1397 29-02-2020 16:48:17 9.9 C 37 %
1398 29-02-2020 16:58:17 9.5 C 36 %
1399 29-02-2020 17:08:18 9 C 35 %
1400 29-02-2020 17:18:17 8.9 C 35 %
Sensor: Nr:Datum:Temp:Feuchte:
Aussen-T/F 1401 29-02-2020 17:28:18 8.8 C 34 %
1402 29-02-2020 17:38:18 8.6 C 34 %
1403 29-02-2020 17:48:18 8.6 C 35 %
1404 29-02-2020 17:58:18 8.7 C 34 %
1405 29-02-2020 18:08:18 8.6 C 35 %
1406 29-02-2020 18:18:18 8.2 C 35 %
1407 29-02-2020 18:28:18 8.1 C 35 %
1408 29-02-2020 18:38:18 8 C 35 %
1409 29-02-2020 18:48:17 6.7 C 36 %
1410 29-02-2020 18:58:17 5.9 C 36 %
1411 29-02-2020 19:08:17 5.9 C 37 %
1412 29-02-2020 19:18:18 6 C 36 %
1413 29-02-2020 19:28:18 6.3 C 35 %
1414 29-02-2020 19:38:18 6.7 C 34 %
1415 29-02-2020 19:48:18 6.6 C 34 %
1416 29-02-2020 19:58:18 6.7 C 34 %
1417 29-02-2020 20:08:18 6.6 C 34 %
1418 29-02-2020 20:18:18 6.3 C 34 %
1419 29-02-2020 20:28:18 6.3 C 34 %
1420 29-02-2020 20:38:18 5.9 C 35 %
1421 29-02-2020 20:48:18 5.7 C 35 %
1422 29-02-2020 20:58:18 5.3 C 35 %
1423 29-02-2020 21:08:18 5.2 C 35 %
1424 29-02-2020 21:18:17 5.7 C 34 %
1425 29-02-2020 21:28:17 5 C 35 %
Sensor: Nr:Datum:Temp:Feuchte:
Aussen-T/F 1426 29-02-2020 21:38:17 5 C 35 %
1427 29-02-2020 21:48:17 4.3 C 36 %
1428 29-02-2020 21:58:17 3.9 C 38 %
1429 29-02-2020 22:08:17 3.7 C 38 %
1430 29-02-2020 22:18:18 3.4 C 39 %
1431 29-02-2020 22:28:18 3.3 C 40 %
1432 29-02-2020 22:38:18 3.3 C 41 %
1433 29-02-2020 22:48:17 3.7 C 40 %
1434 29-02-2020 22:58:18 4 C 39 %
1435 29-02-2020 23:08:18 4.2 C 38 %
1436 29-02-2020 23:18:18 4.4 C 38 %
1437 29-02-2020 23:28:18 4.5 C 38 %
1438 29-02-2020 23:38:18 4.7 C 38 %
1439 29-02-2020 23:48:18 5.4 C 36 %
1440 29-02-2020 23:58:18 6.3 C 35 %
1441 01-03-2020 00:08:18 6.6 C 35 %
1442 01-03-2020 00:18:18 6.6 C 35 %
1443 01-03-2020 00:28:18 6.3 C 35 %
1444 01-03-2020 00:38:18 6.2 C 35 %
1445 01-03-2020 00:48:17 6.2 C 35 %
1446 01-03-2020 00:58:18 6.2 C 35 %
1447 01-03-2020 01:08:17 6.1 C 35 %
1448 01-03-2020 01:18:18 6 C 35 %
1449 01-03-2020 01:28:18 5.7 C 35 %
1450 01-03-2020 01:38:18 5.5 C 36 %
Sensor: Nr:Datum:Temp:Feuchte:
Aussen-T/F 1451 01-03-2020 01:48:17 5.8 C 36 %
1452 01-03-2020 01:58:17 5.8 C 35 %
1453 01-03-2020 02:08:17 5.3 C 36 %
1454 01-03-2020 02:18:17 5.8 C 36 %
1455 01-03-2020 02:28:17 5.7 C 36 %
1456 01-03-2020 02:38:17 5.8 C 36 %
1457 01-03-2020 02:48:17 6.2 C 35 %
1458 01-03-2020 02:58:17 6.5 C 35 %
1459 01-03-2020 03:08:18 6.5 C 35 %
1460 01-03-2020 03:18:17 6.6 C 35 %
1461 01-03-2020 03:28:17 6.7 C 35 %
1462 01-03-2020 03:38:18 6.5 C 35 %
1463 01-03-2020 03:48:17 6.4 C 35 %
1464 01-03-2020 03:58:17 6.8 C 35 %
1465 01-03-2020 04:08:17 6.6 C 35 %
1466 01-03-2020 04:18:17 6.9 C 34 %
1467 01-03-2020 04:28:17 7 C 33 %
1468 01-03-2020 04:38:18 6.9 C 34 %
1469 01-03-2020 04:48:17 7.1 C 33 %
1470 01-03-2020 04:58:17 7 C 33 %
1471 01-03-2020 05:08:17 7.1 C 33 %
1472 01-03-2020 05:18:18 6.8 C 34 %
1473 01-03-2020 05:28:18 7.2 C 32 %
1474 01-03-2020 05:38:18 6.8 C 34 %
1475 01-03-2020 05:48:17 6.9 C 34 %
Sensor: Nr:Datum:Temp:Feuchte:
Aussen-T/F 1476 01-03-2020 05:58:18 6.6 C 34 %
1477 01-03-2020 06:08:18 6.7 C 34 %
1478 01-03-2020 06:18:17 6.8 C 34 %
1479 01-03-2020 06:28:17 7 C 33 %
1480 01-03-2020 06:38:17 7.1 C 33 %
1481 01-03-2020 06:48:17 6.4 C 35 %
1482 01-03-2020 06:58:17 5.9 C 36 %
1483 01-03-2020 07:08:17 5.4 C 38 %
1484 01-03-2020 07:18:17 5.4 C 39 %
1485 01-03-2020 07:28:18 5.2 C 39 %
1486 01-03-2020 07:38:18 5.1 C 41 %
1487 01-03-2020 07:48:18 5.2 C 41 %
1488 01-03-2020 07:58:18 5.2 C 42 %
1489 01-03-2020 08:08:18 5.2 C 42 %
1490 01-03-2020 08:18:17 5.3 C 42 %
1491 01-03-2020 08:28:17 5 C 40 %
1492 01-03-2020 08:38:17 4.7 C 41 %
1493 01-03-2020 08:48:17 4 C 41 %
1494 01-03-2020 08:58:17 4 C 42 %
1495 01-03-2020 09:08:17 4.1 C 42 %
1496 01-03-2020 09:18:17 4.3 C 41 %
1497 01-03-2020 09:28:17 4.8 C 40 %
1498 01-03-2020 09:38:17 4.8 C 41 %
1499 01-03-2020 09:48:18 4.7 C 41 %
1500 01-03-2020 09:58:18 4.8 C 41 %
Sensor: Nr:Datum:Temp:Feuchte:
Aussen-T/F 1501 01-03-2020 10:08:17 5.3 C 40 %
1502 01-03-2020 10:18:17 5.7 C 39 %
1503 01-03-2020 10:28:17 7.1 C 36 %
1504 01-03-2020 10:38:17 7.6 C 36 %
1505 01-03-2020 10:48:17 7.8 C 35 %
1506 01-03-2020 10:58:17 8 C 34 %
1507 01-03-2020 11:08:17 8.1 C 33 %
1508 01-03-2020 11:18:17 8.6 C 33 %
1509 01-03-2020 11:28:18 10 C 30 %
1510 01-03-2020 11:38:18 10.2 C 28 %
1511 01-03-2020 11:48:17 8.8 C 29 %
1512 01-03-2020 11:58:17 10.2 C 27 %
1513 01-03-2020 12:08:17 8.9 C 30 %
1514 01-03-2020 12:18:17 9.3 C 28 %
1515 01-03-2020 12:28:17 9.7 C 27 %
1516 01-03-2020 12:38:18 9.2 C 28 %
1517 01-03-2020 12:48:18 11.4 C 26 %
1518 01-03-2020 12:58:18 12.3 C 21 %
1519 01-03-2020 13:08:18 11.4 C 24 %
1520 01-03-2020 13:18:17 10.4 C 25 %
1521 01-03-2020 13:28:17 10.4 C 25 %
1522 01-03-2020 13:38:17 10.6 C 22 %
1523 01-03-2020 13:48:17 10.2 C 22 %
1524 01-03-2020 13:58:17 10.8 C 22 %
1525 01-03-2020 14:08:18 10.1 C 23 %
Sensor: Nr:Datum:Temp:Feuchte:
Aussen-T/F 1526 01-03-2020 14:18:18 9.9 C 25 %
1527 01-03-2020 14:28:18 10.9 C 25 %
1528 01-03-2020 14:38:18 10.5 C 23 %
1529 01-03-2020 14:48:17 10.9 C 25 %
1530 01-03-2020 14:58:18 10.1 C 25 %
1531 01-03-2020 15:08:18 10.1 C 25 %
1532 01-03-2020 15:18:17 12.6 C 20 %
1533 01-03-2020 15:28:17 11.9 C 22 %
1534 01-03-2020 15:38:18 12 C 20 %
1535 01-03-2020 15:48:18 12.8 C 20 %
1536 01-03-2020 15:58:18 11.7 C 21 %
1537 01-03-2020 16:08:18 10.8 C 25 %
1538 01-03-2020 16:18:18 10.5 C 25 %
1539 01-03-2020 16:28:18 10.7 C 25 %
1540 01-03-2020 16:38:18 10.3 C 30 %
1541 01-03-2020 16:48:18 10.2 C 29 %
1542 01-03-2020 16:58:18 9.7 C 31 %
1543 01-03-2020 17:08:18 8.4 C 35 %
1544 01-03-2020 17:18:17 7.8 C 39 %
1545 01-03-2020 17:28:17 7.6 C 42 %
1546 01-03-2020 17:38:17 7.3 C 43 %
1547 01-03-2020 17:48:17 7 C 44 %
1548 01-03-2020 17:58:17 6.9 C 45 %
1549 01-03-2020 18:08:18 6.8 C 45 %
1550 01-03-2020 18:18:18 6.7 C 45 %
Sensor: Nr:Datum:Temp:Feuchte:
Aussen-T/F 1551 01-03-2020 18:28:18 6.7 C 45 %
1552 01-03-2020 18:38:18 6.7 C 45 %
1553 01-03-2020 18:48:18 6.6 C 45 %
1554 01-03-2020 18:58:18 6.5 C 45 %
1555 01-03-2020 19:08:18 6.5 C 45 %
1556 01-03-2020 19:18:17 6.5 C 45 %
1557 01-03-2020 19:28:17 6.4 C 45 %
1558 01-03-2020 19:38:17 6.3 C 45 %
1559 01-03-2020 19:48:17 6.3 C 45 %
1560 01-03-2020 19:58:17 6.2 C 45 %
1561 01-03-2020 20:08:17 6.3 C 45 %
1562 01-03-2020 20:18:17 6.2 C 45 %
1563 01-03-2020 20:28:17 6 C 45 %
1564 01-03-2020 20:38:17 5.8 C 45 %
1565 01-03-2020 20:48:17 5.7 C 45 %
1566 01-03-2020 20:58:17 5.6 C 45 %
1567 01-03-2020 21:08:17 5.6 C 45 %
1568 01-03-2020 21:18:17 5.5 C 45 %
1569 01-03-2020 21:28:17 5.4 C 45 %
1570 01-03-2020 21:38:17 5.7 C 45 %
1571 01-03-2020 21:48:17 5.8 C 45 %
1572 01-03-2020 21:58:17 5.9 C 45 %
1573 01-03-2020 22:08:17 6 C 45 %
1574 01-03-2020 22:18:17 6 C 45 %
1575 01-03-2020 22:28:17 6.1 C 45 %
Sensor: Nr:Datum:Temp:Feuchte:
Aussen-T/F 1576 01-03-2020 22:38:18 6.2 C 45 %
1577 01-03-2020 22:48:17 6.2 C 45 %
1578 01-03-2020 22:58:17 6.3 C 45 %
1579 01-03-2020 23:08:18 6.4 C 45 %
1580 01-03-2020 23:18:18 5.8 C 45 %
1581 01-03-2020 23:28:18 4.3 C 40 %
1582 01-03-2020 23:38:18 3.1 C 41 %
1583 01-03-2020 23:48:18 2.9 C 44 %
1584 01-03-2020 23:58:18 3.1 C 44 %
1585 02-03-2020 00:08:18 3.3 C 44 %
1586 02-03-2020 00:18:17 3.3 C 43 %
1587 02-03-2020 00:28:17 3.5 C 43 %
1588 02-03-2020 00:38:17 3.5 C 43 %
1589 02-03-2020 00:48:17 3.7 C 42 %
1590 02-03-2020 00:58:18 3.6 C 42 %
1591 02-03-2020 01:08:18 3.7 C 42 %
1592 02-03-2020 01:18:17 3.9 C 41 %
1593 02-03-2020 01:28:17 3.8 C 42 %
1594 02-03-2020 01:38:17 3.8 C 41 %
1595 02-03-2020 01:48:18 4 C 40 %
1596 02-03-2020 01:58:18 3.5 C 42 %
1597 02-03-2020 02:08:18 3.7 C 42 %
1598 02-03-2020 02:18:17 3.6 C 42 %
1599 02-03-2020 02:28:17 3.5 C 42 %
1600 02-03-2020 02:38:17 4 C 40 %
Sensor: Nr:Datum:Temp:Feuchte:
Aussen-T/F 1601 02-03-2020 02:48:17 3.8 C 41 %
1602 02-03-2020 02:58:18 3.5 C 42 %
1603 02-03-2020 03:08:18 3.3 C 43 %
1604 02-03-2020 03:18:18 3.4 C 42 %
1605 02-03-2020 03:28:18 2.9 C 44 %
1606 02-03-2020 03:38:18 2.4 C 45 %
1607 02-03-2020 03:48:18 2.9 C 45 %
1608 02-03-2020 03:58:18 2.6 C 45 %
1609 02-03-2020 04:08:18 2.3 C 45 %
1610 02-03-2020 04:18:17 2 C 46 %
1611 02-03-2020 04:28:17 2.2 C 46 %
1612 02-03-2020 04:38:18 2.3 C 47 %
1613 02-03-2020 04:48:18 2.2 C 46 %
1614 02-03-2020 04:58:18 1.9 C 48 %
1615 02-03-2020 05:08:18 1.7 C 48 %
1616 02-03-2020 05:18:17 1.5 C 48 %
1617 02-03-2020 05:28:17 1.3 C 48 %
1618 02-03-2020 05:38:18 1.4 C 48 %
1619 02-03-2020 05:48:18 1.4 C 48 %
1620 02-03-2020 05:58:18 1.3 C 48 %
1621 02-03-2020 06:08:18 1.1 C 48 %
1622 02-03-2020 06:18:18 1.3 C 48 %
1623 02-03-2020 06:28:18 1.3 C 48 %
1624 02-03-2020 06:38:18 1.4 C 48 %
1625 02-03-2020 06:48:17 1.4 C 48 %
Sensor: Nr:Datum:Temp:Feuchte:
Aussen-T/F 1626 02-03-2020 06:58:17 1.5 C 48 %
1627 02-03-2020 07:08:18 1.5 C 48 %
1628 02-03-2020 07:18:18 1.7 C 48 %
1629 02-03-2020 07:28:18 1.8 C 48 %
1630 02-03-2020 07:38:18 2.1 C 47 %
1631 02-03-2020 07:48:18 2.3 C 47 %
1632 02-03-2020 07:58:18 2.5 C 47 %
1633 02-03-2020 08:08:18 2.5 C 47 %
1634 02-03-2020 08:18:17 2.7 C 47 %
1635 02-03-2020 08:28:17 3 C 46 %
1636 02-03-2020 08:38:18 3.2 C 46 %
1637 02-03-2020 08:48:18 3.5 C 46 %
1638 02-03-2020 08:58:18 3.8 C 45 %
1639 02-03-2020 09:08:17 4.1 C 43 %
1640 02-03-2020 09:18:17 4.5 C 42 %
1641 02-03-2020 09:28:17 4.9 C 40 %
1642 02-03-2020 09:38:17 5.4 C 39 %
1643 02-03-2020 09:48:17 5.7 C 39 %
1644 02-03-2020 09:58:17 6.1 C 38 %
1645 02-03-2020 10:08:17 6.6 C 37 %
1646 02-03-2020 10:18:17 6.9 C 36 %
1647 02-03-2020 10:28:17 7.4 C 35 %
1648 02-03-2020 10:38:18 8.2 C 34 %
1649 02-03-2020 10:48:17 8.9 C 34 %
1650 02-03-2020 10:58:17 9 C 33 %
Sensor: Nr:Datum:Temp:Feuchte:
Aussen-T/F 1651 02-03-2020 11:08:17 9 C 33 %
1652 02-03-2020 11:18:17 11.5 C 30 %
1653 02-03-2020 11:28:17 13 C 26 %
1654 02-03-2020 11:38:17 13.9 C 25 %
1655 02-03-2020 11:48:17 11.8 C 27 %
1656 02-03-2020 11:58:17 13.6 C 24 %
1657 02-03-2020 12:08:17 13.3 C 21 %
1658 02-03-2020 12:18:17 13.2 C 21 %
1659 02-03-2020 12:28:17 12.3 C 23 %
1660 02-03-2020 12:38:18 13 C 23 %
1661 02-03-2020 12:48:18 11.8 C 24 %
1662 02-03-2020 12:58:18 11.7 C 25 %
1663 02-03-2020 13:08:18 12.4 C 23 %
1664 02-03-2020 13:18:18 14.7 C 20 %
1665 02-03-2020 13:28:18 14.2 C 20 %
1666 02-03-2020 13:38:17 15.6 C 20 %
1667 02-03-2020 13:48:17 14.1 C 20 %
1668 02-03-2020 13:58:17 12.3 C 21 %
1669 02-03-2020 14:08:17 11.8 C 23 %
1670 02-03-2020 14:18:17 12.1 C 23 %
1671 02-03-2020 14:28:17 11.7 C 25 %
1672 02-03-2020 14:38:17 11.2 C 25 %
1673 02-03-2020 14:48:17 10.9 C 25 %
1674 02-03-2020 14:58:17 10.8 C 26 %
1675 02-03-2020 15:08:18 10.9 C 26 %
Sensor: Nr:Datum:Temp:Feuchte:
Aussen-T/F 1676 02-03-2020 15:18:18 10.9 C 26 %
1677 02-03-2020 15:28:18 10.2 C 26 %
1678 02-03-2020 15:38:18 9.2 C 30 %
1679 02-03-2020 15:48:17 8.7 C 33 %
1680 02-03-2020 15:58:18 8.4 C 36 %
1681 02-03-2020 16:08:18 8 C 40 %
1682 02-03-2020 16:18:18 7.6 C 41 %
1683 02-03-2020 16:28:18 7.3 C 42 %
1684 02-03-2020 16:38:18 7.2 C 43 %
1685 02-03-2020 16:48:17 7.1 C 43 %
1686 02-03-2020 16:58:17 7 C 44 %
1687 02-03-2020 17:08:17 6.9 C 45 %
1688 02-03-2020 17:18:17 6.6 C 45 %
1689 02-03-2020 17:28:17 6.6 C 45 %
1690 02-03-2020 17:38:18 6.4 C 45 %
1691 02-03-2020 17:48:17 6.3 C 45 %
1692 02-03-2020 17:58:18 6.3 C 45 %
1693 02-03-2020 18:08:18 6.2 C 45 %
1694 02-03-2020 18:18:18 6.1 C 45 %
1695 02-03-2020 18:28:18 6 C 45 %
1696 02-03-2020 18:38:18 5.9 C 46 %
1697 02-03-2020 18:48:17 5.9 C 46 %
1698 02-03-2020 18:58:18 5.8 C 46 %
1699 02-03-2020 19:08:18 5.7 C 46 %
1700 02-03-2020 19:18:18 5.7 C 46 %
Sensor: Nr:Datum:Temp:Feuchte:
Aussen-T/F 1701 02-03-2020 19:28:18 5.7 C 46 %
1702 02-03-2020 19:38:18 5.7 C 46 %
1703 02-03-2020 19:48:17 5.7 C 45 %
1704 02-03-2020 19:58:18 5.7 C 45 %
1705 02-03-2020 20:08:18 5.7 C 45 %
1706 02-03-2020 20:18:17 5.7 C 45 %
1707 02-03-2020 20:28:18 5.6 C 45 %
1708 02-03-2020 20:38:18 5.6 C 45 %
1709 02-03-2020 20:48:17 5.6 C 45 %
1710 02-03-2020 20:58:17 5.5 C 45 %
1711 02-03-2020 21:08:18 5.4 C 45 %
1712 02-03-2020 21:18:18 5.4 C 45 %
1713 02-03-2020 21:28:18 5.4 C 45 %
1714 02-03-2020 21:38:18 5.4 C 45 %
1715 02-03-2020 21:48:18 5.4 C 45 %
1716 02-03-2020 21:58:18 5.4 C 45 %
1717 02-03-2020 22:08:18 5.4 C 45 %
1718 02-03-2020 22:18:17 5.4 C 45 %
1719 02-03-2020 22:28:17 5.5 C 45 %
1720 02-03-2020 22:38:17 5.4 C 45 %
1721 02-03-2020 22:48:17 5.5 C 45 %
1722 02-03-2020 22:58:17 5.5 C 45 %
1723 02-03-2020 23:08:17 5.5 C 45 %
1724 02-03-2020 23:18:17 5.2 C 45 %
1725 02-03-2020 23:28:17 5.2 C 45 %
Sensor: Nr:Datum:Temp:Feuchte:
Aussen-T/F 1726 02-03-2020 23:38:17 5.2 C 45 %
1727 02-03-2020 23:48:17 5.3 C 45 %
1728 02-03-2020 23:58:17 5.3 C 45 %
1729 03-03-2020 00:08:18 5.2 C 45 %
1730 03-03-2020 00:18:18 5.1 C 44 %
1731 03-03-2020 00:28:18 5 C 44 %
1732 03-03-2020 00:38:18 5 C 44 %
1733 03-03-2020 00:48:17 4.9 C 45 %
1734 03-03-2020 00:58:17 4.9 C 45 %
1735 03-03-2020 01:08:17 5.1 C 44 %
1736 03-03-2020 01:18:17 5 C 43 %
1737 03-03-2020 01:28:17 5 C 43 %
1738 03-03-2020 01:38:18 4.6 C 41 %
1739 03-03-2020 01:48:17 4.5 C 42 %
1740 03-03-2020 01:58:17 4.4 C 43 %
1741 03-03-2020 02:08:17 4.4 C 43 %
1742 03-03-2020 02:18:17 4.2 C 42 %
1743 03-03-2020 02:28:17 4.1 C 41 %
1744 03-03-2020 02:38:18 4.1 C 41 %
1745 03-03-2020 02:48:18 4.1 C 41 %
1746 03-03-2020 02:58:18 3.9 C 42 %
1747 03-03-2020 03:08:17 3.8 C 41 %
1748 03-03-2020 03:18:17 3.7 C 40 %
1749 03-03-2020 03:28:17 3.4 C 41 %
1750 03-03-2020 03:38:18 3.5 C 41 %
Sensor: Nr:Datum:Temp:Feuchte:
Aussen-T/F 1751 03-03-2020 03:48:18 3 C 42 %
1752 03-03-2020 03:58:18 3.1 C 42 %
1753 03-03-2020 04:08:17 2.8 C 43 %
1754 03-03-2020 04:18:17 3.2 C 41 %
1755 03-03-2020 04:28:17 3.2 C 41 %
1756 03-03-2020 04:38:18 2.9 C 42 %
1757 03-03-2020 04:48:17 2.9 C 43 %
1758 03-03-2020 04:58:18 3.2 C 41 %
1759 03-03-2020 05:08:18 3.1 C 41 %
1760 03-03-2020 05:18:18 2.7 C 43 %
1761 03-03-2020 05:28:18 2.3 C 44 %
1762 03-03-2020 05:38:17 2.6 C 43 %
1763 03-03-2020 05:48:18 2.7 C 42 %
1764 03-03-2020 05:58:18 2.4 C 44 %
1765 03-03-2020 06:08:17 3 C 42 %
1766 03-03-2020 06:18:18 3.1 C 41 %
1767 03-03-2020 06:28:18 2.8 C 42 %
1768 03-03-2020 06:38:17 2.6 C 43 %
1769 03-03-2020 06:48:18 2.7 C 42 %
1770 03-03-2020 06:58:18 2.8 C 42 %
1771 03-03-2020 07:08:18 2.8 C 42 %
1772 03-03-2020 07:18:18 2.6 C 43 %
1773 03-03-2020 07:28:18 2.7 C 43 %
1774 03-03-2020 07:38:18 2.6 C 43 %
1775 03-03-2020 07:48:17 2.5 C 43 %
Sensor: Nr:Datum:Temp:Feuchte:
Aussen-T/F 1776 03-03-2020 07:58:17 2.5 C 43 %
1777 03-03-2020 08:08:18 2.7 C 43 %
1778 03-03-2020 08:18:18 3.3 C 41 %
1779 03-03-2020 08:28:18 3.2 C 41 %
1780 03-03-2020 08:38:17 3.5 C 40 %
1781 03-03-2020 08:48:17 3.6 C 40 %
1782 03-03-2020 08:58:18 3.4 C 40 %
1783 03-03-2020 09:08:18 3.5 C 40 %
1784 03-03-2020 09:18:17 3.2 C 40 %
1785 03-03-2020 09:28:17 3.5 C 40 %
1786 03-03-2020 09:38:17 3.6 C 40 %
1787 03-03-2020 09:48:18 4.1 C 39 %
1788 03-03-2020 09:58:18 4.6 C 38 %
1789 03-03-2020 10:08:18 5.3 C 36 %
1790 03-03-2020 10:18:18 5.1 C 36 %
1791 03-03-2020 10:28:18 5.2 C 35 %
1792 03-03-2020 10:38:18 5.4 C 35 %
1793 03-03-2020 10:48:17 4.9 C 35 %
1794 03-03-2020 10:58:18 5 C 35 %
1795 03-03-2020 11:08:17 5.2 C 35 %
1796 03-03-2020 11:18:17 5.2 C 35 %
1797 03-03-2020 11:28:17 5.3 C 35 %
1798 03-03-2020 11:38:17 5.1 C 35 %
1799 03-03-2020 11:48:17 5.8 C 35 %
1800 03-03-2020 11:58:17 5.7 C 35 %
Sensor: Nr:Datum:Temp:Feuchte:
Aussen-T/F 1801 03-03-2020 12:08:17 6.1 C 35 %
1802 03-03-2020 12:18:17 6.4 C 34 %
1803 03-03-2020 12:28:17 6.6 C 34 %
1804 03-03-2020 12:38:17 6.5 C 33 %
1805 03-03-2020 12:48:17 7.1 C 33 %
1806 03-03-2020 12:58:17 6.6 C 33 %
1807 03-03-2020 13:08:17 6.6 C 33 %
1808 03-03-2020 13:18:17 9.6 C 28 %
1809 03-03-2020 13:28:18 9.8 C 27 %
1810 03-03-2020 13:38:18 8.9 C 27 %
1811 03-03-2020 13:48:17 9.7 C 25 %
1812 03-03-2020 13:58:17 6.2 C 31 %
1813 03-03-2020 14:08:18 5.8 C 35 %
1814 03-03-2020 14:18:18 5.4 C 39 %
1815 03-03-2020 14:28:18 5.7 C 38 %
1816 03-03-2020 14:38:18 5 C 37 %
1817 03-03-2020 14:48:18 4.7 C 39 %
1818 03-03-2020 14:58:18 4.7 C 40 %
1819 03-03-2020 15:08:18 4.7 C 39 %
1820 03-03-2020 15:18:18 6.8 C 36 %
1821 03-03-2020 15:28:18 6.9 C 35 %
1822 03-03-2020 15:38:18 8.9 C 32 %
1823 03-03-2020 15:48:17 8.9 C 30 %
1824 03-03-2020 15:58:17 7.4 C 32 %
1825 03-03-2020 16:08:18 11.8 C 23 %
Sensor: Nr:Datum:Temp:Feuchte:
Aussen-T/F 1826 03-03-2020 16:18:18 9.3 C 25 %
1827 03-03-2020 16:28:18 7.4 C 30 %
1828 03-03-2020 16:38:18 7.2 C 30 %
1829 03-03-2020 16:48:17 7.3 C 31 %
1830 03-03-2020 16:58:17 7.6 C 30 %
1831 03-03-2020 17:08:17 6.7 C 32 %
1832 03-03-2020 17:18:17 6.7 C 33 %
1833 03-03-2020 17:28:18 6.5 C 34 %
1834 03-03-2020 17:38:18 6.4 C 34 %
1835 03-03-2020 17:48:17 6 C 35 %
1836 03-03-2020 17:58:18 5.4 C 36 %
1837 03-03-2020 18:08:18 4.3 C 38 %
1838 03-03-2020 18:18:18 4.4 C 39 %
1839 03-03-2020 18:28:18 4 C 39 %
1840 03-03-2020 18:38:18 3.7 C 41 %
1841 03-03-2020 18:48:17 3.5 C 41 %
1842 03-03-2020 18:58:17 3.6 C 41 %
1843 03-03-2020 19:08:17 3.6 C 40 %
1844 03-03-2020 19:18:17 3.8 C 40 %
1845 03-03-2020 19:28:17 3.1 C 41 %
1846 03-03-2020 19:38:17 3.2 C 41 %
1847 03-03-2020 19:48:17 2.7 C 42 %
1848 03-03-2020 19:58:17 2.3 C 42 %
1849 03-03-2020 20:08:17 1.7 C 45 %
1850 03-03-2020 20:18:17 1.8 C 47 %
Sensor: Nr:Datum:Temp:Feuchte:
Aussen-T/F 1851 03-03-2020 20:28:17 1.7 C 47 %
1852 03-03-2020 20:38:17 1.3 C 46 %
1853 03-03-2020 20:48:17 1.4 C 47 %
1854 03-03-2020 20:58:17 1.3 C 47 %
1855 03-03-2020 21:08:17 1.2 C 47 %
1856 03-03-2020 21:18:17 1.6 C 48 %
1857 03-03-2020 21:28:17 2 C 47 %
1858 03-03-2020 21:38:17 2.1 C 45 %
1859 03-03-2020 21:48:17 2 C 45 %
1860 03-03-2020 21:58:17 2.2 C 45 %
1861 03-03-2020 22:08:17 1.9 C 46 %
1862 03-03-2020 22:18:17 1.5 C 46 %
1863 03-03-2020 22:28:17 1.4 C 47 %
1864 03-03-2020 22:38:17 1.2 C 47 %
1865 03-03-2020 22:48:17 1 C 47 %
1866 03-03-2020 22:58:17 1.2 C 48 %
1867 03-03-2020 23:08:17 1.7 C 48 %
1868 03-03-2020 23:18:18 2.3 C 46 %
1869 03-03-2020 23:28:18 2.4 C 44 %
1870 03-03-2020 23:38:17 2.6 C 44 %
1871 03-03-2020 23:48:17 2.7 C 43 %
1872 03-03-2020 23:58:17 2.8 C 43 %
1873 04-03-2020 00:08:17 3.1 C 42 %
1874 04-03-2020 00:18:18 3 C 41 %
1875 04-03-2020 00:28:18 2.9 C 42 %
Sensor: Nr:Datum:Temp:Feuchte:
Aussen-T/F 1876 04-03-2020 00:38:18 3.1 C 41 %
1877 04-03-2020 00:48:17 2.5 C 42 %
1878 04-03-2020 00:58:17 2.3 C 44 %
1879 04-03-2020 01:08:17 2.6 C 43 %
1880 04-03-2020 01:18:17 2.6 C 42 %
1881 04-03-2020 01:28:17 2.4 C 42 %
1882 04-03-2020 01:38:17 2.5 C 42 %
1883 04-03-2020 01:48:17 2.6 C 42 %
1884 04-03-2020 01:58:17 2.6 C 42 %
1885 04-03-2020 02:08:17 2.7 C 42 %
1886 04-03-2020 02:18:17 2.8 C 42 %
1887 04-03-2020 02:28:18 2.7 C 42 %
1888 04-03-2020 02:38:18 3.2 C 41 %
1889 04-03-2020 02:48:17 3.6 C 40 %
1890 04-03-2020 02:58:18 3.4 C 40 %
1891 04-03-2020 03:08:17 3.3 C 40 %
1892 04-03-2020 03:18:17 3 C 41 %
1893 04-03-2020 03:28:17 3.2 C 41 %
1894 04-03-2020 03:38:17 2.9 C 42 %
1895 04-03-2020 03:48:17 2.6 C 42 %
1896 04-03-2020 03:58:18 2.5 C 44 %
1897 04-03-2020 04:08:18 3.4 C 41 %
1898 04-03-2020 04:18:18 3.4 C 41 %
1899 04-03-2020 04:28:18 3.6 C 40 %
1900 04-03-2020 04:38:18 3.6 C 40 %
Sensor: Nr:Datum:Temp:Feuchte:
Aussen-T/F 1901 04-03-2020 04:48:17 3.7 C 40 %
1902 04-03-2020 04:58:18 3.5 C 41 %
1903 04-03-2020 05:08:18 3.4 C 41 %
1904 04-03-2020 05:18:18 3.2 C 42 %
1905 04-03-2020 05:28:18 3.1 C 44 %
1906 04-03-2020 05:38:18 3.2 C 44 %
1907 04-03-2020 05:48:17 3.2 C 43 %
1908 04-03-2020 05:58:18 3.2 C 43 %
1909 04-03-2020 06:08:18 3.3 C 43 %
1910 04-03-2020 06:18:18 3.3 C 42 %
1911 04-03-2020 06:28:18 3.4 C 42 %
1912 04-03-2020 06:38:18 3.6 C 42 %
1913 04-03-2020 06:48:17 3.6 C 42 %
1914 04-03-2020 06:58:17 3.7 C 41 %
1915 04-03-2020 07:08:17 3.7 C 41 %
1916 04-03-2020 07:18:17 3.9 C 41 %
1917 04-03-2020 07:28:17 3.9 C 41 %
1918 04-03-2020 07:38:18 4 C 40 %
1919 04-03-2020 07:48:17 3.9 C 41 %
1920 04-03-2020 07:58:17 3.7 C 41 %
1921 04-03-2020 08:08:18 3.3 C 42 %
1922 04-03-2020 08:18:17 3.4 C 42 %
1923 04-03-2020 08:28:17 3.8 C 41 %
1924 04-03-2020 08:38:18 3.7 C 41 %
1925 04-03-2020 08:48:18 4.1 C 40 %
Sensor: Nr:Datum:Temp:Feuchte:
Aussen-T/F 1926 04-03-2020 08:58:18 3.7 C 41 %
1927 04-03-2020 09:08:18 3.9 C 41 %
1928 04-03-2020 09:18:18 4.2 C 40 %
1929 04-03-2020 09:28:18 4.6 C 40 %
1930 04-03-2020 09:38:18 4.7 C 39 %
1931 04-03-2020 09:48:17 5.1 C 38 %
1932 04-03-2020 09:58:18 5.4 C 37 %
1933 04-03-2020 10:08:18 5.6 C 37 %
1934 04-03-2020 10:18:18 5.8 C 37 %
1935 04-03-2020 10:28:18 6 C 36 %
1936 04-03-2020 10:38:17 6.6 C 36 %
1937 04-03-2020 10:48:18 6.4 C 36 %
1938 04-03-2020 10:58:18 6.5 C 36 %
1939 04-03-2020 11:08:18 6.8 C 35 %
1940 04-03-2020 11:18:18 7.7 C 34 %
1941 04-03-2020 11:28:18 8.2 C 33 %
1942 04-03-2020 11:38:18 8.3 C 32 %
1943 04-03-2020 11:48:18 8.8 C 32 %
1944 04-03-2020 11:58:18 9.5 C 31 %
1945 04-03-2020 12:08:18 9.6 C 31 %
1946 04-03-2020 12:18:18 10.1 C 30 %
1947 04-03-2020 12:28:18 9 C 30 %
1948 04-03-2020 12:38:18 9.9 C 29 %
1949 04-03-2020 12:48:17 10.9 C 28 %
1950 04-03-2020 12:58:17 9.1 C 29 %
Sensor: Nr:Datum:Temp:Feuchte:
Aussen-T/F 1951 04-03-2020 13:08:17 9.3 C 28 %
1952 04-03-2020 13:18:17 9.4 C 28 %
1953 04-03-2020 13:28:17 10.7 C 27 %
1954 04-03-2020 13:38:18 9.5 C 28 %
1955 04-03-2020 13:48:17 9.6 C 28 %
1956 04-03-2020 13:58:17 10.2 C 26 %
1957 04-03-2020 14:08:18 10.6 C 26 %
1958 04-03-2020 14:18:18 9.6 C 27 %
1959 04-03-2020 14:28:18 9.6 C 27 %
1960 04-03-2020 14:38:18 10.1 C 26 %
1961 04-03-2020 14:48:18 9.5 C 28 %
1962 04-03-2020 14:58:18 9 C 28 %
1963 04-03-2020 15:08:18 9.4 C 28 %
1964 04-03-2020 15:18:18 9.5 C 28 %
1965 04-03-2020 15:28:18 9.7 C 27 %
1966 04-03-2020 15:38:18 9.4 C 29 %
1967 04-03-2020 15:48:17 9.5 C 28 %
1968 04-03-2020 15:58:18 10.6 C 26 %
1969 04-03-2020 16:08:17 10.1 C 26 %
1970 04-03-2020 16:18:17 10.9 C 26 %
1971 04-03-2020 16:28:17 10 C 26 %
1972 04-03-2020 16:38:17 10.9 C 26 %
1973 04-03-2020 16:48:17 11 C 25 %
1974 04-03-2020 16:58:17 11.5 C 25 %
1975 04-03-2020 17:08:17 10.6 C 25 %
Sensor: Nr:Datum:Temp:Feuchte:
Aussen-T/F 1976 04-03-2020 17:18:17 8.8 C 27 %
1977 04-03-2020 17:28:18 8 C 29 %
1978 04-03-2020 17:38:18 7.3 C 32 %
1979 04-03-2020 17:48:17 6.4 C 35 %
1980 04-03-2020 17:58:17 5.7 C 36 %
1981 04-03-2020 18:08:17 5.2 C 37 %
1982 04-03-2020 18:18:17 4.8 C 38 %
1983 04-03-2020 18:28:17 4.7 C 39 %
1984 04-03-2020 18:38:17 4.5 C 39 %
1985 04-03-2020 18:48:17 4.3 C 39 %
1986 04-03-2020 18:58:17 4 C 39 %
1987 04-03-2020 19:08:17 3.9 C 40 %
1988 04-03-2020 19:18:17 4 C 40 %
1989 04-03-2020 19:28:17 4.1 C 40 %
1990 04-03-2020 19:38:17 4.1 C 40 %
1991 04-03-2020 19:48:18 4 C 40 %
1992 04-03-2020 19:58:18 3.7 C 41 %
1993 04-03-2020 20:08:17 3.8 C 41 %
1994 04-03-2020 20:18:17 3.7 C 41 %
1995 04-03-2020 20:28:17 3.4 C 41 %
1996 04-03-2020 20:38:17 3.1 C 42 %
1997 04-03-2020 20:48:18 3.1 C 42 %
1998 04-03-2020 20:58:18 2.9 C 43 %
1999 04-03-2020 21:08:18 3.3 C 42 %
2000 04-03-2020 21:18:18 3 C 42 %
Sensor: Nr:Datum:Temp:Feuchte:
Aussen-T/F 2001 04-03-2020 21:28:18 3.1 C 42 %
2002 04-03-2020 21:38:18 3.3 C 42 %
2003 04-03-2020 21:48:18 3.1 C 42 %
2004 04-03-2020 21:58:18 3.1 C 42 %
2005 04-03-2020 22:08:18 2.6 C 44 %
2006 04-03-2020 22:18:17 2.5 C 45 %
2007 04-03-2020 22:28:17 2.4 C 45 %
2008 04-03-2020 22:38:17 2.9 C 46 %
2009 04-03-2020 22:48:17 2.9 C 46 %
2010 04-03-2020 22:58:17 3.2 C 45 %
2011 04-03-2020 23:08:17 3.3 C 43 %
2012 04-03-2020 23:18:17 3.6 C 43 %
2013 04-03-2020 23:28:18 3.5 C 43 %
2014 04-03-2020 23:38:18 3.6 C 43 %
2015 04-03-2020 23:48:18 3.7 C 45 %
2016 04-03-2020 23:58:18 3.6 C 45 %
2017 05-03-2020 00:08:18 3.6 C 46 %
2018 05-03-2020 00:18:18 3.6 C 46 %
2019 05-03-2020 00:28:18 3.8 C 47 %
2020 05-03-2020 00:38:17 3.8 C 47 %
2021 05-03-2020 00:48:17 3.6 C 47 %
2022 05-03-2020 00:58:17 3.5 C 47 %
2023 05-03-2020 01:08:17 3.5 C 47 %
2024 05-03-2020 01:18:17 3.5 C 47 %
2025 05-03-2020 01:28:17 3.4 C 47 %
Sensor: Nr:Datum:Temp:Feuchte:
Aussen-T/F 2026 05-03-2020 01:38:17 3.4 C 47 %
2027 05-03-2020 01:48:18 3.5 C 47 %
2028 05-03-2020 01:58:18 3.5 C 47 %
2029 05-03-2020 02:08:18 3.6 C 46 %
2030 05-03-2020 02:18:18 3.7 C 46 %
2031 05-03-2020 02:28:18 3.7 C 45 %
2032 05-03-2020 02:38:18 3.7 C 44 %
2033 05-03-2020 02:48:18 3.9 C 43 %
2034 05-03-2020 02:58:18 3.9 C 43 %
2035 05-03-2020 03:08:18 4 C 42 %
2036 05-03-2020 03:18:17 4.1 C 42 %
2037 05-03-2020 03:28:17 4 C 41 %
2038 05-03-2020 03:38:17 4.1 C 41 %
2039 05-03-2020 03:48:17 4 C 42 %
2040 05-03-2020 03:58:17 3.8 C 43 %
2041 05-03-2020 04:08:17 3.8 C 44 %
2042 05-03-2020 04:18:17 3.9 C 44 %
2043 05-03-2020 04:28:18 3.9 C 43 %
2044 05-03-2020 04:38:18 3.9 C 43 %
2045 05-03-2020 04:48:17 3.8 C 43 %
2046 05-03-2020 04:58:18 3.8 C 43 %
2047 05-03-2020 05:08:18 3.9 C 44 %
2048 05-03-2020 05:18:18 3.9 C 44 %
2049 05-03-2020 05:28:18 3.8 C 44 %
2050 05-03-2020 05:38:18 3.9 C 44 %
Sensor: Nr:Datum:Temp:Feuchte:
Aussen-T/F 2051 05-03-2020 05:48:17 3.7 C 44 %
2052 05-03-2020 05:58:18 3.9 C 44 %
2053 05-03-2020 06:08:18 4 C 43 %
2054 05-03-2020 06:18:18 3.9 C 43 %
2055 05-03-2020 06:28:18 4 C 42 %
2056 05-03-2020 06:38:18 4 C 42 %
2057 05-03-2020 06:48:17 4.1 C 42 %
2058 05-03-2020 06:58:17 4.1 C 42 %
2059 05-03-2020 07:08:18 4.2 C 42 %
2060 05-03-2020 07:18:17 4.3 C 42 %
2061 05-03-2020 07:28:18 4.4 C 42 %
2062 05-03-2020 07:38:18 4.5 C 41 %
2063 05-03-2020 07:48:17 4.7 C 41 %
2064 05-03-2020 07:58:17 4.8 C 41 %
2065 05-03-2020 08:08:18 4.7 C 41 %
2066 05-03-2020 08:18:18 4.8 C 41 %
2067 05-03-2020 08:28:18 4.8 C 41 %
2068 05-03-2020 08:38:17 5.1 C 40 %
2069 05-03-2020 08:48:17 5.3 C 40 %
2070 05-03-2020 08:58:17 5.4 C 40 %
2071 05-03-2020 09:08:17 5.9 C 40 %
2072 05-03-2020 09:18:17 6.1 C 38 %
2073 05-03-2020 09:28:17 6.4 C 38 %
2074 05-03-2020 09:38:17 6.4 C 38 %
2075 05-03-2020 09:48:17 6.6 C 38 %
Sensor: Nr:Datum:Temp:Feuchte:
Aussen-T/F 2076 05-03-2020 09:58:17 6.6 C 38 %
2077 05-03-2020 10:08:18 6.9 C 38 %
2078 05-03-2020 10:18:17 6.4 C 38 %
2079 05-03-2020 10:28:17 6.3 C 38 %
2080 05-03-2020 10:38:18 6.2 C 38 %
2081 05-03-2020 10:48:18 6.3 C 39 %
2082 05-03-2020 10:58:18 6.7 C 38 %
2083 05-03-2020 11:08:17 7 C 38 %
2084 05-03-2020 11:18:17 7.1 C 37 %
2085 05-03-2020 11:28:17 7.3 C 37 %
2086 05-03-2020 11:38:18 7.7 C 37 %
2087 05-03-2020 11:48:18 7.8 C 37 %
2088 05-03-2020 11:58:18 7.4 C 37 %
2089 05-03-2020 12:08:17 7.5 C 37 %
2090 05-03-2020 12:18:17 7.5 C 37 %
2091 05-03-2020 12:28:18 6.9 C 38 %
2092 05-03-2020 12:38:18 7.1 C 38 %
2093 05-03-2020 12:48:17 7 C 39 %
2094 05-03-2020 12:58:17 6.8 C 40 %
2095 05-03-2020 13:08:17 6.8 C 41 %
2096 05-03-2020 13:18:17 6.9 C 41 %
2097 05-03-2020 13:28:17 6.9 C 41 %
2098 05-03-2020 13:38:17 7 C 41 %
2099 05-03-2020 13:48:17 6.6 C 42 %
2100 05-03-2020 13:58:17 6.4 C 42 %
Sensor: Nr:Datum:Temp:Feuchte:
Aussen-T/F 2101 05-03-2020 14:08:17 6.4 C 43 %
2102 05-03-2020 14:18:17 6.4 C 43 %
2103 05-03-2020 14:28:17 6.3 C 42 %
2104 05-03-2020 14:38:17 6.3 C 43 %
2105 05-03-2020 14:48:18 6.3 C 44 %
2106 05-03-2020 14:58:18 6.3 C 44 %
2107 05-03-2020 15:08:18 6.3 C 45 %
2108 05-03-2020 15:18:18 6.3 C 45 %
2109 05-03-2020 15:28:18 6.3 C 45 %
2110 05-03-2020 15:38:18 6.4 C 45 %
2111 05-03-2020 15:48:17 6.5 C 45 %
2112 05-03-2020 15:58:17 6.7 C 45 %
2113 05-03-2020 16:08:17 6.7 C 44 %
2114 05-03-2020 16:18:17 6.7 C 43 %
2115 05-03-2020 16:28:17 6.5 C 43 %
2116 05-03-2020 16:38:17 6.4 C 43 %
2117 05-03-2020 16:48:18 6.3 C 44 %
2118 05-03-2020 16:58:18 6.2 C 45 %
2119 05-03-2020 17:08:17 6.1 C 45 %
2120 05-03-2020 17:18:17 6 C 45 %
2121 05-03-2020 17:28:17 6 C 45 %
2122 05-03-2020 17:38:17 5.9 C 46 %
2123 05-03-2020 17:48:17 5.9 C 46 %
2124 05-03-2020 17:58:17 5.9 C 46 %
2125 05-03-2020 18:08:18 5.8 C 46 %
Sensor: Nr:Datum:Temp:Feuchte:
Aussen-T/F 2126 05-03-2020 18:18:17 5.9 C 46 %
2127 05-03-2020 18:28:17 5.8 C 46 %
2128 05-03-2020 18:38:17 5.7 C 46 %
2129 05-03-2020 18:48:17 5.7 C 46 %
2130 05-03-2020 18:58:17 5.7 C 46 %
2131 05-03-2020 19:08:18 5.7 C 46 %
2132 05-03-2020 19:18:17 5.6 C 46 %
2133 05-03-2020 19:28:17 5.5 C 46 %
2134 05-03-2020 19:38:17 5.5 C 46 %
2135 05-03-2020 19:48:18 5.7 C 46 %
2136 05-03-2020 19:58:18 5.7 C 46 %
2137 05-03-2020 20:08:17 5.8 C 45 %
2138 05-03-2020 20:18:17 5.9 C 45 %
2139 05-03-2020 20:28:17 6.1 C 45 %
2140 05-03-2020 20:38:18 6.1 C 45 %
2141 05-03-2020 20:48:17 6 C 45 %
2142 05-03-2020 20:58:17 6 C 45 %
2143 05-03-2020 21:08:18 6.1 C 45 %
2144 05-03-2020 21:18:17 6.1 C 45 %
2145 05-03-2020 21:28:17 6.1 C 45 %
2146 05-03-2020 21:38:17 6.1 C 45 %
2147 05-03-2020 21:48:17 6 C 45 %
2148 05-03-2020 21:58:17 6.1 C 45 %
2149 05-03-2020 22:08:17 6 C 45 %
2150 05-03-2020 22:18:17 6.2 C 45 %
Sensor: Nr:Datum:Temp:Feuchte:
Aussen-T/F 2151 05-03-2020 22:28:17 6.1 C 45 %
2152 05-03-2020 22:38:18 6 C 45 %
2153 05-03-2020 22:48:17 6.1 C 45 %
2154 05-03-2020 22:58:17 6 C 45 %
2155 05-03-2020 23:08:17 6.2 C 45 %
2156 05-03-2020 23:18:17 6.1 C 45 %
2157 05-03-2020 23:28:18 6.1 C 45 %
2158 05-03-2020 23:38:18 6.1 C 45 %
2159 05-03-2020 23:48:18 6.1 C 45 %
2160 05-03-2020 23:58:18 6.1 C 44 %
2161 06-03-2020 00:08:17 6.1 C 44 %
2162 06-03-2020 00:18:17 6.2 C 44 %
2163 06-03-2020 00:28:18 6.2 C 44 %
2164 06-03-2020 00:38:18 6.2 C 44 %
2165 06-03-2020 00:48:17 6.3 C 44 %
2166 06-03-2020 00:58:17 6.4 C 44 %
2167 06-03-2020 01:08:18 6.6 C 44 %
2168 06-03-2020 01:18:17 6.7 C 44 %
2169 06-03-2020 01:28:17 7 C 43 %
2170 06-03-2020 01:38:18 7.1 C 43 %
2171 06-03-2020 01:48:17 7.3 C 40 %
2172 06-03-2020 01:58:18 6.9 C 40 %
2173 06-03-2020 02:08:18 6.9 C 40 %
2174 06-03-2020 02:18:18 6.9 C 40 %
2175 06-03-2020 02:28:18 6.5 C 40 %
Sensor: Nr:Datum:Temp:Feuchte:
Aussen-T/F 2176 06-03-2020 02:38:17 6.4 C 41 %
2177 06-03-2020 02:48:17 6.4 C 40 %
2178 06-03-2020 02:58:17 6.4 C 40 %
2179 06-03-2020 03:08:17 6.2 C 40 %
2180 06-03-2020 03:18:18 6.2 C 40 %
2181 06-03-2020 03:28:18 6.4 C 40 %
2182 06-03-2020 03:38:18 6 C 40 %
2183 06-03-2020 03:48:17 5.8 C 41 %
2184 06-03-2020 03:58:18 5.6 C 43 %
2185 06-03-2020 04:08:17 5.5 C 44 %
2186 06-03-2020 04:18:17 5.4 C 45 %
2187 06-03-2020 04:28:17 5.5 C 45 %
2188 06-03-2020 04:38:18 5.4 C 45 %
2189 06-03-2020 04:48:17 5.4 C 46 %
2190 06-03-2020 04:58:18 5.5 C 45 %
2191 06-03-2020 05:08:18 5.6 C 44 %
2192 06-03-2020 05:18:18 5.6 C 44 %
2193 06-03-2020 05:28:18 5.6 C 45 %
2194 06-03-2020 05:38:18 5.8 C 44 %
2195 06-03-2020 05:48:17 5.8 C 44 %
2196 06-03-2020 05:58:17 5.8 C 44 %
2197 06-03-2020 06:08:17 5.8 C 45 %
2198 06-03-2020 06:18:17 5.8 C 45 %
2199 06-03-2020 06:28:17 5.9 C 45 %
2200 06-03-2020 06:38:18 6 C 44 %
Sensor: Nr:Datum:Temp:Feuchte:
Aussen-T/F 2201 06-03-2020 06:48:17 6 C 44 %
2202 06-03-2020 06:58:17 6.1 C 45 %
2203 06-03-2020 07:08:17 6 C 45 %
2204 06-03-2020 07:18:18 6 C 45 %
2205 06-03-2020 07:28:18 6 C 45 %
2206 06-03-2020 07:38:18 6 C 45 %
2207 06-03-2020 07:48:17 5.9 C 45 %
2208 06-03-2020 07:58:18 5.6 C 43 %
2209 06-03-2020 08:08:17 5.3 C 42 %
2210 06-03-2020 08:18:17 5 C 41 %
2211 06-03-2020 08:28:17 4.9 C 42 %
2212 06-03-2020 08:38:17 4.9 C 43 %
2213 06-03-2020 08:48:18 4.8 C 44 %
2214 06-03-2020 08:58:18 4.8 C 44 %
2215 06-03-2020 09:08:17 4.9 C 44 %
2216 06-03-2020 09:18:17 4.9 C 43 %
2217 06-03-2020 09:28:17 4.9 C 42 %
2218 06-03-2020 09:38:18 4.8 C 42 %
2219 06-03-2020 09:48:18 4.9 C 42 %
2220 06-03-2020 09:58:18 4.8 C 41 %
2221 06-03-2020 10:08:18 4.9 C 41 %
2222 06-03-2020 10:18:18 4.7 C 42 %
2223 06-03-2020 10:28:18 4.7 C 41 %
2224 06-03-2020 10:38:18 4.7 C 41 %
2225 06-03-2020 10:48:17 4.8 C 41 %
Sensor: Nr:Datum:Temp:Feuchte:
Aussen-T/F 2226 06-03-2020 10:58:18 4.9 C 41 %
2227 06-03-2020 11:08:18 5 C 40 %
2228 06-03-2020 11:18:18 5.2 C 40 %
2229 06-03-2020 11:28:18 5.3 C 40 %
2230 06-03-2020 11:38:18 5.1 C 40 %
2231 06-03-2020 11:48:17 4.9 C 41 %
2232 06-03-2020 11:58:17 4.7 C 41 %
2233 06-03-2020 12:08:17 4.6 C 41 %
2234 06-03-2020 12:18:17 4.5 C 41 %
2235 06-03-2020 12:28:17 4.6 C 41 %
2236 06-03-2020 12:38:18 4.4 C 41 %
2237 06-03-2020 12:48:18 4.6 C 41 %
2238 06-03-2020 12:58:18 4.5 C 41 %
2239 06-03-2020 13:08:18 4.7 C 41 %
2240 06-03-2020 13:18:18 5 C 40 %
2241 06-03-2020 13:28:18 5.1 C 40 %
2242 06-03-2020 13:38:17 5.3 C 40 %
2243 06-03-2020 13:48:17 5.1 C 40 %
2244 06-03-2020 13:58:17 5 C 40 %
2245 06-03-2020 14:08:17 4.8 C 41 %
2246 06-03-2020 14:18:17 4.8 C 41 %
2247 06-03-2020 14:28:17 4.8 C 41 %
2248 06-03-2020 14:38:17 5 C 40 %
2249 06-03-2020 14:48:17 5.3 C 40 %
2250 06-03-2020 14:58:17 5.3 C 40 %
Sensor: Nr:Datum:Temp:Feuchte:
Aussen-T/F 2251 06-03-2020 15:08:17 5.4 C 39 %
2252 06-03-2020 15:18:17 5.6 C 39 %
2253 06-03-2020 15:28:17 5.8 C 39 %
2254 06-03-2020 15:38:18 5.9 C 38 %
2255 06-03-2020 15:48:17 5.8 C 38 %
2256 06-03-2020 15:58:17 6 C 37 %
2257 06-03-2020 16:08:17 6.1 C 37 %
2258 06-03-2020 16:18:18 6.1 C 37 %
2259 06-03-2020 16:28:18 6.1 C 37 %
2260 06-03-2020 16:38:18 6.1 C 38 %
2261 06-03-2020 16:48:17 6 C 38 %
2262 06-03-2020 16:58:17 6.3 C 38 %
2263 06-03-2020 17:08:18 6.5 C 38 %
2264 06-03-2020 17:18:18 6.9 C 37 %
2265 06-03-2020 17:28:18 6.8 C 37 %
2266 06-03-2020 17:38:18 6.8 C 37 %
2267 06-03-2020 17:48:17 6.9 C 37 %
2268 06-03-2020 17:58:18 6.7 C 37 %
2269 06-03-2020 18:08:18 6.8 C 37 %
2270 06-03-2020 18:18:18 6.6 C 37 %
2271 06-03-2020 18:28:18 5.9 C 38 %
2272 06-03-2020 18:38:18 6 C 37 %
2273 06-03-2020 18:48:17 6.5 C 37 %
2274 06-03-2020 18:58:18 6.4 C 37 %
2275 06-03-2020 19:08:18 6.5 C 37 %
Sensor: Nr:Datum:Temp:Feuchte:
Aussen-T/F 2276 06-03-2020 19:18:18 6.3 C 37 %
2277 06-03-2020 19:28:18 6.2 C 37 %
2278 06-03-2020 19:38:18 6.3 C 37 %
2279 06-03-2020 19:48:17 6.3 C 37 %
2280 06-03-2020 19:58:17 6.2 C 36 %
2281 06-03-2020 20:08:18 6.2 C 36 %
2282 06-03-2020 20:18:18 5.9 C 37 %
2283 06-03-2020 20:28:18 5.7 C 37 %
2284 06-03-2020 20:38:18 5.5 C 38 %
2285 06-03-2020 20:48:17 5.4 C 38 %
2286 06-03-2020 20:58:17 5.2 C 38 %
2287 06-03-2020 21:08:17 5.3 C 38 %
2288 06-03-2020 21:18:18 5.1 C 38 %
2289 06-03-2020 21:28:18 5.2 C 38 %
2290 06-03-2020 21:38:18 5.2 C 37 %
2291 06-03-2020 21:48:17 4.9 C 38 %
2292 06-03-2020 21:58:18 4.7 C 39 %
2293 06-03-2020 22:08:17 4.8 C 39 %
2294 06-03-2020 22:18:17 5.1 C 38 %
2295 06-03-2020 22:28:18 5 C 38 %
2296 06-03-2020 22:38:18 5.2 C 38 %
2297 06-03-2020 22:48:17 5.3 C 38 %
2298 06-03-2020 22:58:17 5.3 C 38 %
2299 06-03-2020 23:08:18 5.2 C 38 %
2300 06-03-2020 23:18:18 5.3 C 38 %
Sensor: Nr:Datum:Temp:Feuchte:
Aussen-T/F 2301 06-03-2020 23:28:18 5.2 C 37 %
2302 06-03-2020 23:38:17 5.3 C 37 %
2303 06-03-2020 23:48:17 5.3 C 37 %
2304 06-03-2020 23:58:17 5.1 C 38 %
2305 07-03-2020 00:08:17 5.1 C 37 %
2306 07-03-2020 00:18:18 5.1 C 37 %
2307 07-03-2020 00:28:18 5.1 C 37 %
2308 07-03-2020 00:38:17 5.1 C 37 %
2309 07-03-2020 00:48:17 5.1 C 37 %
2310 07-03-2020 00:58:17 5 C 37 %
2311 07-03-2020 01:08:17 5.1 C 38 %
2312 07-03-2020 01:18:17 5.1 C 38 %
2313 07-03-2020 01:28:17 5.1 C 38 %
2314 07-03-2020 01:38:18 5.3 C 37 %
2315 07-03-2020 01:48:18 5.2 C 38 %
2316 07-03-2020 01:58:18 5.2 C 38 %
2317 07-03-2020 02:08:18 5.2 C 38 %
2318 07-03-2020 02:18:17 5.3 C 38 %
2319 07-03-2020 02:28:17 5.1 C 38 %
2320 07-03-2020 02:38:17 5.1 C 38 %
2321 07-03-2020 02:48:18 5.1 C 38 %
2322 07-03-2020 02:58:18 5.1 C 38 %
2323 07-03-2020 03:08:18 4.9 C 39 %
2324 07-03-2020 03:18:17 4.7 C 40 %
2325 07-03-2020 03:28:17 4.6 C 40 %
Sensor: Nr:Datum:Temp:Feuchte:
Aussen-T/F 2326 07-03-2020 03:38:17 4.7 C 40 %
2327 07-03-2020 03:48:17 4.7 C 39 %
2328 07-03-2020 03:58:17 4.6 C 40 %
2329 07-03-2020 04:08:18 4.6 C 40 %
2330 07-03-2020 04:18:17 4.7 C 40 %
2331 07-03-2020 04:28:17 4.8 C 39 %
2332 07-03-2020 04:38:18 4.7 C 39 %
2333 07-03-2020 04:48:17 4.7 C 39 %
2334 07-03-2020 04:58:18 4.7 C 39 %
2335 07-03-2020 05:08:18 4.6 C 39 %
2336 07-03-2020 05:18:18 4.6 C 39 %
2337 07-03-2020 05:28:18 4.6 C 39 %
2338 07-03-2020 05:38:18 4.6 C 39 %
2339 07-03-2020 05:48:18 4.5 C 39 %
2340 07-03-2020 05:58:18 4.5 C 39 %
2341 07-03-2020 06:08:17 4.6 C 39 %
2342 07-03-2020 06:18:17 4.6 C 40 %
2343 07-03-2020 06:28:17 4.6 C 39 %
2344 07-03-2020 06:38:18 4.5 C 39 %
2345 07-03-2020 06:48:17 4.5 C 39 %
2346 07-03-2020 06:58:17 4.5 C 39 %
2347 07-03-2020 07:08:18 4.5 C 39 %
2348 07-03-2020 07:18:18 4.4 C 39 %
2349 07-03-2020 07:28:18 4.4 C 39 %
2350 07-03-2020 07:38:18 4.3 C 40 %
Sensor: Nr:Datum:Temp:Feuchte:
Aussen-T/F 2351 07-03-2020 07:48:17 4 C 40 %
2352 07-03-2020 07:58:17 3.7 C 42 %
2353 07-03-2020 08:08:18 3.7 C 45 %
2354 07-03-2020 08:18:17 3.7 C 44 %
2355 07-03-2020 08:28:17 3.9 C 43 %
2356 07-03-2020 08:38:17 4 C 42 %
2357 07-03-2020 08:48:17 4.4 C 41 %
2358 07-03-2020 08:58:17 4.7 C 40 %
2359 07-03-2020 09:08:17 5.1 C 38 %
2360 07-03-2020 09:18:17 5.3 C 37 %
2361 07-03-2020 09:28:17 5.6 C 37 %
2362 07-03-2020 09:38:17 5.7 C 36 %
2363 07-03-2020 09:48:17 6.3 C 36 %
2364 07-03-2020 09:58:17 6.5 C 35 %
2365 07-03-2020 10:08:17 6.1 C 35 %
2366 07-03-2020 10:18:17 5.7 C 36 %
2367 07-03-2020 10:28:17 6.5 C 36 %
2368 07-03-2020 10:38:17 6.4 C 35 %
2369 07-03-2020 10:48:18 7 C 35 %
2370 07-03-2020 10:58:18 7.3 C 35 %
2371 07-03-2020 11:08:18 7.3 C 34 %
2372 07-03-2020 11:18:18 7.8 C 32 %
2373 07-03-2020 11:28:18 7.6 C 31 %
2374 07-03-2020 11:38:18 7.8 C 30 %
2375 07-03-2020 11:48:17 9.7 C 25 %
Sensor: Nr:Datum:Temp:Feuchte:
Aussen-T/F 2376 07-03-2020 11:58:18 7.6 C 29 %
2377 07-03-2020 12:08:18 7.6 C 29 %
2378 07-03-2020 12:18:18 7.8 C 29 %
2379 07-03-2020 12:28:18 7.8 C 30 %
2380 07-03-2020 12:38:17 8.2 C 30 %
2381 07-03-2020 12:48:18 7.5 C 28 %
2382 07-03-2020 12:58:18 8 C 27 %
2383 07-03-2020 13:08:17 9.5 C 26 %
2384 07-03-2020 13:18:18 9.1 C 21 %
2385 07-03-2020 13:28:18 9.1 C 25 %
2386 07-03-2020 13:38:18 8.8 C 26 %
2387 07-03-2020 13:48:18 9.1 C 26 %
2388 07-03-2020 13:58:18 10 C 25 %
2389 07-03-2020 14:08:17 8.9 C 26 %
2390 07-03-2020 14:18:17 10.5 C 20 %
2391 07-03-2020 14:28:17 10.1 C 20 %
2392 07-03-2020 14:38:18 9.8 C 20 %
2393 07-03-2020 14:48:17 11.6 C 20 %
2394 07-03-2020 14:58:18 11.5 C 20 %
2395 07-03-2020 15:08:18 12.4 C 20 %
2396 07-03-2020 15:18:18 11.1 C 20 %
2397 07-03-2020 15:28:18 9.8 C 20 %
2398 07-03-2020 15:38:17 12.4 C 20 %
2399 07-03-2020 15:48:18 10.8 C 20 %
2400 07-03-2020 15:58:18 9.5 C 20 %
Sensor: Nr:Datum:Temp:Feuchte:
Aussen-T/F 2401 07-03-2020 16:08:17 11.7 C 20 %
2402 07-03-2020 16:18:17 10.4 C 20 %
2403 07-03-2020 16:28:17 9.6 C 20 %
2404 07-03-2020 16:38:17 9.1 C 20 %
2405 07-03-2020 16:48:18 8.9 C 20 %
2406 07-03-2020 16:58:18 8.8 C 20 %
2407 07-03-2020 17:08:18 8.8 C 20 %
2408 07-03-2020 17:18:18 8.5 C 20 %
2409 07-03-2020 17:28:18 8.5 C 20 %
2410 07-03-2020 17:38:18 8.6 C 25 %
2411 07-03-2020 17:48:18 8.4 C 25 %
2412 07-03-2020 17:58:18 7.1 C 31 %
2413 07-03-2020 18:08:17 6.7 C 31 %
2414 07-03-2020 18:19:17 6.3 C 33 %
2415 07-03-2020 18:28:17 5.7 C 34 %
2416 07-03-2020 18:38:18 5.2 C 35 %
2417 07-03-2020 18:48:18 4.9 C 36 %
2418 07-03-2020 18:58:18 5 C 35 %
2419 07-03-2020 19:08:17 4.9 C 36 %
2420 07-03-2020 19:18:17 4.7 C 36 %
2421 07-03-2020 19:28:17 4.4 C 37 %
2422 07-03-2020 19:38:17 4.5 C 37 %
2423 07-03-2020 19:48:18 4.7 C 37 %
2424 07-03-2020 19:58:18 4.5 C 37 %
2425 07-03-2020 20:08:18 4.2 C 38 %
Sensor: Nr:Datum:Temp:Feuchte:
Aussen-T/F 2426 07-03-2020 20:18:17 4.4 C 38 %
2427 07-03-2020 20:28:17 4.6 C 39 %
2428 07-03-2020 20:38:17 4.6 C 38 %
2429 07-03-2020 20:49:17 4.5 C 38 %
2430 07-03-2020 20:59:17 4.5 C 38 %
2431 07-03-2020 21:09:17 4.5 C 39 %
2432 07-03-2020 21:18:17 4.5 C 39 %
2433 07-03-2020 21:28:17 4.7 C 39 %
2434 07-03-2020 21:38:17 4.7 C 38 %
2435 07-03-2020 21:48:18 5.1 C 37 %
2436 07-03-2020 21:58:18 5.1 C 37 %
2437 07-03-2020 22:08:17 5.3 C 37 %
2438 07-03-2020 22:18:18 5.5 C 36 %
2439 07-03-2020 22:28:18 5.6 C 36 %
2440 07-03-2020 22:38:17 5.5 C 36 %
2441 07-03-2020 22:49:17 5.5 C 36 %
2442 07-03-2020 22:59:17 5.8 C 36 %
2443 07-03-2020 23:09:17 6.2 C 35 %
2444 07-03-2020 23:19:17 6.3 C 35 %
2445 07-03-2020 23:29:17 6.4 C 35 %
2446 07-03-2020 23:38:17 6.4 C 34 %
2447 07-03-2020 23:48:18 6.4 C 34 %
2448 07-03-2020 23:58:18 6.5 C 34 %
2449 08-03-2020 00:08:18 6.5 C 35 %
2450 08-03-2020 00:18:18 6.4 C 35 %
Sensor: Nr:Datum:Temp:Feuchte:
Aussen-T/F 2451 08-03-2020 00:28:18 6.8 C 35 %
2452 08-03-2020 00:38:18 6.7 C 35 %
2453 08-03-2020 00:48:18 7 C 34 %
2454 08-03-2020 00:58:18 7.1 C 35 %
2455 08-03-2020 01:08:17 7.1 C 34 %
2456 08-03-2020 01:18:17 6.8 C 35 %
2457 08-03-2020 01:28:17 6.9 C 35 %
2458 08-03-2020 01:38:17 6.7 C 35 %
2459 08-03-2020 01:49:17 6.9 C 35 %
2460 08-03-2020 01:59:17 6.7 C 35 %
2461 08-03-2020 02:09:17 6.8 C 35 %
2462 08-03-2020 02:19:17 7 C 35 %
2463 08-03-2020 02:29:17 6.9 C 35 %
2464 08-03-2020 02:38:17 7.3 C 35 %
2465 08-03-2020 02:48:17 7.2 C 35 %
2466 08-03-2020 02:58:17 7 C 35 %
2467 08-03-2020 03:08:18 7.1 C 35 %
2468 08-03-2020 03:19:17 6.7 C 35 %
2469 08-03-2020 03:29:17 6.4 C 36 %
2470 08-03-2020 03:39:17 6.5 C 36 %
2471 08-03-2020 03:48:18 6.6 C 36 %
2472 08-03-2020 03:58:18 6.8 C 35 %
2473 08-03-2020 04:08:18 7 C 35 %
2474 08-03-2020 04:19:17 7.1 C 35 %
2475 08-03-2020 04:29:17 7 C 35 %
Sensor: Nr:Datum:Temp:Feuchte:
Aussen-T/F 2476 08-03-2020 04:39:17 7 C 35 %
2477 08-03-2020 04:49:17 6.8 C 35 %
2478 08-03-2020 04:59:17 6.9 C 35 %
2479 08-03-2020 05:09:17 7 C 35 %
2480 08-03-2020 05:19:17 6.8 C 35 %
2481 08-03-2020 05:29:17 6.5 C 35 %
2482 08-03-2020 05:39:17 6.8 C 35 %
2483 08-03-2020 05:49:17 6.6 C 35 %
2484 08-03-2020 05:59:17 6.4 C 35 %
2485 08-03-2020 06:09:17 6.4 C 35 %
2486 08-03-2020 06:19:17 5.9 C 37 %
2487 08-03-2020 06:29:18 6.3 C 36 %
2488 08-03-2020 06:39:18 6.6 C 36 %
2489 08-03-2020 06:49:17 6.9 C 36 %
2490 08-03-2020 06:59:17 7.3 C 35 %
2491 08-03-2020 07:09:17 7.4 C 35 %
2492 08-03-2020 07:19:17 7.7 C 35 %
2493 08-03-2020 07:29:17 7.8 C 35 %
2494 08-03-2020 07:39:17 7.9 C 35 %
2495 08-03-2020 07:49:17 8 C 35 %
2496 08-03-2020 07:59:17 8.2 C 34 %
2497 08-03-2020 08:09:17 8.2 C 34 %
2498 08-03-2020 08:19:17 8.4 C 34 %
2499 08-03-2020 08:29:17 8.6 C 34 %
2500 08-03-2020 08:39:17 8.5 C 35 %
Sensor: Nr:Datum:Temp:Feuchte:
Aussen-T/F 2501 08-03-2020 08:49:17 8.6 C 34 %
2502 08-03-2020 08:59:17 8.6 C 34 %
2503 08-03-2020 09:09:17 8.6 C 34 %
2504 08-03-2020 09:19:17 8.8 C 34 %
2505 08-03-2020 09:29:18 9.2 C 33 %
2506 08-03-2020 09:39:17 9.6 C 33 %
2507 08-03-2020 09:49:17 10.3 C 32 %
2508 08-03-2020 09:59:17 10.2 C 32 %
2509 08-03-2020 10:09:17 9.9 C 33 %
2510 08-03-2020 10:19:17 10.1 C 32 %
2511 08-03-2020 10:29:17 10.1 C 32 %
2512 08-03-2020 10:39:17 11.4 C 30 %
2513 08-03-2020 10:49:17 11.2 C 30 %
2514 08-03-2020 10:59:18 11.9 C 30 %
2515 08-03-2020 11:09:17 11.9 C 28 %
2516 08-03-2020 11:19:16 11.9 C 29 %
2517 08-03-2020 11:29:16 12.1 C 27 %
2518 08-03-2020 11:39:17 12.5 C 26 %
2519 08-03-2020 11:49:16 12.5 C 26 %
2520 08-03-2020 11:59:16 13.4 C 25 %
2521 08-03-2020 12:09:17 12.8 C 25 %
2522 08-03-2020 12:19:17 13.1 C 25 %
2523 08-03-2020 12:29:17 13.5 C 23 %
2524 08-03-2020 12:39:17 13.2 C 24 %
2525 08-03-2020 12:49:17 14.1 C 22 %
Sensor: Nr:Datum:Temp:Feuchte:
Aussen-T/F 2526 08-03-2020 12:59:18 13.2 C 22 %
2527 08-03-2020 13:09:17 12.2 C 25 %
2528 08-03-2020 13:19:16 12.3 C 25 %
2529 08-03-2020 13:29:16 12.3 C 25 %
2530 08-03-2020 13:39:16 12.7 C 25 %
2531 08-03-2020 13:49:17 12.7 C 25 %
2532 08-03-2020 13:59:17 12.5 C 25 %
2533 08-03-2020 14:09:17 13 C 23 %
2534 08-03-2020 14:19:16 12.8 C 25 %
2535 08-03-2020 14:29:16 12.5 C 25 %
2536 08-03-2020 14:39:16 12.8 C 25 %
2537 08-03-2020 14:49:16 12.7 C 25 %
2538 08-03-2020 14:59:16 12.3 C 25 %
2539 08-03-2020 15:09:16 12.8 C 25 %
2540 08-03-2020 15:19:17 12.5 C 25 %
2541 08-03-2020 15:29:17 12.5 C 25 %
2542 08-03-2020 15:39:17 12.1 C 25 %
2543 08-03-2020 15:49:17 12 C 25 %
2544 08-03-2020 15:59:17 12.1 C 25 %
2545 08-03-2020 16:09:17 12.5 C 25 %
2546 08-03-2020 16:19:17 12.4 C 25 %
2547 08-03-2020 16:29:17 12.1 C 25 %
2548 08-03-2020 16:39:17 12.2 C 26 %
2549 08-03-2020 16:49:17 12.2 C 26 %
2550 08-03-2020 16:59:17 12 C 26 %
Sensor: Nr:Datum:Temp:Feuchte:
Aussen-T/F 2551 08-03-2020 17:09:17 12.6 C 25 %
2552 08-03-2020 17:19:17 12.4 C 26 %
2553 08-03-2020 17:29:17 12.3 C 26 %
2554 08-03-2020 17:39:17 12 C 26 %
2555 08-03-2020 17:49:16 11.5 C 28 %
2556 08-03-2020 17:59:16 11.4 C 29 %
2557 08-03-2020 18:09:17 11.1 C 30 %
2558 08-03-2020 18:19:17 10.9 C 31 %
2559 08-03-2020 18:29:18 10.7 C 31 %
2560 08-03-2020 18:39:17 10.4 C 32 %
2561 08-03-2020 18:49:16 10.2 C 32 %
2562 08-03-2020 18:59:16 9.6 C 35 %
2563 08-03-2020 19:09:17 9.9 C 35 %
2564 08-03-2020 19:19:16 9.8 C 35 %
2565 08-03-2020 19:29:16 9.6 C 36 %
2566 08-03-2020 19:39:17 9.4 C 36 %
2567 08-03-2020 19:49:16 9.5 C 36 %
2568 08-03-2020 19:59:16 9.5 C 36 %
2569 08-03-2020 20:09:16 9.4 C 36 %
2570 08-03-2020 20:19:16 9.3 C 36 %
2571 08-03-2020 20:29:16 9.3 C 37 %
2572 08-03-2020 20:39:17 9.2 C 37 %
2573 08-03-2020 20:49:16 9.2 C 37 %
2574 08-03-2020 20:59:16 9 C 37 %
2575 08-03-2020 21:09:17 9 C 37 %
Sensor: Nr:Datum:Temp:Feuchte:
Aussen-T/F 2576 08-03-2020 21:19:17 9.1 C 37 %
2577 08-03-2020 21:29:17 9.1 C 37 %
2578 08-03-2020 21:39:17 9.3 C 37 %
2579 08-03-2020 21:49:17 9.3 C 37 %
2580 08-03-2020 21:59:17 9.3 C 37 %
2581 08-03-2020 22:09:17 9.3 C 37 %
2582 08-03-2020 22:19:16 9.3 C 37 %
2583 08-03-2020 22:29:16 8.9 C 37 %
2584 08-03-2020 22:39:17 9.2 C 37 %
2585 08-03-2020 22:49:16 8.7 C 37 %
2586 08-03-2020 22:59:16 9 C 37 %
2587 08-03-2020 23:09:16 9.3 C 37 %
2588 08-03-2020 23:19:16 7.9 C 39 %
2589 08-03-2020 23:29:16 7.8 C 40 %
2590 08-03-2020 23:39:16 7.9 C 40 %
2591 08-03-2020 23:49:16 7.9 C 39 %
2592 08-03-2020 23:59:16 7.6 C 40 %
2593 09-03-2020 00:09:17 7.3 C 41 %
2594 09-03-2020 00:19:16 7 C 41 %
2595 09-03-2020 00:29:16 6.8 C 43 %
2596 09-03-2020 00:39:16 6.8 C 44 %
2597 09-03-2020 00:49:16 6.6 C 45 %
2598 09-03-2020 00:59:16 6.8 C 43 %
2599 09-03-2020 01:09:16 6.9 C 42 %
2600 09-03-2020 01:19:16 6.9 C 43 %
Sensor: Nr:Datum:Temp:Feuchte:
Aussen-T/F 2601 09-03-2020 01:29:16 6.7 C 45 %
2602 09-03-2020 01:39:16 6.8 C 43 %
2603 09-03-2020 01:49:16 6.9 C 42 %
2604 09-03-2020 01:59:16 6.7 C 43 %
2605 09-03-2020 02:09:16 6.6 C 43 %
2606 09-03-2020 02:19:16 6.4 C 44 %
2607 09-03-2020 02:29:16 6.3 C 45 %
2608 09-03-2020 02:39:16 6.2 C 45 %
2609 09-03-2020 02:49:17 6.4 C 45 %
2610 09-03-2020 02:59:17 6.4 C 44 %
2611 09-03-2020 03:09:17 6.1 C 44 %
2612 09-03-2020 03:19:17 6.5 C 43 %
2613 09-03-2020 03:29:17 6.7 C 42 %
2614 09-03-2020 03:39:17 6.4 C 42 %
2615 09-03-2020 03:49:17 6.2 C 43 %
2616 09-03-2020 03:59:17 6 C 44 %
2617 09-03-2020 04:09:17 5.7 C 45 %
2618 09-03-2020 04:19:17 5.5 C 45 %
2619 09-03-2020 04:29:17 6.1 C 44 %
2620 09-03-2020 04:39:18 6.3 C 43 %
2621 09-03-2020 04:49:17 6.2 C 43 %
2622 09-03-2020 04:59:17 6.2 C 43 %
2623 09-03-2020 05:09:18 6.2 C 43 %
2624 09-03-2020 05:19:17 6 C 43 %
2625 09-03-2020 05:29:17 5.8 C 44 %
Sensor: Nr:Datum:Temp:Feuchte:
Aussen-T/F 2626 09-03-2020 05:39:17 5.6 C 44 %
2627 09-03-2020 05:49:17 5.2 C 44 %
2628 09-03-2020 05:59:17 5.3 C 43 %
2629 09-03-2020 06:09:17 5 C 43 %
2630 09-03-2020 06:19:17 5.2 C 43 %
2631 09-03-2020 06:29:17 5.1 C 43 %
2632 09-03-2020 06:39:18 5.4 C 42 %
2633 09-03-2020 06:49:17 5.7 C 41 %
2634 09-03-2020 06:59:18 5.7 C 41 %
2635 09-03-2020 07:09:18 5 C 42 %
2636 09-03-2020 07:19:18 4.7 C 44 %
2637 09-03-2020 07:29:18 5.7 C 42 %
2638 09-03-2020 07:39:17 5.8 C 41 %
2639 09-03-2020 07:49:17 5.4 C 41 %
2640 09-03-2020 07:59:17 5.4 C 42 %
2641 09-03-2020 08:09:17 5.4 C 42 %
2642 09-03-2020 08:19:17 5 C 43 %
2643 09-03-2020 08:29:17 5.3 C 43 %
2644 09-03-2020 08:39:18 6.1 C 41 %
2645 09-03-2020 08:49:17 6.8 C 40 %
2646 09-03-2020 08:59:17 7.3 C 38 %
2647 09-03-2020 09:09:17 7.4 C 38 %
2648 09-03-2020 09:19:17 7.7 C 37 %
2649 09-03-2020 09:29:17 8 C 37 %
2650 09-03-2020 09:39:17 8.1 C 37 %
Sensor: Nr:Datum:Temp:Feuchte:
Aussen-T/F 2651 09-03-2020 09:49:17 8 C 37 %
2652 09-03-2020 09:59:17 7.8 C 37 %
2653 09-03-2020 10:09:17 8.3 C 36 %
2654 09-03-2020 10:19:17 8.2 C 36 %
2655 09-03-2020 10:29:17 8.5 C 36 %
2656 09-03-2020 10:39:17 8.6 C 36 %
2657 09-03-2020 10:49:17 8.5 C 36 %
2658 09-03-2020 10:59:17 8.1 C 36 %
2659 09-03-2020 11:09:17 8.1 C 36 %
2660 09-03-2020 11:19:17 8.5 C 36 %
2661 09-03-2020 11:29:17 9.7 C 34 %
2662 09-03-2020 11:39:17 9.1 C 34 %
2663 09-03-2020 11:49:17 10.1 C 33 %
2664 09-03-2020 11:59:17 10.6 C 29 %
2665 09-03-2020 12:09:18 10.9 C 27 %
2666 09-03-2020 12:19:18 11.2 C 25 %
2667 09-03-2020 12:29:18 10.1 C 26 %
2668 09-03-2020 12:39:18 10.3 C 26 %
2669 09-03-2020 12:49:17 11 C 25 %
2670 09-03-2020 12:59:17 10.1 C 26 %
2671 09-03-2020 13:09:17 11.6 C 26 %
2672 09-03-2020 13:19:17 9.8 C 29 %
2673 09-03-2020 13:29:17 9.5 C 31 %
2674 09-03-2020 13:39:17 10.5 C 30 %
2675 09-03-2020 13:49:17 10.4 C 29 %
Sensor: Nr:Datum:Temp:Feuchte:
Aussen-T/F 2676 09-03-2020 13:59:17 10.5 C 29 %
2677 09-03-2020 14:09:17 11.6 C 27 %
2678 09-03-2020 14:19:17 11.5 C 26 %
2679 09-03-2020 14:29:17 10.4 C 27 %
2680 09-03-2020 14:39:17 11.6 C 26 %
2681 09-03-2020 14:49:17 12.8 C 20 %
2682 09-03-2020 14:59:17 13.6 C 20 %
2683 09-03-2020 15:09:18 12.6 C 20 %
2684 09-03-2020 15:19:18 13 C 20 %
2685 09-03-2020 15:29:18 12.9 C 20 %
2686 09-03-2020 15:39:18 14.4 C 20 %
2687 09-03-2020 15:49:17 14 C 20 %
2688 09-03-2020 15:59:17 12.5 C 20 %
2689 09-03-2020 16:09:18 11.2 C 20 %
2690 09-03-2020 16:19:17 10.5 C 22 %
2691 09-03-2020 16:29:17 10.7 C 23 %
2692 09-03-2020 16:39:17 13.3 C 20 %
2693 09-03-2020 16:49:17 14.2 C 20 %
2694 09-03-2020 16:59:18 14.1 C 20 %
2695 09-03-2020 17:09:18 12.2 C 20 %
2696 09-03-2020 17:19:17 10.1 C 20 %
2697 09-03-2020 17:29:17 9.9 C 25 %
2698 09-03-2020 17:39:18 9.8 C 25 %
2699 09-03-2020 17:49:17 9.7 C 27 %
2700 09-03-2020 17:59:18 9.7 C 26 %
Sensor: Nr:Datum:Temp:Feuchte:
Aussen-T/F 2701 09-03-2020 18:09:18 9.5 C 27 %
2702 09-03-2020 18:19:17 9.2 C 28 %
2703 09-03-2020 18:29:17 8.9 C 30 %
2704 09-03-2020 18:39:17 8.7 C 30 %
2705 09-03-2020 18:49:17 8.1 C 30 %
2706 09-03-2020 18:59:17 7.7 C 32 %
2707 09-03-2020 19:09:18 7.5 C 33 %
2708 09-03-2020 19:19:17 7.4 C 33 %
2709 09-03-2020 19:29:17 7.6 C 33 %
2710 09-03-2020 19:39:17 7.4 C 34 %
2711 09-03-2020 19:49:18 7.3 C 33 %
2712 09-03-2020 19:59:18 7.2 C 34 %
2713 09-03-2020 20:09:17 6.5 C 36 %
2714 09-03-2020 20:19:17 6.9 C 35 %
2715 09-03-2020 20:29:17 6.5 C 36 %
2716 09-03-2020 20:39:18 6.5 C 36 %
2717 09-03-2020 20:49:18 6.7 C 36 %
2718 09-03-2020 20:59:18 6.8 C 35 %
2719 09-03-2020 21:09:17 5.9 C 37 %
2720 09-03-2020 21:19:17 5.6 C 38 %
2721 09-03-2020 21:29:17 5.5 C 38 %
2722 09-03-2020 21:39:17 5.4 C 38 %
2723 09-03-2020 21:49:18 5.4 C 38 %
2724 09-03-2020 21:59:18 5.6 C 38 %
2725 09-03-2020 22:09:18 5.4 C 38 %
Sensor: Nr:Datum:Temp:Feuchte:
Aussen-T/F 2726 09-03-2020 22:19:17 5.6 C 38 %
2727 09-03-2020 22:29:17 5.8 C 38 %
2728 09-03-2020 22:39:17 5.8 C 38 %
2729 09-03-2020 22:49:17 5.4 C 38 %
2730 09-03-2020 22:59:17 5.1 C 39 %
2731 09-03-2020 23:09:18 5.1 C 39 %
2732 09-03-2020 23:19:17 5.2 C 39 %
2733 09-03-2020 23:29:17 5 C 39 %
2734 09-03-2020 23:39:17 4.6 C 40 %
2735 09-03-2020 23:49:17 4.6 C 41 %
2736 09-03-2020 23:59:17 4.5 C 41 %
2737 10-03-2020 00:09:17 4.6 C 41 %
2738 10-03-2020 00:19:18 4.7 C 41 %
2739 10-03-2020 00:29:18 5.1 C 40 %
2740 10-03-2020 00:39:18 5.5 C 40 %
2741 10-03-2020 00:49:18 5.5 C 40 %
2742 10-03-2020 00:59:18 5.8 C 39 %
2743 10-03-2020 01:09:18 5.8 C 39 %
2744 10-03-2020 01:19:17 5.9 C 39 %
2745 10-03-2020 01:29:18 6 C 38 %
2746 10-03-2020 01:39:18 6.3 C 38 %
2747 10-03-2020 01:49:17 6.7 C 37 %
2748 10-03-2020 01:59:17 6.6 C 37 %
2749 10-03-2020 02:09:18 6.7 C 37 %
2750 10-03-2020 02:19:17 6.6 C 37 %
Sensor: Nr:Datum:Temp:Feuchte:
Aussen-T/F 2751 10-03-2020 02:29:18 6.7 C 37 %
2752 10-03-2020 02:39:18 6.8 C 37 %
2753 10-03-2020 02:49:17 6.9 C 37 %
2754 10-03-2020 02:59:17 7.1 C 37 %
2755 10-03-2020 03:09:18 6.6 C 38 %
2756 10-03-2020 03:19:18 6.5 C 38 %
2757 10-03-2020 03:29:18 6.3 C 39 %
2758 10-03-2020 03:39:18 6.2 C 39 %
2759 10-03-2020 03:49:17 6 C 40 %
2760 10-03-2020 03:59:17 6 C 40 %
2761 10-03-2020 04:09:17 5.8 C 40 %
2762 10-03-2020 04:19:17 5.8 C 40 %
2763 10-03-2020 04:29:17 5.6 C 41 %
2764 10-03-2020 04:39:17 5.9 C 40 %
2765 10-03-2020 04:49:17 5.6 C 41 %
2766 10-03-2020 04:59:17 5.5 C 41 %
2767 10-03-2020 05:09:17 5.5 C 41 %
2768 10-03-2020 05:19:17 5.2 C 41 %
2769 10-03-2020 05:29:18 5.2 C 41 %
2770 10-03-2020 05:39:18 5.1 C 42 %
2771 10-03-2020 05:49:18 5.1 C 42 %
2772 10-03-2020 05:59:18 5 C 42 %
2773 10-03-2020 06:09:17 4.9 C 43 %
2774 10-03-2020 06:19:17 5 C 42 %
2775 10-03-2020 06:29:17 4.9 C 43 %
Sensor: Nr:Datum:Temp:Feuchte:
Aussen-T/F 2776 10-03-2020 06:39:18 5 C 44 %
2777 10-03-2020 06:49:17 5.1 C 43 %
2778 10-03-2020 06:59:17 5 C 43 %
2779 10-03-2020 07:09:18 5.1 C 42 %
2780 10-03-2020 07:19:18 5.3 C 42 %
2781 10-03-2020 07:29:18 5.8 C 41 %
2782 10-03-2020 07:39:18 5.8 C 42 %
2783 10-03-2020 07:49:18 5.7 C 41 %
2784 10-03-2020 07:59:18 5.9 C 41 %
2785 10-03-2020 08:09:18 6 C 41 %
2786 10-03-2020 08:19:18 6 C 41 %
2787 10-03-2020 08:29:18 6.3 C 41 %
2788 10-03-2020 08:39:18 6.5 C 40 %
2789 10-03-2020 08:49:18 6.3 C 41 %
2790 10-03-2020 08:59:18 6.5 C 41 %
2791 10-03-2020 09:09:17 6.6 C 41 %
2792 10-03-2020 09:19:17 6.6 C 41 %
2793 10-03-2020 09:29:17 6.7 C 42 %
2794 10-03-2020 09:39:17 6.8 C 42 %
2795 10-03-2020 09:49:17 6.9 C 42 %
2796 10-03-2020 09:59:17 7.1 C 41 %
2797 10-03-2020 10:09:18 7.2 C 41 %
2798 10-03-2020 10:19:18 7.3 C 41 %
2799 10-03-2020 10:29:18 7.4 C 41 %
2800 10-03-2020 10:39:18 7.5 C 41 %
Sensor: Nr:Datum:Temp:Feuchte:
Aussen-T/F 2801 10-03-2020 10:49:18 7.8 C 41 %
2802 10-03-2020 10:59:18 7.9 C 41 %
2803 10-03-2020 11:09:18 8.1 C 41 %
2804 10-03-2020 11:19:18 8.2 C 40 %
2805 10-03-2020 11:29:18 8.4 C 40 %
2806 10-03-2020 11:39:18 8.5 C 41 %
2807 10-03-2020 11:49:17 8.7 C 41 %
2808 10-03-2020 11:59:17 8.9 C 41 %
2809 10-03-2020 12:09:17 8.9 C 40 %
2810 10-03-2020 12:19:17 8.9 C 41 %
2811 10-03-2020 12:29:18 9 C 41 %
2812 10-03-2020 12:39:18 9.1 C 41 %
2813 10-03-2020 12:49:17 9.1 C 41 %
2814 10-03-2020 12:59:17 9.3 C 41 %
2815 10-03-2020 13:09:18 9.4 C 40 %
2816 10-03-2020 13:19:17 9.5 C 41 %
2817 10-03-2020 13:29:18 9.5 C 41 %
2818 10-03-2020 13:39:18 9.5 C 41 %
2819 10-03-2020 13:49:17 9.7 C 41 %
2820 10-03-2020 13:59:18 9.8 C 41 %
2821 10-03-2020 14:09:18 9.9 C 41 %
2822 10-03-2020 14:19:18 10.2 C 40 %
2823 10-03-2020 14:29:18 10.5 C 40 %
2824 10-03-2020 14:39:18 10.8 C 40 %
2825 10-03-2020 14:49:17 10.9 C 40 %
Sensor: Nr:Datum:Temp:Feuchte:
Aussen-T/F 2826 10-03-2020 14:59:17 11.3 C 38 %
2827 10-03-2020 15:09:18 11.3 C 38 %
2828 10-03-2020 15:19:18 11.4 C 38 %
2829 10-03-2020 15:29:18 11.8 C 38 %
2830 10-03-2020 15:39:18 12.3 C 37 %
2831 10-03-2020 15:49:17 12.3 C 36 %
2832 10-03-2020 15:59:18 12.5 C 37 %
2833 10-03-2020 16:09:18 13 C 35 %
2834 10-03-2020 16:19:18 12.6 C 36 %
2835 10-03-2020 16:29:18 12.5 C 37 %
2836 10-03-2020 16:39:18 12.4 C 37 %
2837 10-03-2020 16:49:17 12.5 C 37 %
2838 10-03-2020 16:59:18 12.5 C 37 %
2839 10-03-2020 17:09:18 12.7 C 37 %
2840 10-03-2020 17:19:17 12.6 C 37 %
2841 10-03-2020 17:29:18 12.7 C 37 %
2842 10-03-2020 17:39:18 12.6 C 37 %
2843 10-03-2020 17:49:17 12.5 C 37 %
2844 10-03-2020 17:59:18 12.5 C 38 %
2845 10-03-2020 18:09:18 12.3 C 38 %
2846 10-03-2020 18:19:17 12.3 C 38 %
2847 10-03-2020 18:29:18 12.3 C 38 %
2848 10-03-2020 18:39:18 12.5 C 38 %
2849 10-03-2020 18:49:17 12.4 C 38 %
2850 10-03-2020 18:59:17 12.3 C 38 %
Sensor: Nr:Datum:Temp:Feuchte:
Aussen-T/F 2851 10-03-2020 19:09:18 12.5 C 38 %
2852 10-03-2020 19:19:17 12.3 C 38 %
2853 10-03-2020 19:29:17 12.4 C 38 %
2854 10-03-2020 19:39:17 12.5 C 38 %
2855 10-03-2020 19:49:17 12.5 C 38 %
2856 10-03-2020 19:59:17 12.5 C 38 %
2857 10-03-2020 20:09:17 12.5 C 38 %
2858 10-03-2020 20:19:17 12.7 C 38 %
2859 10-03-2020 20:29:18 12.8 C 38 %
2860 10-03-2020 20:39:18 12.8 C 38 %
2861 10-03-2020 20:49:17 12.9 C 38 %
2862 10-03-2020 20:59:17 13.1 C 37 %
2863 10-03-2020 21:09:18 12.8 C 38 %
2864 10-03-2020 21:19:17 13.2 C 37 %
2865 10-03-2020 21:29:18 13.2 C 37 %
2866 10-03-2020 21:39:18 13.2 C 37 %
2867 10-03-2020 21:49:17 13.2 C 37 %
2868 10-03-2020 21:59:18 13.1 C 37 %
2869 10-03-2020 22:09:18 12.8 C 39 %
2870 10-03-2020 22:19:18 12.5 C 40 %
2871 10-03-2020 22:29:18 12.5 C 40 %
2872 10-03-2020 22:39:18 12.7 C 40 %
2873 10-03-2020 22:49:17 12.5 C 40 %
2874 10-03-2020 22:59:17 12.5 C 40 %
2875 10-03-2020 23:09:18 12.8 C 40 %
Sensor: Nr:Datum:Temp:Feuchte:
Aussen-T/F 2876 10-03-2020 23:19:18 12.8 C 39 %
2877 10-03-2020 23:29:18 12.8 C 39 %
2878 10-03-2020 23:39:18 12.8 C 39 %
2879 10-03-2020 23:49:17 12.9 C 39 %
2880 10-03-2020 23:59:17 13.1 C 37 %
2881 11-03-2020 00:09:17 13.5 C 36 %
2882 11-03-2020 00:19:17 13.5 C 36 %
2883 11-03-2020 00:29:17 13.6 C 36 %
2884 11-03-2020 00:39:18 13.7 C 36 %
2885 11-03-2020 00:49:17 13.7 C 36 %
2886 11-03-2020 00:59:17 13.7 C 36 %
2887 11-03-2020 01:09:17 13.5 C 36 %
2888 11-03-2020 01:19:17 13.4 C 37 %
2889 11-03-2020 01:29:17 13.4 C 37 %
2890 11-03-2020 01:39:17 13.3 C 37 %
2891 11-03-2020 01:49:17 13 C 38 %
2892 11-03-2020 01:59:17 12.9 C 39 %
2893 11-03-2020 02:09:17 13.2 C 38 %
2894 11-03-2020 02:19:17 13.1 C 38 %
2895 11-03-2020 02:29:17 13.1 C 38 %
2896 11-03-2020 02:39:17 13.2 C 37 %
2897 11-03-2020 02:49:17 13.4 C 37 %
2898 11-03-2020 02:59:17 13.5 C 37 %
2899 11-03-2020 03:09:17 13.1 C 37 %
2900 11-03-2020 03:19:18 13 C 38 %
Sensor: Nr:Datum:Temp:Feuchte:
Aussen-T/F 2901 11-03-2020 03:29:18 13.2 C 37 %
2902 11-03-2020 03:39:18 13.4 C 37 %
2903 11-03-2020 03:49:17 13.5 C 37 %
2904 11-03-2020 03:59:18 13.4 C 37 %
2905 11-03-2020 04:09:18 13.4 C 37 %
2906 11-03-2020 04:19:18 13.4 C 37 %
2907 11-03-2020 04:29:18 13.4 C 37 %
2908 11-03-2020 04:39:17 13.4 C 37 %
2909 11-03-2020 04:49:17 13.5 C 36 %
2910 11-03-2020 04:59:17 13.4 C 37 %
2911 11-03-2020 05:09:17 13.1 C 37 %
2912 11-03-2020 05:19:17 13.1 C 37 %
2913 11-03-2020 05:29:17 13.1 C 37 %
2914 11-03-2020 05:39:17 13.1 C 37 %
2915 11-03-2020 05:49:18 13 C 37 %
2916 11-03-2020 05:59:18 12.9 C 38 %
2917 11-03-2020 06:09:18 13.1 C 37 %
2918 11-03-2020 06:19:17 13.2 C 37 %
2919 11-03-2020 06:29:17 13.2 C 36 %
2920 11-03-2020 06:39:18 13.2 C 36 %
2921 11-03-2020 06:49:17 13.6 C 36 %
2922 11-03-2020 06:59:17 13.4 C 36 %
2923 11-03-2020 07:09:17 13.2 C 36 %
2924 11-03-2020 07:19:17 13.1 C 36 %
2925 11-03-2020 07:29:17 13.1 C 36 %
Sensor: Nr:Datum:Temp:Feuchte:
Aussen-T/F 2926 11-03-2020 07:39:17 13.1 C 36 %
2927 11-03-2020 07:49:17 13.1 C 36 %
2928 11-03-2020 07:59:18 12.9 C 37 %
2929 11-03-2020 08:09:18 12.8 C 37 %
2930 11-03-2020 08:19:18 12.6 C 37 %
2931 11-03-2020 08:29:18 12.6 C 37 %
2932 11-03-2020 08:39:18 12.7 C 37 %
2933 11-03-2020 08:49:18 12.8 C 37 %
2934 11-03-2020 08:59:18 12.7 C 37 %
2935 11-03-2020 09:09:18 13 C 36 %
2936 11-03-2020 09:19:18 13.2 C 36 %
2937 11-03-2020 09:29:18 13.6 C 36 %
2938 11-03-2020 09:39:18 13.8 C 36 %
2939 11-03-2020 09:49:18 14 C 35 %
2940 11-03-2020 09:59:18 13.9 C 35 %
2941 11-03-2020 10:09:18 13.7 C 36 %
2942 11-03-2020 10:19:17 13.8 C 36 %
2943 11-03-2020 10:29:17 14 C 35 %
2944 11-03-2020 10:39:18 14.3 C 35 %
2945 11-03-2020 10:49:18 14.4 C 35 %
2946 11-03-2020 10:59:18 14.5 C 35 %
2947 11-03-2020 11:09:17 14.9 C 35 %
2948 11-03-2020 11:19:17 14.6 C 35 %
2949 11-03-2020 11:29:17 15.8 C 33 %
2950 11-03-2020 11:39:17 15.8 C 33 %
Sensor: Nr:Datum:Temp:Feuchte:
Aussen-T/F 2951 11-03-2020 11:49:17 15.6 C 33 %
2952 11-03-2020 11:59:17 15.9 C 33 %
2953 11-03-2020 12:09:18 15.9 C 33 %
2954 11-03-2020 12:19:18 16.4 C 32 %
2955 11-03-2020 12:29:18 16.5 C 32 %
2956 11-03-2020 12:39:18 16.3 C 32 %
2957 11-03-2020 12:49:18 16.5 C 32 %
2958 11-03-2020 12:59:18 16.3 C 32 %
2959 11-03-2020 13:09:17 16 C 32 %
2960 11-03-2020 13:19:17 17 C 31 %
2961 11-03-2020 13:29:17 16.8 C 31 %
2962 11-03-2020 13:39:17 17.7 C 31 %
2963 11-03-2020 13:49:17 15.8 C 32 %
2964 11-03-2020 13:59:17 16.1 C 31 %
2965 11-03-2020 14:09:17 16.3 C 31 %
2966 11-03-2020 14:19:17 16.1 C 31 %
2967 11-03-2020 14:29:17 16.6 C 31 %
2968 11-03-2020 14:39:17 15.7 C 31 %
2969 11-03-2020 14:49:17 16.2 C 31 %
2970 11-03-2020 14:59:17 15.8 C 31 %
2971 11-03-2020 15:09:17 16.5 C 31 %
2972 11-03-2020 15:19:17 15.6 C 32 %
2973 11-03-2020 15:29:18 16.4 C 31 %
2974 11-03-2020 15:39:18 17.5 C 30 %
2975 11-03-2020 15:49:17 15.1 C 32 %
Sensor: Nr:Datum:Temp:Feuchte:
Aussen-T/F 2976 11-03-2020 15:59:17 15.6 C 33 %
2977 11-03-2020 16:09:18 15 C 33 %
2978 11-03-2020 16:19:18 14.7 C 35 %
2979 11-03-2020 16:29:18 15.1 C 34 %
2980 11-03-2020 16:39:17 14.5 C 35 %
2981 11-03-2020 16:49:18 14.5 C 35 %
2982 11-03-2020 16:59:18 14.5 C 34 %
2983 11-03-2020 17:09:18 14.1 C 35 %
2984 11-03-2020 17:19:18 14 C 35 %
2985 11-03-2020 17:29:18 13.2 C 38 %
2986 11-03-2020 17:39:17 13.2 C 38 %
2987 11-03-2020 17:49:18 13.2 C 38 %
2988 11-03-2020 17:59:18 13.4 C 37 %
2989 11-03-2020 18:09:18 13.5 C 37 %
2990 11-03-2020 18:19:17 13.5 C 36 %
2991 11-03-2020 18:29:17 13.3 C 36 %
2992 11-03-2020 18:39:17 13.4 C 36 %
2993 11-03-2020 18:49:17 13.5 C 36 %
2994 11-03-2020 18:59:17 13.4 C 36 %
2995 11-03-2020 19:09:17 13.2 C 37 %
2996 11-03-2020 19:19:17 13.1 C 37 %
2997 11-03-2020 19:29:17 13.1 C 37 %
2998 11-03-2020 19:39:18 13.4 C 36 %
2999 11-03-2020 19:49:17 13.3 C 36 %
3000 11-03-2020 19:59:17 13.2 C 36 %
Sensor: Nr:Datum:Temp:Feuchte:
Aussen-T/F 3001 11-03-2020 20:09:17 13.4 C 36 %
3002 11-03-2020 20:19:17 13.6 C 36 %
3003 11-03-2020 20:29:18 13.6 C 36 %
3004 11-03-2020 20:39:18 13.6 C 36 %
3005 11-03-2020 20:49:17 13.5 C 36 %
3006 11-03-2020 20:59:17 13.3 C 36 %
3007 11-03-2020 21:09:18 13.2 C 36 %
3008 11-03-2020 21:19:17 13.4 C 36 %
3009 11-03-2020 21:29:17 13.5 C 36 %
3010 11-03-2020 21:39:18 13.7 C 36 %
3011 11-03-2020 21:49:17 14 C 35 %
3012 11-03-2020 21:59:17 14 C 35 %
3013 11-03-2020 22:09:18 14.1 C 34 %
3014 11-03-2020 22:19:18 14 C 34 %
3015 11-03-2020 22:29:18 13.9 C 35 %
3016 11-03-2020 22:39:17 13.9 C 35 %
3017 11-03-2020 22:49:18 13.8 C 35 %
3018 11-03-2020 22:59:18 13.8 C 35 %
3019 11-03-2020 23:09:18 13.8 C 34 %
3020 11-03-2020 23:19:18 13.9 C 34 %
3021 11-03-2020 23:29:18 13.8 C 34 %
3022 11-03-2020 23:39:17 13.8 C 34 %
3023 11-03-2020 23:49:17 13.8 C 34 %
3024 11-03-2020 23:59:17 13.7 C 34 %
3025 12-03-2020 00:09:17 13.6 C 34 %
Sensor: Nr:Datum:Temp:Feuchte:
Aussen-T/F 3026 12-03-2020 00:19:17 13.6 C 34 %
3027 12-03-2020 00:29:17 13.6 C 34 %
3028 12-03-2020 00:39:18 13.7 C 34 %
3029 12-03-2020 00:49:17 13.8 C 34 %
3030 12-03-2020 00:59:17 13.9 C 34 %
3031 12-03-2020 01:09:18 13.9 C 34 %
3032 12-03-2020 01:19:17 13.8 C 34 %
3033 12-03-2020 01:29:17 13.9 C 34 %
3034 12-03-2020 01:39:18 13.8 C 34 %
3035 12-03-2020 01:49:17 13.7 C 34 %
3036 12-03-2020 01:59:17 13.8 C 34 %
3037 12-03-2020 02:09:18 13.7 C 34 %
3038 12-03-2020 02:19:17 13.7 C 34 %
3039 12-03-2020 02:29:18 13.6 C 34 %
3040 12-03-2020 02:39:18 13.6 C 33 %
3041 12-03-2020 02:49:18 13.6 C 33 %
3042 12-03-2020 02:59:18 13.5 C 33 %
3043 12-03-2020 03:09:18 13.5 C 33 %
3044 12-03-2020 03:19:18 13.5 C 32 %
3045 12-03-2020 03:29:18 13.5 C 32 %
3046 12-03-2020 03:39:17 13.4 C 32 %
3047 12-03-2020 03:49:17 13.2 C 32 %
3048 12-03-2020 03:59:17 13.1 C 32 %
3049 12-03-2020 04:09:17 13.1 C 32 %
3050 12-03-2020 04:19:17 13.1 C 32 %
Sensor: Nr:Datum:Temp:Feuchte:
Aussen-T/F 3051 12-03-2020 04:29:17 13 C 32 %
3052 12-03-2020 04:39:17 13 C 32 %
3053 12-03-2020 04:49:17 13 C 32 %
3054 12-03-2020 04:59:17 13 C 32 %
3055 12-03-2020 05:09:17 12.7 C 33 %
3056 12-03-2020 05:19:17 12.7 C 33 %
3057 12-03-2020 05:29:17 12.6 C 34 %
3058 12-03-2020 05:39:18 12.5 C 34 %
3059 12-03-2020 05:49:17 12.5 C 34 %
3060 12-03-2020 05:59:17 12.3 C 34 %
3061 12-03-2020 06:09:18 12.2 C 34 %
3062 12-03-2020 06:19:18 12.1 C 34 %
3063 12-03-2020 06:29:18 12 C 34 %
3064 12-03-2020 06:39:18 12 C 35 %
3065 12-03-2020 06:49:17 12 C 35 %
3066 12-03-2020 06:59:17 11.9 C 35 %
3067 12-03-2020 07:09:18 11.9 C 35 %
3068 12-03-2020 07:19:18 12 C 35 %
3069 12-03-2020 07:29:18 12 C 35 %
3070 12-03-2020 07:39:18 12 C 35 %
3071 12-03-2020 07:49:17 11.2 C 38 %
3072 12-03-2020 07:59:17 11 C 39 %
3073 12-03-2020 08:09:18 10.8 C 41 %
3074 12-03-2020 08:19:18 10.7 C 42 %
3075 12-03-2020 08:29:18 10.4 C 40 %
Sensor: Nr:Datum:Temp:Feuchte:
Aussen-T/F 3076 12-03-2020 08:39:18 10.1 C 39 %
3077 12-03-2020 08:49:17 10.4 C 38 %
3078 12-03-2020 08:59:17 10.2 C 38 %
3079 12-03-2020 09:09:18 10.4 C 38 %
3080 12-03-2020 09:19:17 10.5 C 37 %
3081 12-03-2020 09:29:17 10.9 C 36 %
3082 12-03-2020 09:39:17 10.8 C 36 %
3083 12-03-2020 09:49:18 11 C 36 %
3084 12-03-2020 09:59:18 11.5 C 35 %
3085 12-03-2020 10:09:18 11.7 C 34 %
3086 12-03-2020 10:19:17 11.5 C 34 %
3087 12-03-2020 10:29:17 11.5 C 34 %
3088 12-03-2020 10:39:17 11.8 C 33 %
3089 12-03-2020 10:49:17 11.3 C 33 %
3090 12-03-2020 10:59:17 11.3 C 32 %
3091 12-03-2020 11:09:18 11.6 C 28 %
3092 12-03-2020 11:19:17 11.5 C 27 %
3093 12-03-2020 11:29:17 11.7 C 26 %
3094 12-03-2020 11:39:17 11.9 C 23 %
3095 12-03-2020 11:49:18 11.9 C 20 %
3096 12-03-2020 11:59:18 12.3 C 20 %
3097 12-03-2020 12:09:18 12.2 C 20 %
3098 12-03-2020 12:19:18 12.4 C 20 %
3099 12-03-2020 12:29:18 12.8 C 20 %
3100 12-03-2020 12:39:17 12.4 C 20 %
Sensor: Nr:Datum:Temp:Feuchte:
Aussen-T/F 3101 12-03-2020 12:49:17 12.1 C 20 %
3102 12-03-2020 12:59:18 12 C 20 %
3103 12-03-2020 13:09:18 12.2 C 20 %
3104 12-03-2020 13:19:17 12.3 C 20 %
3105 12-03-2020 13:29:17 12.3 C 20 %
3106 12-03-2020 13:39:17 12.7 C 20 %
3107 12-03-2020 13:49:17 12.5 C 20 %
3108 12-03-2020 13:59:17 12.4 C 20 %
3109 12-03-2020 14:09:17 12.2 C 20 %
3110 12-03-2020 14:19:17 12.2 C 20 %
3111 12-03-2020 14:29:18 12.2 C 20 %
3112 12-03-2020 14:39:18 13.4 C 20 %
3113 12-03-2020 14:49:17 13 C 20 %
3114 12-03-2020 14:59:17 11.8 C 20 %
3115 12-03-2020 15:09:17 11.9 C 20 %
3116 12-03-2020 15:19:17 11.8 C 20 %
3117 12-03-2020 15:29:18 11.9 C 20 %
3118 12-03-2020 15:39:18 11.8 C 20 %
3119 12-03-2020 15:49:17 11.7 C 20 %
3120 12-03-2020 15:59:18 11.6 C 20 %
3121 12-03-2020 16:09:18 11.5 C 20 %
3122 12-03-2020 16:19:18 11.7 C 20 %
3123 12-03-2020 16:29:18 11.7 C 20 %
3124 12-03-2020 16:39:18 12.4 C 20 %
3125 12-03-2020 16:49:17 11.8 C 20 %
Sensor: Nr:Datum:Temp:Feuchte:
Aussen-T/F 3126 12-03-2020 16:59:17 11.5 C 20 %
3127 12-03-2020 17:09:17 11.5 C 20 %
3128 12-03-2020 17:19:17 11.5 C 20 %
3129 12-03-2020 17:29:17 11.2 C 20 %
3130 12-03-2020 17:39:18 10.9 C 20 %
3131 12-03-2020 17:49:17 11 C 20 %
3132 12-03-2020 17:59:18 10.8 C 22 %
3133 12-03-2020 18:09:18 10.3 C 25 %
3134 12-03-2020 18:19:18 9.8 C 27 %
3135 12-03-2020 18:29:18 9.3 C 30 %
3136 12-03-2020 18:39:17 8.7 C 31 %
3137 12-03-2020 18:49:17 7.9 C 33 %
3138 12-03-2020 18:59:17 7.6 C 35 %
3139 12-03-2020 19:09:17 7.5 C 34 %
3140 12-03-2020 19:19:17 7 C 35 %
3141 12-03-2020 19:29:17 6.6 C 36 %
3142 12-03-2020 19:39:17 6.5 C 36 %
3143 12-03-2020 19:49:17 7.1 C 35 %
3144 12-03-2020 19:59:17 6.8 C 35 %
3145 12-03-2020 20:09:17 7.6 C 35 %
3146 12-03-2020 20:19:17 7.3 C 35 %
3147 12-03-2020 20:29:17 6.8 C 35 %
3148 12-03-2020 20:39:17 6.8 C 36 %
3149 12-03-2020 20:49:17 6.4 C 36 %
3150 12-03-2020 20:59:17 6.7 C 36 %
Sensor: Nr:Datum:Temp:Feuchte:
Aussen-T/F 3151 12-03-2020 21:09:17 6.3 C 36 %
3152 12-03-2020 21:19:17 7.2 C 35 %
3153 12-03-2020 21:29:17 7.6 C 35 %
3154 12-03-2020 21:39:18 7.4 C 35 %
3155 12-03-2020 21:49:17 7.4 C 35 %
3156 12-03-2020 21:59:17 7.6 C 35 %
3157 12-03-2020 22:09:18 7.6 C 35 %
3158 12-03-2020 22:19:18 7.1 C 35 %
3159 12-03-2020 22:29:18 7.2 C 35 %
3160 12-03-2020 22:39:18 7.5 C 35 %
3161 12-03-2020 22:49:17 7.6 C 35 %
3162 12-03-2020 22:59:17 7.3 C 35 %
3163 12-03-2020 23:09:17 7.2 C 35 %
3164 12-03-2020 23:19:17 7 C 35 %
3165 12-03-2020 23:29:18 6.2 C 35 %
3166 12-03-2020 23:39:18 6.7 C 34 %
3167 12-03-2020 23:49:17 6.5 C 34 %
3168 12-03-2020 23:59:17 6.4 C 32 %
3169 13-03-2020 00:09:17 6.5 C 32 %
3170 13-03-2020 00:19:17 6.5 C 32 %
3171 13-03-2020 00:29:17 6.1 C 32 %
3172 13-03-2020 00:39:17 6.2 C 32 %
3173 13-03-2020 00:49:17 6 C 32 %
3174 13-03-2020 00:59:17 5.9 C 33 %
3175 13-03-2020 01:09:17 5.4 C 33 %
Sensor: Nr:Datum:Temp:Feuchte:
Aussen-T/F 3176 13-03-2020 01:19:17 5.4 C 33 %
3177 13-03-2020 01:29:17 5.1 C 34 %
3178 13-03-2020 01:39:17 5.2 C 34 %
3179 13-03-2020 01:49:17 5.2 C 33 %
3180 13-03-2020 01:59:17 5.2 C 33 %
3181 13-03-2020 02:09:17 4.8 C 35 %
3182 13-03-2020 02:19:17 5 C 34 %
3183 13-03-2020 02:29:17 5.1 C 34 %
3184 13-03-2020 02:39:18 5.1 C 34 %
3185 13-03-2020 02:49:17 5.1 C 34 %
3186 13-03-2020 02:59:17 5.1 C 34 %
3187 13-03-2020 03:09:17 5 C 34 %
3188 13-03-2020 03:19:17 5.2 C 34 %
3189 13-03-2020 03:29:17 5.2 C 34 %
3190 13-03-2020 03:39:18 5.1 C 34 %
3191 13-03-2020 03:49:17 5.1 C 34 %
3192 13-03-2020 03:59:17 5.2 C 34 %
3193 13-03-2020 04:09:17 5 C 34 %
3194 13-03-2020 04:19:17 4.9 C 35 %
3195 13-03-2020 04:29:17 5.1 C 35 %
3196 13-03-2020 04:39:17 5.1 C 35 %
3197 13-03-2020 04:49:17 5 C 34 %
3198 13-03-2020 04:59:17 5.2 C 34 %
3199 13-03-2020 05:09:17 5.2 C 34 %
3200 13-03-2020 05:19:17 5.6 C 34 %
Sensor: Nr:Datum:Temp:Feuchte:
Aussen-T/F 3201 13-03-2020 05:29:17 5.4 C 34 %
3202 13-03-2020 05:39:17 5.4 C 34 %
3203 13-03-2020 05:49:18 5.4 C 34 %
3204 13-03-2020 05:59:18 5.4 C 34 %
3205 13-03-2020 06:09:18 5.6 C 34 %
3206 13-03-2020 06:19:17 5.7 C 34 %
3207 13-03-2020 06:29:17 5.4 C 34 %
3208 13-03-2020 06:39:17 5.4 C 35 %
3209 13-03-2020 06:49:17 5.3 C 34 %
3210 13-03-2020 06:59:17 5.4 C 35 %
3211 13-03-2020 07:09:17 5.3 C 35 %
3212 13-03-2020 07:19:17 5.4 C 35 %
3213 13-03-2020 07:29:17 5.6 C 35 %
3214 13-03-2020 07:39:17 5.7 C 35 %
3215 13-03-2020 07:49:18 5.7 C 35 %
3216 13-03-2020 07:59:18 5.7 C 35 %
3217 13-03-2020 08:09:17 5.8 C 35 %
3218 13-03-2020 08:19:17 6 C 35 %
3219 13-03-2020 08:29:17 5.9 C 35 %
3220 13-03-2020 08:39:18 6 C 35 %
3221 13-03-2020 08:49:17 6.2 C 35 %
3222 13-03-2020 08:59:17 6.4 C 34 %
3223 13-03-2020 09:09:17 6.5 C 35 %
3224 13-03-2020 09:19:17 6.9 C 34 %
3225 13-03-2020 09:29:17 7.1 C 33 %
Sensor: Nr:Datum:Temp:Feuchte:
Aussen-T/F 3226 13-03-2020 09:39:18 7.1 C 33 %
3227 13-03-2020 09:49:17 6.6 C 34 %
3228 13-03-2020 09:59:17 7.1 C 33 %
3229 13-03-2020 10:09:18 7.5 C 33 %
3230 13-03-2020 10:19:17 8.5 C 32 %
3231 13-03-2020 10:29:17 8.1 C 32 %
3232 13-03-2020 10:39:18 8 C 32 %
3233 13-03-2020 10:49:17 7.6 C 33 %
3234 13-03-2020 10:59:17 7.4 C 35 %
3235 13-03-2020 11:09:17 8.9 C 33 %
3236 13-03-2020 11:19:17 9.1 C 31 %
3237 13-03-2020 11:29:17 8 C 32 %
3238 13-03-2020 11:39:17 7.3 C 35 %
3239 13-03-2020 11:49:18 7.4 C 35 %
3240 13-03-2020 11:59:18 8.2 C 33 %
3241 13-03-2020 12:09:18 8.9 C 32 %
3242 13-03-2020 12:19:18 9.7 C 29 %
3243 13-03-2020 12:29:18 9 C 30 %
3244 13-03-2020 12:39:18 9.6 C 30 %
3245 13-03-2020 12:49:18 9 C 31 %
3246 13-03-2020 12:59:18 8.8 C 31 %
3247 13-03-2020 13:09:18 8.4 C 32 %
3248 13-03-2020 13:19:18 8.6 C 33 %
3249 13-03-2020 13:29:18 9.5 C 31 %
3250 13-03-2020 13:39:18 9.9 C 30 %
Sensor: Nr:Datum:Temp:Feuchte:
Aussen-T/F 3251 13-03-2020 13:49:17 9.7 C 30 %
3252 13-03-2020 13:59:17 9.6 C 30 %
3253 13-03-2020 14:09:18 9.3 C 30 %
3254 13-03-2020 14:19:18 9.4 C 30 %
3255 13-03-2020 14:29:18 8.9 C 32 %
3256 13-03-2020 14:39:18 9.5 C 31 %
3257 13-03-2020 14:49:18 10.3 C 28 %
3258 13-03-2020 14:59:18 10.1 C 28 %
3259 13-03-2020 15:09:18 9.5 C 29 %
3260 13-03-2020 15:19:17 9.3 C 29 %
3261 13-03-2020 15:29:17 10.1 C 27 %
3262 13-03-2020 15:39:18 10.4 C 26 %
3263 13-03-2020 15:49:18 10.4 C 26 %
3264 13-03-2020 15:59:18 10.1 C 27 %
3265 13-03-2020 16:09:18 10 C 27 %
3266 13-03-2020 16:19:17 9.8 C 27 %
3267 13-03-2020 16:29:17 9.1 C 29 %
3268 13-03-2020 16:39:17 9 C 30 %
3269 13-03-2020 16:49:17 10 C 27 %
3270 13-03-2020 16:59:17 9.3 C 30 %
3271 13-03-2020 17:09:17 9.1 C 30 %
3272 13-03-2020 17:19:18 9.1 C 30 %
3273 13-03-2020 17:29:18 9.3 C 30 %
3274 13-03-2020 17:39:17 9.4 C 29 %
3275 13-03-2020 17:49:18 9.5 C 30 %
Sensor: Nr:Datum:Temp:Feuchte:
Aussen-T/F 3276 13-03-2020 17:59:18 9.1 C 31 %
3277 13-03-2020 18:09:18 8.7 C 31 %
3278 13-03-2020 18:19:17 8.6 C 31 %
3279 13-03-2020 18:29:17 8.4 C 31 %
3280 13-03-2020 18:39:17 8.2 C 31 %
3281 13-03-2020 18:49:17 8.1 C 32 %
3282 13-03-2020 18:59:17 8 C 32 %
3283 13-03-2020 19:09:17 7.8 C 33 %
3284 13-03-2020 19:19:17 7.3 C 35 %
3285 13-03-2020 19:29:17 7.3 C 35 %
3286 13-03-2020 19:39:18 7.3 C 35 %
3287 13-03-2020 19:49:17 7.3 C 35 %
3288 13-03-2020 19:59:18 7 C 35 %
3289 13-03-2020 20:09:18 6.7 C 36 %
3290 13-03-2020 20:19:17 6.7 C 36 %
3291 13-03-2020 20:29:17 6.9 C 36 %
3292 13-03-2020 20:39:17 6.4 C 36 %
3293 13-03-2020 20:49:17 6.3 C 37 %
3294 13-03-2020 20:59:17 6.2 C 37 %
3295 13-03-2020 21:09:18 5.8 C 38 %
3296 13-03-2020 21:19:18 5.8 C 38 %
3297 13-03-2020 21:29:18 5.8 C 38 %
3298 13-03-2020 21:39:18 6.2 C 37 %
3299 13-03-2020 21:49:17 5.7 C 38 %
3300 13-03-2020 21:59:17 5.8 C 38 %
Sensor: Nr:Datum:Temp:Feuchte:
Aussen-T/F 3301 13-03-2020 22:09:18 5.4 C 39 %
3302 13-03-2020 22:19:17 5.6 C 39 %
3303 13-03-2020 22:29:18 5.4 C 39 %
3304 13-03-2020 22:39:18 5.5 C 40 %
3305 13-03-2020 22:49:17 5.7 C 39 %
3306 13-03-2020 22:59:17 5.8 C 39 %
3307 13-03-2020 23:09:18 5.6 C 39 %
3308 13-03-2020 23:19:17 5.6 C 39 %
3309 13-03-2020 23:29:17 5.5 C 40 %
3310 13-03-2020 23:39:17 5.4 C 40 %
3311 13-03-2020 23:49:17 5.4 C 40 %
3312 13-03-2020 23:59:17 4.8 C 41 %
3313 14-03-2020 00:09:17 4.8 C 41 %
3314 14-03-2020 00:19:18 4.6 C 41 %
3315 14-03-2020 00:29:18 4.4 C 41 %
3316 14-03-2020 00:39:18 3.7 C 42 %
3317 14-03-2020 00:49:17 3.5 C 44 %
3318 14-03-2020 00:59:17 3 C 43 %
3319 14-03-2020 01:09:18 2.6 C 45 %
3320 14-03-2020 01:19:17 2.4 C 46 %
3321 14-03-2020 01:29:18 2 C 45 %
3322 14-03-2020 01:39:18 2 C 46 %
3323 14-03-2020 01:49:17 2.4 C 48 %
3324 14-03-2020 01:59:18 2.8 C 49 %
3325 14-03-2020 02:09:18 3.3 C 47 %
Sensor: Nr:Datum:Temp:Feuchte:
Aussen-T/F 3326 14-03-2020 02:19:18 3.6 C 46 %
3327 14-03-2020 02:29:18 3.3 C 45 %
3328 14-03-2020 02:39:18 3 C 45 %
3329 14-03-2020 02:49:18 2.8 C 45 %
3330 14-03-2020 02:59:18 2.3 C 46 %
3331 14-03-2020 03:09:18 2.2 C 46 %
3332 14-03-2020 03:19:17 1.5 C 47 %
3333 14-03-2020 03:29:17 1.3 C 47 %
3334 14-03-2020 03:39:17 1.4 C 48 %
3335 14-03-2020 03:49:18 1.5 C 48 %
3336 14-03-2020 03:59:18 1.5 C 49 %
3337 14-03-2020 04:09:17 1.7 C 49 %
3338 14-03-2020 04:19:17 1.6 C 48 %
3339 14-03-2020 04:29:17 1.6 C 49 %
3340 14-03-2020 04:39:17 1.5 C 48 %
3341 14-03-2020 04:49:17 1.3 C 48 %
3342 14-03-2020 04:59:17 1.3 C 48 %
3343 14-03-2020 05:09:17 1.3 C 49 %
3344 14-03-2020 05:19:17 1.1 C 48 %
3345 14-03-2020 05:29:17 0.8 C 49 %
3346 14-03-2020 05:39:18 0.9 C 50 %
3347 14-03-2020 05:49:17 1.3 C 49 %
3348 14-03-2020 05:59:17 0.5 C 49 %
3349 14-03-2020 06:09:18 0.3 C 49 %
3350 14-03-2020 06:19:18 0.6 C 50 %
Sensor: Nr:Datum:Temp:Feuchte:
Aussen-T/F 3351 14-03-2020 06:29:18 0.4 C 49 %
3352 14-03-2020 06:39:18 0.4 C 50 %
3353 14-03-2020 06:49:17 0.8 C 50 %
3354 14-03-2020 06:59:17 0.8 C 50 %
3355 14-03-2020 07:09:17 0.7 C 50 %
3356 14-03-2020 07:19:17 0.8 C 50 %
3357 14-03-2020 07:29:17 0.6 C 49 %
3358 14-03-2020 07:39:18 0.6 C 49 %
3359 14-03-2020 07:49:17 0.8 C 49 %
3360 14-03-2020 07:59:17 0.8 C 50 %
3361 14-03-2020 08:09:17 1 C 48 %
3362 14-03-2020 08:19:17 1.4 C 49 %
3363 14-03-2020 08:29:17 1.7 C 49 %
3364 14-03-2020 08:39:18 1.9 C 49 %
3365 14-03-2020 08:49:17 2.2 C 48 %
3366 14-03-2020 08:59:17 2.5 C 48 %
3367 14-03-2020 09:09:17 2.8 C 48 %
3368 14-03-2020 09:19:17 3.4 C 46 %
3369 14-03-2020 09:29:17 3.7 C 45 %
3370 14-03-2020 09:39:18 4.1 C 43 %
3371 14-03-2020 09:49:17 4.5 C 43 %
3372 14-03-2020 09:59:17 5 C 41 %
3373 14-03-2020 10:09:18 5.7 C 41 %
3374 14-03-2020 10:19:18 6 C 39 %
3375 14-03-2020 10:29:18 6.8 C 40 %
Sensor: Nr:Datum:Temp:Feuchte:
Aussen-T/F 3376 14-03-2020 10:39:18 7.7 C 38 %
3377 14-03-2020 10:49:17 7.7 C 37 %
3378 14-03-2020 10:59:17 8.4 C 36 %
3379 14-03-2020 11:09:18 9 C 35 %
3380 14-03-2020 11:19:18 10.4 C 34 %
3381 14-03-2020 11:29:18 11 C 31 %
3382 14-03-2020 11:39:18 10.4 C 31 %
3383 14-03-2020 11:49:17 10.1 C 32 %
3384 14-03-2020 11:59:17 11.3 C 31 %
3385 14-03-2020 12:09:18 13 C 27 %
3386 14-03-2020 12:19:17 12.4 C 27 %
3387 14-03-2020 12:29:18 12 C 27 %
3388 14-03-2020 12:39:18 11.3 C 28 %
3389 14-03-2020 12:49:17 11.5 C 28 %
3390 14-03-2020 12:59:17 13.1 C 26 %
3391 14-03-2020 13:09:18 12.9 C 25 %
3392 14-03-2020 13:19:17 13 C 22 %
3393 14-03-2020 13:29:17 13.3 C 23 %
3394 14-03-2020 13:39:17 12.5 C 22 %
3395 14-03-2020 13:49:17 12.4 C 22 %
3396 14-03-2020 13:59:17 13.8 C 21 %
3397 14-03-2020 14:09:18 12.3 C 22 %
3398 14-03-2020 14:19:17 12.5 C 21 %
3399 14-03-2020 14:29:17 14 C 20 %
3400 14-03-2020 14:39:17 13.7 C 20 %
Sensor: Nr:Datum:Temp:Feuchte:
Aussen-T/F 3401 14-03-2020 14:49:18 12.3 C 20 %
3402 14-03-2020 14:59:18 11.6 C 23 %
3403 14-03-2020 15:09:18 11.4 C 22 %
3404 14-03-2020 15:19:17 12.1 C 21 %
3405 14-03-2020 15:29:17 12.1 C 20 %
3406 14-03-2020 15:39:18 11.7 C 21 %
3407 14-03-2020 15:49:17 12 C 20 %
3408 14-03-2020 15:59:17 11.8 C 21 %
3409 14-03-2020 16:09:18 11.2 C 23 %
3410 14-03-2020 16:19:17 10.6 C 25 %
3411 14-03-2020 16:29:17 10.4 C 26 %
3412 14-03-2020 16:39:18 9.9 C 26 %
3413 14-03-2020 16:49:18 10.1 C 26 %
3414 14-03-2020 16:59:18 9.8 C 27 %
3415 14-03-2020 17:09:18 10.3 C 26 %
3416 14-03-2020 17:19:17 10.3 C 26 %
3417 14-03-2020 17:29:17 10.7 C 26 %
3418 14-03-2020 17:39:17 9.6 C 27 %
3419 14-03-2020 17:49:17 9.3 C 28 %
3420 14-03-2020 17:59:17 8.6 C 30 %
3421 14-03-2020 18:09:17 8.1 C 31 %
3422 14-03-2020 18:19:17 7.3 C 33 %
3423 14-03-2020 18:29:17 7.1 C 33 %
3424 14-03-2020 18:39:17 6.3 C 36 %
3425 14-03-2020 18:49:17 5.9 C 37 %
Sensor: Nr:Datum:Temp:Feuchte:
Aussen-T/F 3426 14-03-2020 18:59:17 5.9 C 38 %
3427 14-03-2020 19:09:17 5.3 C 38 %
3428 14-03-2020 19:19:17 5.5 C 39 %
3429 14-03-2020 19:29:17 5.1 C 39 %
3430 14-03-2020 19:39:17 5.6 C 39 %
3431 14-03-2020 19:49:17 5.2 C 39 %
3432 14-03-2020 19:59:17 5.3 C 39 %
3433 14-03-2020 20:09:18 5.3 C 39 %
3434 14-03-2020 20:19:18 5.3 C 39 %
3435 14-03-2020 20:29:18 5.3 C 39 %
3436 14-03-2020 20:39:18 5.6 C 39 %
3437 14-03-2020 20:49:17 5.5 C 39 %
3438 14-03-2020 20:59:18 5.7 C 39 %
3439 14-03-2020 21:09:18 5.7 C 39 %
3440 14-03-2020 21:19:18 5.7 C 39 %
3441 14-03-2020 21:29:18 5.6 C 38 %
3442 14-03-2020 21:39:17 5.1 C 39 %
3443 14-03-2020 21:49:18 5.2 C 39 %
3444 14-03-2020 21:59:18 5 C 39 %
3445 14-03-2020 22:09:18 5 C 39 %
3446 14-03-2020 22:19:17 5 C 39 %
3447 14-03-2020 22:29:17 5 C 39 %
3448 14-03-2020 22:39:18 5.1 C 39 %
3449 14-03-2020 22:49:18 4.8 C 40 %
3450 14-03-2020 22:59:18 5.1 C 39 %
Sensor: Nr:Datum:Temp:Feuchte:
Aussen-T/F 3451 14-03-2020 23:09:17 5.5 C 39 %
3452 14-03-2020 23:19:17 5.7 C 39 %
3453 14-03-2020 23:29:17 5.6 C 40 %
3454 14-03-2020 23:39:17 5.6 C 39 %
3455 14-03-2020 23:49:18 5.8 C 40 %
3456 14-03-2020 23:59:18 5.8 C 40 %
3457 15-03-2020 00:09:18 5.9 C 39 %
3458 15-03-2020 00:19:17 5.8 C 39 %
3459 15-03-2020 00:29:17 6.1 C 37 %
3460 15-03-2020 00:39:18 6 C 38 %
3461 15-03-2020 00:49:18 5.6 C 39 %
3462 15-03-2020 00:59:18 5.3 C 39 %
3463 15-03-2020 01:09:17 5.1 C 40 %
3464 15-03-2020 01:19:18 5.1 C 39 %
3465 15-03-2020 01:29:18 5.5 C 39 %
3466 15-03-2020 01:39:17 5.2 C 40 %
3467 15-03-2020 01:49:17 5.2 C 40 %
3468 15-03-2020 01:59:17 5.2 C 40 %
3469 15-03-2020 02:09:17 5.1 C 40 %
3470 15-03-2020 02:19:17 5.1 C 40 %
3471 15-03-2020 02:29:17 4.8 C 40 %
3472 15-03-2020 02:39:18 4.5 C 40 %
3473 15-03-2020 02:49:17 4.9 C 40 %
3474 15-03-2020 02:59:17 5 C 40 %
3475 15-03-2020 03:09:17 4.8 C 40 %
Sensor: Nr:Datum:Temp:Feuchte:
Aussen-T/F 3476 15-03-2020 03:19:17 4.2 C 40 %
3477 15-03-2020 03:29:17 4 C 40 %
3478 15-03-2020 03:39:18 4 C 40 %
3479 15-03-2020 03:49:17 3.8 C 41 %
3480 15-03-2020 03:59:17 3.7 C 42 %
3481 15-03-2020 04:09:18 3.7 C 41 %
3482 15-03-2020 04:19:18 3.9 C 41 %
3483 15-03-2020 04:29:18 3.7 C 41 %
3484 15-03-2020 04:39:18 3.8 C 41 %
3485 15-03-2020 04:49:17 3.7 C 41 %
3486 15-03-2020 04:59:18 3.5 C 41 %
3487 15-03-2020 05:09:18 3.5 C 41 %
3488 15-03-2020 05:19:17 3.3 C 41 %
3489 15-03-2020 05:29:18 3.2 C 41 %
3490 15-03-2020 05:39:18 3 C 41 %
3491 15-03-2020 05:49:17 3.1 C 41 %
3492 15-03-2020 05:59:17 3.1 C 41 %
3493 15-03-2020 06:09:18 3.1 C 41 %
3494 15-03-2020 06:19:17 3.1 C 41 %
3495 15-03-2020 06:29:17 2.9 C 43 %
3496 15-03-2020 06:39:18 3.3 C 41 %
3497 15-03-2020 06:49:18 3.6 C 41 %
3498 15-03-2020 06:59:18 3.3 C 41 %
3499 15-03-2020 07:09:18 3 C 42 %
3500 15-03-2020 07:19:18 3.1 C 42 %
Sensor: Nr:Datum:Temp:Feuchte:
Aussen-T/F 3501 15-03-2020 07:29:18 3.6 C 41 %
3502 15-03-2020 07:39:18 3.6 C 41 %
3503 15-03-2020 07:49:18 3.5 C 41 %
3504 15-03-2020 07:59:18 4 C 41 %
3505 15-03-2020 08:09:18 4.8 C 40 %
3506 15-03-2020 08:19:18 5.4 C 39 %
3507 15-03-2020 08:29:18 5.7 C 39 %
3508 15-03-2020 08:39:18 5.9 C 38 %
3509 15-03-2020 08:49:17 6.4 C 38 %
3510 15-03-2020 08:59:17 6.7 C 38 %
3511 15-03-2020 09:09:18 6.8 C 37 %
3512 15-03-2020 09:19:18 6.9 C 38 %
3513 15-03-2020 09:29:18 7.1 C 37 %
3514 15-03-2020 09:39:18 7.8 C 36 %
3515 15-03-2020 09:49:18 9.2 C 33 %
3516 15-03-2020 09:59:18 9.9 C 32 %
3517 15-03-2020 10:09:18 9.9 C 31 %
3518 15-03-2020 10:19:18 9.8 C 32 %
3519 15-03-2020 10:29:18 10 C 32 %
3520 15-03-2020 10:39:18 10.8 C 31 %
3521 15-03-2020 10:49:17 11.8 C 29 %
3522 15-03-2020 10:59:17 12.5 C 27 %
3523 15-03-2020 11:09:17 13.4 C 25 %
3524 15-03-2020 11:19:17 14.7 C 23 %
3525 15-03-2020 11:29:17 16 C 20 %
Sensor: Nr:Datum:Temp:Feuchte:
Aussen-T/F 3526 15-03-2020 11:39:18 15.5 C 20 %
3527 15-03-2020 11:49:17 14.9 C 20 %
3528 15-03-2020 11:59:18 15.2 C 20 %
3529 15-03-2020 12:09:18 14.5 C 20 %
3530 15-03-2020 12:19:18 14.1 C 20 %
3531 15-03-2020 12:29:18 14.4 C 20 %
3532 15-03-2020 12:39:18 14.7 C 20 %
3533 15-03-2020 12:49:17 15.2 C 20 %
3534 15-03-2020 12:59:17 15.4 C 20 %
3535 15-03-2020 13:09:18 14.8 C 20 %
3536 15-03-2020 13:19:17 17 C 20 %
3537 15-03-2020 13:29:17 18.6 C 20 %
3538 15-03-2020 13:39:18 17.4 C 20 %
3539 15-03-2020 13:49:17 16.7 C 20 %
3540 15-03-2020 13:59:17 16.2 C 20 %
3541 15-03-2020 14:09:17 15.5 C 20 %
3542 15-03-2020 14:19:17 16.5 C 20 %
3543 15-03-2020 14:29:17 16.3 C 20 %
3544 15-03-2020 14:39:18 16.6 C 20 %
3545 15-03-2020 14:49:17 16.2 C 20 %
3546 15-03-2020 14:59:17 16 C 20 %
3547 15-03-2020 15:09:17 17.4 C 20 %
3548 15-03-2020 15:19:17 20.3 C 20 %
3549 15-03-2020 15:29:18 20.4 C 20 %
3550 15-03-2020 15:39:18 19.4 C 20 %
Sensor: Nr:Datum:Temp:Feuchte:
Aussen-T/F 3551 15-03-2020 15:49:17 20.7 C 20 %
3552 15-03-2020 15:59:17 19.9 C 20 %
3553 15-03-2020 16:09:17 21.2 C 20 %
3554 15-03-2020 16:19:17 20.2 C 20 %
3555 15-03-2020 16:29:17 20.5 C 20 %
3556 15-03-2020 16:39:17 19.7 C 20 %
3557 15-03-2020 16:49:18 18.1 C 20 %
3558 15-03-2020 16:59:18 16.9 C 20 %
3559 15-03-2020 17:09:18 16 C 20 %
3560 15-03-2020 17:19:18 15.5 C 20 %
3561 15-03-2020 17:29:18 15.5 C 20 %
3562 15-03-2020 17:39:18 14.9 C 20 %
3563 15-03-2020 17:49:18 13.8 C 20 %
3564 15-03-2020 17:59:18 12.6 C 23 %
3565 15-03-2020 18:09:18 12.1 C 25 %
3566 15-03-2020 18:19:18 11.7 C 26 %
3567 15-03-2020 18:29:18 11.1 C 27 %
3568 15-03-2020 18:39:18 10.6 C 28 %
3569 15-03-2020 18:49:17 10.4 C 28 %
3570 15-03-2020 18:59:17 10 C 28 %
3571 15-03-2020 19:09:18 9.6 C 30 %
3572 15-03-2020 19:19:18 9.4 C 30 %
3573 15-03-2020 19:29:18 9.2 C 31 %
3574 15-03-2020 19:39:18 9.1 C 30 %
3575 15-03-2020 19:49:17 9 C 31 %
Sensor: Nr:Datum:Temp:Feuchte:
Aussen-T/F 3576 15-03-2020 19:59:17 8.9 C 31 %
3577 15-03-2020 20:09:18 8.6 C 31 %
3578 15-03-2020 20:19:17 8.5 C 32 %
3579 15-03-2020 20:29:17 8.2 C 32 %
3580 15-03-2020 20:39:18 8.2 C 32 %
3581 15-03-2020 20:49:18 8 C 32 %
3582 15-03-2020 20:59:18 7.4 C 34 %
3583 15-03-2020 21:09:18 7.1 C 35 %
3584 15-03-2020 21:19:17 7 C 35 %
3585 15-03-2020 21:29:17 7.4 C 35 %
3586 15-03-2020 21:39:17 7.5 C 35 %
3587 15-03-2020 21:49:17 7.1 C 35 %
3588 15-03-2020 21:59:17 6.3 C 36 %
3589 15-03-2020 22:09:17 5.8 C 37 %
3590 15-03-2020 22:19:17 5.4 C 37 %
3591 15-03-2020 22:29:18 5 C 38 %
3592 15-03-2020 22:39:17 4.7 C 40 %
3593 15-03-2020 22:49:17 4.7 C 40 %
3594 15-03-2020 22:59:17 4.7 C 40 %
3595 15-03-2020 23:09:17 4.7 C 40 %
3596 15-03-2020 23:19:17 4.6 C 40 %
3597 15-03-2020 23:29:17 4.5 C 40 %
3598 15-03-2020 23:39:17 4.5 C 40 %
3599 15-03-2020 23:49:17 4.3 C 40 %
3600 15-03-2020 23:59:17 4.1 C 40 %
Sensor: Nr:Datum:Temp:Feuchte:
Aussen-T/F 3601 16-03-2020 00:09:17 4 C 40 %
3602 16-03-2020 00:19:17 3.8 C 41 %
3603 16-03-2020 00:29:17 3.4 C 41 %
3604 16-03-2020 00:39:17 3.4 C 42 %
3605 16-03-2020 00:49:17 3.3 C 42 %
3606 16-03-2020 00:59:17 3.3 C 42 %
3607 16-03-2020 01:09:18 2.9 C 43 %
3608 16-03-2020 01:19:17 3 C 43 %
3609 16-03-2020 01:29:17 3 C 42 %
3610 16-03-2020 01:39:17 3.2 C 42 %
3611 16-03-2020 01:49:18 2.8 C 43 %
3612 16-03-2020 01:59:18 2.6 C 44 %
3613 16-03-2020 02:09:17 2.7 C 45 %
3614 16-03-2020 02:19:17 2.7 C 44 %
3615 16-03-2020 02:29:17 2.4 C 44 %
3616 16-03-2020 02:39:17 2.6 C 45 %
3617 16-03-2020 02:49:17 2.8 C 45 %
3618 16-03-2020 02:59:17 2.8 C 44 %
3619 16-03-2020 03:09:18 2.2 C 44 %
3620 16-03-2020 03:19:17 2.3 C 44 %
3621 16-03-2020 03:29:17 2.2 C 45 %
3622 16-03-2020 03:39:17 1.8 C 45 %
3623 16-03-2020 03:49:18 2 C 46 %
3624 16-03-2020 03:59:18 1.8 C 46 %
3625 16-03-2020 04:09:18 1.6 C 46 %
Sensor: Nr:Datum:Temp:Feuchte:
Aussen-T/F 3626 16-03-2020 04:19:18 1.7 C 46 %
3627 16-03-2020 04:29:18 2 C 46 %
3628 16-03-2020 04:39:18 1.5 C 46 %
3629 16-03-2020 04:49:17 1.7 C 46 %
3630 16-03-2020 04:59:18 1.9 C 46 %
3631 16-03-2020 05:09:18 1.7 C 46 %
3632 16-03-2020 05:19:18 1.7 C 46 %
3633 16-03-2020 05:29:18 1.4 C 46 %
3634 16-03-2020 05:39:18 1.3 C 46 %
3635 16-03-2020 05:49:17 1.2 C 46 %
3636 16-03-2020 05:59:17 1.3 C 47 %
3637 16-03-2020 06:09:18 1.1 C 47 %
3638 16-03-2020 06:19:17 0.6 C 48 %
3639 16-03-2020 06:29:17 0.6 C 48 %
3640 16-03-2020 06:39:17 0.6 C 48 %
3641 16-03-2020 06:49:17 0.6 C 48 %
3642 16-03-2020 06:59:17 0.9 C 49 %
3643 16-03-2020 07:09:17 1.2 C 49 %
3644 16-03-2020 07:19:17 1.1 C 47 %
3645 16-03-2020 07:29:17 1 C 47 %
3646 16-03-2020 07:39:17 1.4 C 49 %
3647 16-03-2020 07:49:17 1.4 C 48 %
3648 16-03-2020 07:59:17 1.7 C 48 %
3649 16-03-2020 08:09:18 2 C 47 %
3650 16-03-2020 08:19:17 2.3 C 47 %
Sensor: Nr:Datum:Temp:Feuchte:
Aussen-T/F 3651 16-03-2020 08:29:18 2.4 C 46 %
3652 16-03-2020 08:39:18 2.4 C 46 %
3653 16-03-2020 08:49:17 2.6 C 46 %
3654 16-03-2020 08:59:17 2.9 C 47 %
3655 16-03-2020 09:09:18 3.4 C 46 %
3656 16-03-2020 09:19:18 3.7 C 45 %
3657 16-03-2020 09:29:18 4 C 45 %
3658 16-03-2020 09:39:18 4.6 C 44 %
3659 16-03-2020 09:49:18 5 C 43 %
3660 16-03-2020 09:59:18 5.6 C 42 %
3661 16-03-2020 10:09:18 6.6 C 41 %
3662 16-03-2020 10:19:18 7.3 C 40 %
3663 16-03-2020 10:29:18 8.3 C 39 %
3664 16-03-2020 10:39:17 9.3 C 38 %
3665 16-03-2020 10:49:18 10.4 C 37 %
3666 16-03-2020 10:59:18 12.4 C 34 %
3667 16-03-2020 11:09:17 13.3 C 32 %
3668 16-03-2020 11:19:17 14.3 C 30 %
3669 16-03-2020 11:29:17 15.4 C 27 %
3670 16-03-2020 11:39:18 15.7 C 26 %
3671 16-03-2020 11:49:17 15.6 C 25 %
3672 16-03-2020 11:59:17 16.1 C 25 %
3673 16-03-2020 12:09:17 16.5 C 25 %
3674 16-03-2020 12:19:17 16.8 C 25 %
3675 16-03-2020 12:29:17 16.4 C 24 %
Sensor: Nr:Datum:Temp:Feuchte:
Aussen-T/F 3676 16-03-2020 12:39:17 16.9 C 24 %
3677 16-03-2020 12:49:17 18.3 C 21 %
3678 16-03-2020 12:59:17 18.7 C 20 %
3679 16-03-2020 13:09:17 22.3 C 20 %
3680 16-03-2020 13:19:17 21.2 C 20 %
3681 16-03-2020 13:29:17 21.1 C 20 %
3682 16-03-2020 13:39:17 20.6 C 20 %
3683 16-03-2020 13:49:17 21.1 C 20 %
3684 16-03-2020 13:59:17 19.7 C 20 %
3685 16-03-2020 14:09:17 18.7 C 20 %
3686 16-03-2020 14:19:17 19.7 C 20 %
3687 16-03-2020 14:29:17 19.7 C 20 %
3688 16-03-2020 14:39:17 20 C 20 %
3689 16-03-2020 14:49:17 19.2 C 20 %
3690 16-03-2020 14:59:17 20.8 C 20 %
3691 16-03-2020 15:09:17 20 C 20 %
3692 16-03-2020 15:19:17 19.1 C 20 %
3693 16-03-2020 15:29:17 18.8 C 20 %
3694 16-03-2020 15:39:18 18.8 C 20 %
3695 16-03-2020 15:49:17 19 C 20 %
3696 16-03-2020 15:59:17 19 C 20 %
3697 16-03-2020 16:09:18 18.7 C 20 %
3698 16-03-2020 16:19:18 19 C 20 %
3699 16-03-2020 16:29:18 21.4 C 20 %
3700 16-03-2020 16:39:17 20.8 C 20 %
Sensor: Nr:Datum:Temp:Feuchte:
Aussen-T/F 3701 16-03-2020 16:49:17 20.2 C 20 %
3702 16-03-2020 16:59:17 19.4 C 20 %
3703 16-03-2020 17:09:17 18.4 C 20 %
3704 16-03-2020 17:19:17 17.9 C 20 %
3705 16-03-2020 17:29:18 17.7 C 20 %
3706 16-03-2020 17:39:18 17.5 C 20 %
3707 16-03-2020 17:49:17 16.8 C 21 %
3708 16-03-2020 17:59:18 16 C 23 %
3709 16-03-2020 18:09:18 15 C 26 %
3710 16-03-2020 18:19:18 14.3 C 27 %
3711 16-03-2020 18:29:18 13.7 C 29 %
3712 16-03-2020 18:39:18 13.1 C 30 %
3713 16-03-2020 18:49:18 12.7 C 31 %
3714 16-03-2020 18:59:18 12.4 C 32 %
3715 16-03-2020 19:09:18 12.1 C 32 %
3716 16-03-2020 19:19:18 12.2 C 32 %
3717 16-03-2020 19:29:18 12.2 C 32 %
3718 16-03-2020 19:39:18 11.9 C 34 %
3719 16-03-2020 19:49:17 11.5 C 34 %
3720 16-03-2020 19:59:18 11 C 35 %
3721 16-03-2020 20:09:18 10.7 C 36 %
3722 16-03-2020 20:19:18 11.4 C 35 %
3723 16-03-2020 20:29:18 10.8 C 36 %
3724 16-03-2020 20:39:18 10.3 C 36 %
3725 16-03-2020 20:49:18 9.5 C 38 %
Sensor: Nr:Datum:Temp:Feuchte:
Aussen-T/F 3726 16-03-2020 20:59:18 10.8 C 37 %
3727 16-03-2020 21:09:18 10.1 C 37 %
3728 16-03-2020 21:19:17 10.3 C 38 %
3729 16-03-2020 21:29:17 9.9 C 38 %
3730 16-03-2020 21:39:17 9.7 C 38 %
3731 16-03-2020 21:49:18 10.2 C 37 %
3732 16-03-2020 21:59:18 9.9 C 38 %
3733 16-03-2020 22:09:18 9.7 C 38 %
3734 16-03-2020 22:19:18 9.5 C 38 %
3735 16-03-2020 22:29:18 9.5 C 39 %
3736 16-03-2020 22:39:18 9.2 C 38 %
3737 16-03-2020 22:49:18 8.9 C 39 %
3738 16-03-2020 22:59:18 9.1 C 39 %
3739 16-03-2020 23:09:18 9.4 C 39 %
3740 16-03-2020 23:19:17 9.4 C 39 %
3741 16-03-2020 23:29:17 9.4 C 39 %
3742 16-03-2020 23:39:17 9.5 C 39 %
3743 16-03-2020 23:49:17 9.5 C 40 %
3744 16-03-2020 23:59:17 9.5 C 39 %
3745 17-03-2020 00:09:17 9.3 C 39 %
3746 17-03-2020 00:19:17 9.7 C 40 %
3747 17-03-2020 00:29:17 9.5 C 39 %
3748 17-03-2020 00:39:18 9.3 C 39 %
3749 17-03-2020 00:49:18 9.1 C 40 %
3750 17-03-2020 00:59:18 9 C 40 %
Sensor: Nr:Datum:Temp:Feuchte:
Aussen-T/F 3751 17-03-2020 01:09:18 9.3 C 40 %
3752 17-03-2020 01:19:17 9.2 C 40 %
3753 17-03-2020 01:29:17 8.9 C 40 %
3754 17-03-2020 01:39:17 8.7 C 41 %
3755 17-03-2020 01:49:18 8.8 C 41 %
3756 17-03-2020 01:59:18 8.8 C 41 %
3757 17-03-2020 02:09:18 8.7 C 41 %
3758 17-03-2020 02:19:17 8.7 C 41 %
3759 17-03-2020 02:29:17 8.7 C 41 %
3760 17-03-2020 02:39:17 8.9 C 41 %
3761 17-03-2020 02:49:17 8.9 C 41 %
3762 17-03-2020 02:59:17 8.8 C 41 %
3763 17-03-2020 03:09:18 8.6 C 41 %
3764 17-03-2020 03:19:18 8.6 C 41 %
3765 17-03-2020 03:29:18 8.4 C 41 %
3766 17-03-2020 03:39:17 8.3 C 41 %
3767 17-03-2020 03:49:18 8.1 C 42 %
3768 17-03-2020 03:59:18 8 C 41 %
3769 17-03-2020 04:09:18 8.9 C 42 %
3770 17-03-2020 04:19:18 9.2 C 40 %
3771 17-03-2020 04:29:18 9.3 C 40 %
3772 17-03-2020 04:39:17 9 C 40 %
3773 17-03-2020 04:49:18 9 C 40 %
3774 17-03-2020 04:59:18 8.6 C 41 %
3775 17-03-2020 05:09:17 8.9 C 41 %
Sensor: Nr:Datum:Temp:Feuchte:
Aussen-T/F 3776 17-03-2020 05:19:17 9 C 40 %
3777 17-03-2020 05:29:17 8.6 C 41 %
3778 17-03-2020 05:39:17 8.3 C 41 %
3779 17-03-2020 05:49:17 8.2 C 41 %
3780 17-03-2020 05:59:18 8.2 C 41 %
3781 17-03-2020 06:09:18 8.1 C 41 %
3782 17-03-2020 06:19:18 8.1 C 41 %
3783 17-03-2020 06:29:18 8 C 41 %
3784 17-03-2020 06:39:18 8.2 C 41 %
3785 17-03-2020 06:49:18 8.1 C 41 %
3786 17-03-2020 06:59:18 8.2 C 41 %
3787 17-03-2020 07:09:17 8.8 C 40 %
3788 17-03-2020 07:19:17 9 C 40 %
3789 17-03-2020 07:29:17 9.5 C 39 %
3790 17-03-2020 07:39:17 9.6 C 39 %
3791 17-03-2020 07:49:18 9.6 C 39 %
3792 17-03-2020 07:59:18 9.8 C 38 %
3793 17-03-2020 08:09:18 10.1 C 37 %
3794 17-03-2020 08:19:17 10 C 37 %
3795 17-03-2020 08:29:17 9.8 C 38 %
3796 17-03-2020 08:39:17 9.9 C 38 %
3797 17-03-2020 08:49:17 9.9 C 38 %
3798 17-03-2020 08:59:17 10 C 37 %
3799 17-03-2020 09:09:17 10.2 C 37 %
3800 17-03-2020 09:19:18 10.4 C 37 %
Sensor: Nr:Datum:Temp:Feuchte:
Aussen-T/F 3801 17-03-2020 09:29:18 10.4 C 37 %
3802 17-03-2020 09:39:18 10.6 C 37 %
3803 17-03-2020 09:49:17 10.6 C 37 %
3804 17-03-2020 09:59:17 10.7 C 37 %
3805 17-03-2020 10:09:17 10.7 C 37 %
3806 17-03-2020 10:19:17 10.9 C 36 %
3807 17-03-2020 10:29:17 11 C 35 %
3808 17-03-2020 10:39:17 11.7 C 35 %
3809 17-03-2020 10:49:17 12.4 C 33 %
3810 17-03-2020 10:59:17 12.9 C 33 %
3811 17-03-2020 11:09:17 13.1 C 32 %
3812 17-03-2020 11:19:17 13.3 C 31 %
3813 17-03-2020 11:29:17 13.3 C 31 %
3814 17-03-2020 11:39:17 14.7 C 30 %
3815 17-03-2020 11:49:17 14.1 C 29 %
3816 17-03-2020 11:59:17 15.4 C 28 %
3817 17-03-2020 12:09:17 14.5 C 29 %
3818 17-03-2020 12:19:18 14.6 C 27 %
3819 17-03-2020 12:29:18 15.2 C 26 %
3820 17-03-2020 12:39:18 16.5 C 26 %
3821 17-03-2020 12:49:18 16.6 C 24 %
3822 17-03-2020 12:59:18 19.3 C 20 %
3823 17-03-2020 13:09:17 18.8 C 20 %
3824 17-03-2020 13:19:17 20.4 C 20 %
3825 17-03-2020 13:29:17 19.5 C 20 %
Sensor: Nr:Datum:Temp:Feuchte:
Aussen-T/F 3826 17-03-2020 13:39:17 18.5 C 20 %
3827 17-03-2020 13:49:18 18.8 C 20 %
3828 17-03-2020 13:59:18 19.3 C 20 %
3829 17-03-2020 14:09:17 18.3 C 20 %
3830 17-03-2020 14:19:17 18.5 C 20 %
3831 17-03-2020 14:29:17 17.9 C 20 %
3832 17-03-2020 14:39:18 17.1 C 20 %
3833 17-03-2020 14:49:18 20.5 C 20 %
3834 17-03-2020 14:59:18 22.2 C 20 %
3835 17-03-2020 15:09:17 22.5 C 20 %
3836 17-03-2020 15:19:17 22.1 C 20 %
3837 17-03-2020 15:29:17 23.8 C 20 %
3838 17-03-2020 15:39:18 23.6 C 20 %
3839 17-03-2020 15:49:17 23.8 C 20 %
3840 17-03-2020 15:59:17 23.9 C 20 %
3841 17-03-2020 16:09:18 23.3 C 20 %
3842 17-03-2020 16:19:18 21.8 C 20 %
3843 17-03-2020 16:29:18 23.2 C 20 %
3844 17-03-2020 16:39:17 21.4 C 20 %
3845 17-03-2020 16:49:17 22.3 C 20 %
3846 17-03-2020 16:59:17 20.1 C 20 %
3847 17-03-2020 17:09:17 18.7 C 20 %
3848 17-03-2020 17:19:18 17.7 C 20 %
3849 17-03-2020 17:29:18 17.3 C 20 %
3850 17-03-2020 17:39:18 16.8 C 20 %
Sensor: Nr:Datum:Temp:Feuchte:
Aussen-T/F 3851 17-03-2020 17:49:17 16.1 C 22 %
3852 17-03-2020 17:59:18 15.3 C 24 %
3853 17-03-2020 18:09:18 14.1 C 27 %
3854 17-03-2020 18:19:17 13.5 C 28 %
3855 17-03-2020 18:29:17 13.2 C 29 %
3856 17-03-2020 18:39:18 12.8 C 30 %
3857 17-03-2020 18:49:18 12.4 C 31 %
3858 17-03-2020 18:59:18 12 C 31 %
3859 17-03-2020 19:09:18 11.9 C 32 %
3860 17-03-2020 19:19:17 11.8 C 32 %
3861 17-03-2020 19:29:17 11.1 C 33 %
3862 17-03-2020 19:39:17 11 C 34 %
3863 17-03-2020 19:49:17 10.4 C 35 %
3864 17-03-2020 19:59:17 10.2 C 35 %
3865 17-03-2020 20:09:17 9.9 C 36 %
3866 17-03-2020 20:19:17 10.1 C 36 %
3867 17-03-2020 20:29:17 10.7 C 35 %
3868 17-03-2020 20:39:18 10.4 C 35 %
3869 17-03-2020 20:49:18 9.6 C 37 %
3870 17-03-2020 20:59:18 9.5 C 37 %
3871 17-03-2020 21:09:18 9 C 37 %
3872 17-03-2020 21:19:17 8.4 C 39 %
3873 17-03-2020 21:29:17 8.4 C 39 %
3874 17-03-2020 21:39:17 8.1 C 39 %
3875 17-03-2020 21:49:18 8 C 40 %
Sensor: Nr:Datum:Temp:Feuchte:
Aussen-T/F 3876 17-03-2020 21:59:18 7.6 C 40 %
3877 17-03-2020 22:09:18 7.3 C 40 %
3878 17-03-2020 22:19:18 7.2 C 41 %
3879 17-03-2020 22:29:18 7 C 41 %
3880 17-03-2020 22:39:17 6.9 C 41 %
3881 17-03-2020 22:49:17 6.7 C 42 %
3882 17-03-2020 22:59:17 6.5 C 42 %
3883 17-03-2020 23:09:17 6.4 C 42 %
3884 17-03-2020 23:19:17 6.3 C 42 %
3885 17-03-2020 23:29:17 6.1 C 42 %
3886 17-03-2020 23:39:18 6.1 C 42 %
3887 17-03-2020 23:49:18 6.2 C 43 %
3888 17-03-2020 23:59:18 6.3 C 43 %
3889 18-03-2020 00:09:17 5.9 C 43 %
3890 18-03-2020 00:19:17 5.8 C 44 %
3891 18-03-2020 00:29:17 5.9 C 44 %
3892 18-03-2020 00:39:17 5.8 C 44 %
3893 18-03-2020 00:49:17 6 C 44 %
3894 18-03-2020 00:59:17 6 C 43 %
3895 18-03-2020 01:09:17 5.7 C 44 %
3896 18-03-2020 01:19:17 5.6 C 44 %
3897 18-03-2020 01:29:17 5.3 C 44 %
3898 18-03-2020 01:39:17 5.6 C 45 %
3899 18-03-2020 01:49:17 5.3 C 45 %
3900 18-03-2020 01:59:17 5.6 C 46 %
Sensor: Nr:Datum:Temp:Feuchte:
Aussen-T/F 3901 18-03-2020 02:09:17 5.1 C 44 %
3902 18-03-2020 02:19:17 4.8 C 45 %
3903 18-03-2020 02:29:17 4.8 C 45 %
3904 18-03-2020 02:39:17 4.6 C 46 %
3905 18-03-2020 02:49:18 4.3 C 46 %
3906 18-03-2020 02:59:18 4.3 C 46 %
3907 18-03-2020 03:09:18 4.2 C 46 %
3908 18-03-2020 03:19:17 4.2 C 46 %
3909 18-03-2020 03:29:17 4.1 C 46 %
3910 18-03-2020 03:39:17 4 C 46 %
3911 18-03-2020 03:49:17 3.8 C 47 %
3912 18-03-2020 03:59:17 3.8 C 47 %
3913 18-03-2020 04:09:17 3.8 C 47 %
3914 18-03-2020 04:19:18 3.8 C 47 %
3915 18-03-2020 04:29:18 3.7 C 47 %
3916 18-03-2020 04:39:18 3.7 C 47 %
3917 18-03-2020 04:49:18 3.6 C 47 %
3918 18-03-2020 04:59:18 3.6 C 47 %
3919 18-03-2020 05:09:18 3.7 C 48 %
3920 18-03-2020 05:19:18 3.8 C 48 %
3921 18-03-2020 05:29:18 3.3 C 47 %
3922 18-03-2020 05:39:18 3.2 C 47 %
3923 18-03-2020 05:49:18 3.3 C 47 %
3924 18-03-2020 05:59:18 3.1 C 47 %
3925 18-03-2020 06:09:18 2.9 C 48 %
Sensor: Nr:Datum:Temp:Feuchte:
Aussen-T/F 3926 18-03-2020 06:19:17 3.3 C 47 %
3927 18-03-2020 06:29:18 3.1 C 47 %
3928 18-03-2020 06:39:18 3.1 C 47 %
3929 18-03-2020 06:49:17 3.1 C 47 %
3930 18-03-2020 06:59:18 3.6 C 47 %
3931 18-03-2020 07:09:18 3.5 C 47 %
3932 18-03-2020 07:19:17 3.4 C 47 %
3933 18-03-2020 07:29:17 3.7 C 47 %
3934 18-03-2020 07:39:17 3.9 C 47 %
3935 18-03-2020 07:49:18 4 C 46 %
3936 18-03-2020 07:59:18 4.9 C 46 %
3937 18-03-2020 08:09:18 4.6 C 46 %
3938 18-03-2020 08:19:18 4.5 C 46 %
3939 18-03-2020 08:29:18 4.7 C 46 %
3940 18-03-2020 08:39:17 5 C 45 %
3941 18-03-2020 08:49:18 5.3 C 46 %
3942 18-03-2020 08:59:18 5.6 C 46 %
3943 18-03-2020 09:09:17 6.7 C 45 %
3944 18-03-2020 09:19:17 7.1 C 45 %
3945 18-03-2020 09:29:17 8.5 C 45 %
3946 18-03-2020 09:39:17 9.7 C 41 %
3947 18-03-2020 09:49:18 10.5 C 40 %
3948 18-03-2020 09:59:18 11 C 38 %
3949 18-03-2020 10:09:18 11.1 C 38 %
3950 18-03-2020 10:19:18 11.6 C 38 %
Sensor: Nr:Datum:Temp:Feuchte:
Aussen-T/F 3951 18-03-2020 10:29:18 11.6 C 37 %
3952 18-03-2020 10:39:18 11.7 C 38 %
3953 18-03-2020 10:49:18 12 C 36 %
3954 18-03-2020 10:59:18 12.2 C 35 %
3955 18-03-2020 11:09:18 12.7 C 35 %
3956 18-03-2020 11:19:18 12.8 C 34 %
3957 18-03-2020 11:29:18 13.3 C 34 %
3958 18-03-2020 11:39:18 13.9 C 33 %
3959 18-03-2020 11:49:17 14.7 C 32 %
3960 18-03-2020 11:59:17 15.3 C 30 %
3961 18-03-2020 12:09:18 15.8 C 30 %
3962 18-03-2020 12:19:17 16.6 C 29 %
3963 18-03-2020 12:29:18 17 C 27 %
3964 18-03-2020 12:39:18 17.8 C 26 %
3965 18-03-2020 12:49:17 19.1 C 25 %
3966 18-03-2020 12:59:17 19.8 C 20 %
3967 18-03-2020 13:09:17 21 C 20 %
3968 18-03-2020 13:19:17 21.2 C 20 %
3969 18-03-2020 13:29:17 19.5 C 20 %
3970 18-03-2020 13:39:18 17.7 C 20 %
3971 18-03-2020 13:49:17 16.6 C 22 %
3972 18-03-2020 13:59:17 16 C 22 %
3973 18-03-2020 14:09:17 17.6 C 21 %
3974 18-03-2020 14:19:17 16.7 C 20 %
3975 18-03-2020 14:29:17 17.9 C 20 %
Sensor: Nr:Datum:Temp:Feuchte:
Aussen-T/F 3976 18-03-2020 14:39:18 18.5 C 20 %
3977 18-03-2020 14:49:17 17.4 C 20 %
3978 18-03-2020 14:59:17 17.4 C 20 %
3979 18-03-2020 15:09:17 20.6 C 20 %
3980 18-03-2020 15:19:18 17.9 C 20 %
3981 18-03-2020 15:29:18 18.2 C 20 %
3982 18-03-2020 15:39:18 17.7 C 20 %
3983 18-03-2020 15:49:17 16.9 C 20 %
3984 18-03-2020 15:59:17 16.7 C 21 %
3985 18-03-2020 16:09:17 16.4 C 21 %
3986 18-03-2020 16:19:17 16.4 C 22 %
3987 18-03-2020 16:29:17 16.4 C 20 %
3988 18-03-2020 16:39:17 16.5 C 20 %
3989 18-03-2020 16:49:18 16.2 C 21 %
3990 18-03-2020 16:59:18 16.1 C 21 %
3991 18-03-2020 17:09:17 16 C 21 %
3992 18-03-2020 17:19:17 16 C 21 %
3993 18-03-2020 17:29:17 15.7 C 22 %
3994 18-03-2020 17:39:18 16 C 20 %
3995 18-03-2020 17:49:17 16.3 C 20 %
3996 18-03-2020 17:59:17 15.8 C 22 %
3997 18-03-2020 18:09:17 15.4 C 22 %
3998 18-03-2020 18:19:17 14.7 C 26 %
3999 18-03-2020 18:29:17 13.7 C 26 %
4000 18-03-2020 18:39:17 13.3 C 28 %
Sensor: Nr:Datum:Temp:Feuchte:
Aussen-T/F 4001 18-03-2020 18:49:17 12.7 C 30 %
4002 18-03-2020 18:59:17 12 C 31 %
4003 18-03-2020 19:09:17 11.7 C 32 %
4004 18-03-2020 19:19:18 11.5 C 32 %
4005 18-03-2020 19:29:18 10.5 C 34 %
4006 18-03-2020 19:39:18 10.9 C 34 %
4007 18-03-2020 19:49:18 11.1 C 34 %
4008 18-03-2020 19:59:18 10.9 C 35 %
4009 18-03-2020 20:09:18 10.6 C 35 %
4010 18-03-2020 20:19:17 10.4 C 35 %
4011 18-03-2020 20:29:17 10.4 C 35 %
4012 18-03-2020 20:39:18 10 C 36 %
4013 18-03-2020 20:49:17 9.7 C 37 %
4014 18-03-2020 20:59:17 9.7 C 37 %
4015 18-03-2020 21:09:18 9.7 C 37 %
4016 18-03-2020 21:19:17 9.6 C 37 %
4017 18-03-2020 21:29:17 9.4 C 37 %
4018 18-03-2020 21:39:17 9 C 37 %
4019 18-03-2020 21:49:17 8.7 C 38 %
4020 18-03-2020 21:59:17 8.4 C 39 %
4021 18-03-2020 22:09:17 8.2 C 39 %
4022 18-03-2020 22:19:17 8.1 C 40 %
4023 18-03-2020 22:29:17 8 C 40 %
4024 18-03-2020 22:39:17 8 C 40 %
4025 18-03-2020 22:49:17 8.1 C 40 %
Sensor: Nr:Datum:Temp:Feuchte:
Aussen-T/F 4026 18-03-2020 22:59:17 8.2 C 40 %
4027 18-03-2020 23:09:18 8.3 C 40 %
4028 18-03-2020 23:19:17 8.1 C 40 %
4029 18-03-2020 23:29:17 8 C 40 %
4030 18-03-2020 23:39:18 8 C 40 %
4031 18-03-2020 23:49:18 8.4 C 40 %
4032 18-03-2020 23:59:18 8.9 C 40 %
4033 19-03-2020 00:09:17 8.9 C 39 %
4034 19-03-2020 00:19:18 8.9 C 38 %
4035 19-03-2020 00:29:18 9 C 38 %
4036 19-03-2020 00:39:18 9 C 38 %
4037 19-03-2020 00:49:17 9.1 C 38 %
4038 19-03-2020 00:59:17 9.1 C 38 %
4039 19-03-2020 01:09:18 9 C 38 %
4040 19-03-2020 01:19:17 9.1 C 38 %
4041 19-03-2020 01:29:17 9 C 38 %
4042 19-03-2020 01:39:17 9 C 38 %
4043 19-03-2020 01:49:17 8.9 C 38 %
4044 19-03-2020 01:59:17 8.8 C 39 %
4045 19-03-2020 02:09:18 8.7 C 39 %
4046 19-03-2020 02:19:17 8.7 C 39 %
4047 19-03-2020 02:29:17 8.6 C 39 %
4048 19-03-2020 02:39:17 8.5 C 39 %
4049 19-03-2020 02:49:18 8.5 C 39 %
4050 19-03-2020 02:59:18 8.5 C 39 %
Sensor: Nr:Datum:Temp:Feuchte:
Aussen-T/F 4051 19-03-2020 03:09:18 8.5 C 39 %
4052 19-03-2020 03:19:18 8.6 C 39 %
4053 19-03-2020 03:29:18 8.5 C 39 %
4054 19-03-2020 03:39:17 8.5 C 39 %
4055 19-03-2020 03:49:18 8.4 C 39 %
4056 19-03-2020 03:59:18 8.4 C 40 %
4057 19-03-2020 04:09:18 8.4 C 40 %
4058 19-03-2020 04:19:17 8.5 C 40 %
4059 19-03-2020 04:29:17 8.5 C 39 %
4060 19-03-2020 04:39:17 8.5 C 39 %
4061 19-03-2020 04:49:18 8.5 C 39 %
4062 19-03-2020 04:59:18 8.5 C 39 %
4063 19-03-2020 05:09:18 8.6 C 39 %
4064 19-03-2020 05:19:18 8.9 C 38 %
4065 19-03-2020 05:29:18 8.7 C 39 %
4066 19-03-2020 05:39:18 8.6 C 39 %
4067 19-03-2020 05:49:17 8.5 C 39 %
4068 19-03-2020 05:59:18 8.4 C 39 %
4069 19-03-2020 06:09:18 8.4 C 39 %
4070 19-03-2020 06:19:17 8.3 C 40 %
4071 19-03-2020 06:29:17 8.2 C 39 %
4072 19-03-2020 06:39:17 8.1 C 40 %
4073 19-03-2020 06:49:17 8.1 C 40 %
4074 19-03-2020 06:59:17 8.2 C 40 %
4075 19-03-2020 07:09:17 8.2 C 40 %
Sensor: Nr:Datum:Temp:Feuchte:
Aussen-T/F 4076 19-03-2020 07:19:17 8.5 C 40 %
4077 19-03-2020 07:29:17 8.7 C 39 %
4078 19-03-2020 07:39:18 8.9 C 39 %
4079 19-03-2020 07:49:18 9.1 C 38 %
4080 19-03-2020 07:59:18 9.4 C 38 %
4081 19-03-2020 08:09:18 9.7 C 38 %
4082 19-03-2020 08:19:17 9.9 C 37 %
4083 19-03-2020 08:29:17 9.9 C 37 %
4084 19-03-2020 08:39:17 10.5 C 36 %
4085 19-03-2020 08:49:18 10.4 C 36 %
4086 19-03-2020 08:59:18 10.2 C 36 %
4087 19-03-2020 09:09:17 11.2 C 35 %
4088 19-03-2020 09:19:17 11.7 C 35 %
4089 19-03-2020 09:29:17 11.5 C 35 %
4090 19-03-2020 09:39:18 11.8 C 35 %
4091 19-03-2020 09:49:17 11.6 C 35 %
4092 19-03-2020 09:59:17 12.4 C 33 %
4093 19-03-2020 10:09:18 12.3 C 32 %
4094 19-03-2020 10:19:18 13.1 C 31 %
4095 19-03-2020 10:29:18 13.5 C 30 %
4096 19-03-2020 10:39:17 13.9 C 31 %
4097 19-03-2020 10:49:17 14.2 C 30 %
4098 19-03-2020 10:59:17 15.4 C 29 %
4099 19-03-2020 11:09:17 15.5 C 29 %
4100 19-03-2020 11:19:17 16.4 C 26 %
Sensor: Nr:Datum:Temp:Feuchte:
Aussen-T/F 4101 19-03-2020 11:29:17 17.7 C 26 %
4102 19-03-2020 11:39:17 18.5 C 24 %
4103 19-03-2020 11:49:17 15.8 C 26 %
4104 19-03-2020 11:59:17 15 C 28 %
4105 19-03-2020 12:09:17 15.2 C 28 %
4106 19-03-2020 12:19:17 15.5 C 28 %
4107 19-03-2020 12:29:17 16.8 C 26 %
4108 19-03-2020 12:39:18 18.1 C 22 %
4109 19-03-2020 12:49:17 18.6 C 20 %
4110 19-03-2020 12:59:17 17.9 C 20 %
4111 19-03-2020 13:09:18 20.4 C 20 %
4112 19-03-2020 13:19:18 25.8 C 20 %
4113 19-03-2020 13:29:18 25.6 C 20 %
4114 19-03-2020 13:39:18 19.7 C 20 %
4115 19-03-2020 13:49:17 18.8 C 20 %
4116 19-03-2020 13:59:17 18.2 C 20 %
4117 19-03-2020 14:09:17 18.7 C 20 %
4118 19-03-2020 14:19:17 18.9 C 20 %
4119 19-03-2020 14:29:17 18.8 C 20 %
4120 19-03-2020 14:39:17 18.9 C 20 %
4121 19-03-2020 14:49:17 19.3 C 20 %
4122 19-03-2020 14:59:17 19.1 C 20 %
4123 19-03-2020 15:09:18 18.5 C 20 %
4124 19-03-2020 15:19:18 19.1 C 20 %
4125 19-03-2020 15:29:18 19.3 C 20 %
Sensor: Nr:Datum:Temp:Feuchte:
Aussen-T/F 4126 19-03-2020 15:39:18 19.8 C 20 %
4127 19-03-2020 15:49:17 21.8 C 20 %
4128 19-03-2020 15:59:18 19.5 C 20 %
4129 19-03-2020 16:09:18 19.1 C 20 %
4130 19-03-2020 16:20:17 19.1 C 20 %
4131 19-03-2020 16:29:17 19.1 C 20 %
4132 19-03-2020 16:39:17 19.1 C 20 %
4133 19-03-2020 16:49:17 19.1 C 20 %
4134 19-03-2020 16:59:17 18.4 C 20 %
4135 19-03-2020 17:09:18 17.6 C 20 %
4136 19-03-2020 17:19:18 17.3 C 20 %
4137 19-03-2020 17:29:18 17 C 20 %
4138 19-03-2020 17:39:18 16.8 C 20 %
4139 19-03-2020 17:49:18 16.9 C 20 %
4140 19-03-2020 17:59:18 16.7 C 20 %
4141 19-03-2020 18:09:18 16.3 C 20 %
4142 19-03-2020 18:20:17 15.7 C 23 %
4143 19-03-2020 18:30:17 13.9 C 29 %
4144 19-03-2020 18:40:17 13.5 C 30 %
4145 19-03-2020 18:50:17 12.8 C 31 %
4146 19-03-2020 18:59:18 12.7 C 31 %
4147 19-03-2020 19:09:18 12.3 C 31 %
4148 19-03-2020 19:20:17 12.2 C 31 %
4149 19-03-2020 19:30:17 11.9 C 32 %
4150 19-03-2020 19:40:17 11.7 C 32 %
Sensor: Nr:Datum:Temp:Feuchte:
Aussen-T/F 4151 19-03-2020 19:50:17 11.7 C 33 %
4152 19-03-2020 19:59:17 11.7 C 33 %
4153 19-03-2020 20:09:17 11.7 C 33 %
4154 19-03-2020 20:29:17 11.5 C 34 %
4155 19-03-2020 20:29:17 11.6 C 34 %
4156 19-03-2020 20:39:17 12 C 33 %
4157 19-03-2020 20:49:17 11.8 C 34 %
4158 19-03-2020 20:59:17 11.5 C 35 %
4159 19-03-2020 21:09:18 12 C 33 %
4160 19-03-2020 21:20:17 11.4 C 35 %
4161 19-03-2020 21:30:17 11.3 C 35 %
4162 19-03-2020 21:40:17 10.3 C 36 %
4163 19-03-2020 21:50:17 10.7 C 36 %
4164 19-03-2020 21:59:18 10.6 C 36 %
4165 19-03-2020 22:09:18 10.1 C 37 %
4166 19-03-2020 22:19:18 9.7 C 38 %
4167 19-03-2020 22:29:18 9.8 C 38 %
4168 19-03-2020 22:39:18 9.5 C 39 %
4169 19-03-2020 22:49:18 9.4 C 39 %
4170 19-03-2020 22:59:18 9.5 C 38 %
4171 19-03-2020 23:09:18 9.5 C 38 %
4172 19-03-2020 23:20:17 9.4 C 39 %
4173 19-03-2020 23:30:17 9.2 C 39 %
4174 19-03-2020 23:40:17 9.6 C 38 %
4175 19-03-2020 23:50:17 9.1 C 39 %
Sensor: Nr:Datum:Temp:Feuchte:
Aussen-T/F 4176 19-03-2020 23:59:18 8.7 C 40 %
Sensor: Nr:Datum:Temp:Feuchte:
G-T/H 1 20-02-2020 00:07:17 9.7 C 70 %
2 20-02-2020 00:17:17 9.7 C 70 %
3 20-02-2020 00:27:18 9.7 C 70 %
4 20-02-2020 00:37:18 9.6 C 70 %
5 20-02-2020 00:47:17 9.6 C 70 %
6 20-02-2020 00:57:17 9.6 C 70 %
7 20-02-2020 01:07:17 9.6 C 70 %
8 20-02-2020 01:17:17 9.6 C 70 %
9 20-02-2020 01:27:18 9.6 C 70 %
10 20-02-2020 01:37:18 9.6 C 70 %
11 20-02-2020 01:47:17 9.6 C 70 %
12 20-02-2020 01:57:17 9.6 C 70 %
13 20-02-2020 02:07:18 9.6 C 70 %
14 20-02-2020 02:17:17 9.6 C 70 %
15 20-02-2020 02:27:17 9.6 C 70 %
16 20-02-2020 02:37:17 9.6 C 71 %
17 20-02-2020 02:47:17 9.6 C 71 %
18 20-02-2020 02:57:17 9.6 C 71 %
19 20-02-2020 03:07:17 9.6 C 71 %
20 20-02-2020 03:17:17 9.6 C 71 %
21 20-02-2020 03:27:17 9.6 C 71 %
22 20-02-2020 03:37:18 9.6 C 71 %
23 20-02-2020 03:47:17 9.6 C 71 %
24 20-02-2020 03:57:17 9.6 C 71 %
25 20-02-2020 04:07:18 9.5 C 71 %
Sensor: Nr:Datum:Temp:Feuchte:
G-T/H 26 20-02-2020 04:17:17 9.5 C 71 %
27 20-02-2020 04:27:17 9.5 C 71 %
28 20-02-2020 04:37:17 9.5 C 71 %
29 20-02-2020 04:47:18 9.5 C 71 %
30 20-02-2020 04:57:18 9.5 C 71 %
31 20-02-2020 05:07:18 9.5 C 71 %
32 20-02-2020 05:17:17 9.5 C 71 %
33 20-02-2020 05:27:17 9.5 C 71 %
34 20-02-2020 05:37:17 9.5 C 71 %
35 20-02-2020 05:47:17 9.5 C 71 %
36 20-02-2020 05:57:17 9.5 C 71 %
37 20-02-2020 06:07:17 9.5 C 71 %
38 20-02-2020 06:17:17 9.5 C 71 %
39 20-02-2020 06:27:17 9.5 C 71 %
40 20-02-2020 06:37:17 9.5 C 71 %
41 20-02-2020 06:47:17 9.5 C 71 %
42 20-02-2020 06:57:17 9.5 C 71 %
43 20-02-2020 07:07:17 9.5 C 71 %
44 20-02-2020 07:17:17 9.5 C 71 %
45 20-02-2020 07:27:17 9.5 C 71 %
46 20-02-2020 07:37:17 9.5 C 71 %
47 20-02-2020 07:47:17 9.5 C 71 %
48 20-02-2020 07:57:17 9.5 C 72 %
49 20-02-2020 08:07:17 9.5 C 72 %
50 20-02-2020 08:17:17 9.5 C 72 %
Sensor: Nr:Datum:Temp:Feuchte:
G-T/H 51 20-02-2020 08:27:17 9.5 C 72 %
52 20-02-2020 08:37:17 9.5 C 72 %
53 20-02-2020 08:47:18 9.5 C 72 %
54 20-02-2020 08:57:18 9.5 C 72 %
55 20-02-2020 09:07:18 9.5 C 72 %
56 20-02-2020 09:17:18 9.5 C 72 %
57 20-02-2020 09:27:18 9.5 C 72 %
58 20-02-2020 09:37:17 9.5 C 72 %
59 20-02-2020 09:47:17 9.5 C 72 %
60 20-02-2020 09:57:17 9.5 C 72 %
61 20-02-2020 10:07:18 9.5 C 72 %
62 20-02-2020 10:17:17 9.5 C 72 %
63 20-02-2020 10:27:17 9.6 C 72 %
64 20-02-2020 10:37:17 9.6 C 72 %
65 20-02-2020 10:47:17 9.5 C 72 %
66 20-02-2020 10:57:17 9.6 C 72 %
67 20-02-2020 11:07:18 9.6 C 72 %
68 20-02-2020 11:17:18 9.6 C 72 %
69 20-02-2020 11:27:18 9.6 C 72 %
70 20-02-2020 11:37:18 9.6 C 72 %
71 20-02-2020 11:47:17 9.6 C 72 %
72 20-02-2020 11:57:18 9.6 C 72 %
73 20-02-2020 12:07:18 9.6 C 72 %
74 20-02-2020 12:17:18 9.6 C 72 %
75 20-02-2020 12:27:18 9.6 C 72 %
Sensor: Nr:Datum:Temp:Feuchte:
G-T/H 76 20-02-2020 12:37:18 9.6 C 72 %
77 20-02-2020 12:47:18 9.6 C 72 %
78 20-02-2020 12:57:18 9.6 C 72 %
79 20-02-2020 13:07:18 9.7 C 72 %
80 20-02-2020 13:17:18 9.7 C 72 %
81 20-02-2020 13:27:18 9.7 C 72 %
82 20-02-2020 13:37:18 9.7 C 72 %
83 20-02-2020 13:47:17 9.7 C 72 %
84 20-02-2020 13:57:17 9.7 C 72 %
85 20-02-2020 14:07:17 9.7 C 72 %
86 20-02-2020 14:17:17 9.7 C 72 %
87 20-02-2020 14:27:18 9.8 C 72 %
88 20-02-2020 14:37:18 9.7 C 72 %
89 20-02-2020 14:47:17 9.7 C 73 %
90 20-02-2020 14:57:17 9.8 C 73 %
91 20-02-2020 15:07:18 9.8 C 73 %
92 20-02-2020 15:17:17 9.8 C 73 %
93 20-02-2020 15:27:18 9.8 C 73 %
94 20-02-2020 15:37:18 9.8 C 73 %
95 20-02-2020 15:47:17 9.8 C 73 %
96 20-02-2020 15:57:17 9.8 C 73 %
97 20-02-2020 16:07:17 9.8 C 73 %
98 20-02-2020 16:17:17 9.9 C 73 %
99 20-02-2020 16:27:18 9.9 C 73 %
100 20-02-2020 16:37:18 9.8 C 73 %
Sensor: Nr:Datum:Temp:Feuchte:
G-T/H 101 20-02-2020 16:47:17 9.9 C 73 %
102 20-02-2020 16:57:17 9.9 C 73 %
103 20-02-2020 17:07:18 9.9 C 73 %
104 20-02-2020 17:17:17 9.9 C 73 %
105 20-02-2020 17:27:18 10 C 72 %
106 20-02-2020 17:37:18 9.9 C 73 %
107 20-02-2020 17:47:17 10 C 72 %
108 20-02-2020 17:57:17 10 C 72 %
109 20-02-2020 18:07:18 10 C 72 %
110 20-02-2020 18:17:18 10 C 72 %
111 20-02-2020 18:27:18 10 C 72 %
112 20-02-2020 18:37:18 10 C 72 %
113 20-02-2020 18:47:18 10 C 72 %
114 20-02-2020 18:57:18 10 C 72 %
115 20-02-2020 19:07:18 10 C 72 %
116 20-02-2020 19:17:18 10 C 72 %
117 20-02-2020 19:27:18 10 C 72 %
118 20-02-2020 19:37:17 10 C 72 %
119 20-02-2020 19:47:18 10 C 72 %
120 20-02-2020 19:57:18 10 C 72 %
121 20-02-2020 20:07:18 10.1 C 72 %
122 20-02-2020 20:17:18 10 C 72 %
123 20-02-2020 20:27:18 10.1 C 72 %
124 20-02-2020 20:37:18 10.1 C 72 %
125 20-02-2020 20:47:18 10.1 C 72 %
Sensor: Nr:Datum:Temp:Feuchte:
G-T/H 126 20-02-2020 20:57:18 10.1 C 72 %
127 20-02-2020 21:07:18 10.1 C 72 %
128 20-02-2020 21:17:18 10.1 C 72 %
129 20-02-2020 21:27:18 10.1 C 72 %
130 20-02-2020 21:37:18 10.1 C 72 %
131 20-02-2020 21:47:17 10.1 C 72 %
132 20-02-2020 21:57:18 10.1 C 72 %
133 20-02-2020 22:07:18 10.1 C 72 %
134 20-02-2020 22:17:17 10.1 C 72 %
135 20-02-2020 22:27:18 10.1 C 72 %
136 20-02-2020 22:37:18 10.1 C 72 %
137 20-02-2020 22:47:18 10.1 C 72 %
138 20-02-2020 22:57:18 10.1 C 72 %
139 20-02-2020 23:07:18 10.1 C 72 %
140 20-02-2020 23:17:18 10.1 C 72 %
141 20-02-2020 23:27:18 10.1 C 72 %
142 20-02-2020 23:37:17 10.1 C 72 %
143 20-02-2020 23:47:17 10.1 C 72 %
144 20-02-2020 23:57:17 10.1 C 72 %
145 21-02-2020 00:07:17 10.1 C 72 %
146 21-02-2020 00:17:18 10.1 C 72 %
147 21-02-2020 00:27:18 10.1 C 72 %
148 21-02-2020 00:37:18 10.1 C 72 %
149 21-02-2020 00:47:18 10.1 C 72 %
150 21-02-2020 00:57:18 10.1 C 72 %
Sensor: Nr:Datum:Temp:Feuchte:
G-T/H 151 21-02-2020 01:07:18 10.1 C 72 %
152 21-02-2020 01:17:17 10.1 C 72 %
153 21-02-2020 01:27:17 10.1 C 72 %
154 21-02-2020 01:37:17 10.1 C 71 %
155 21-02-2020 01:47:17 10 C 71 %
156 21-02-2020 01:57:17 10.1 C 71 %
157 21-02-2020 02:07:18 10.1 C 71 %
158 21-02-2020 02:17:18 10.1 C 71 %
159 21-02-2020 02:27:18 10.1 C 71 %
160 21-02-2020 02:37:18 10 C 71 %
161 21-02-2020 02:47:17 10 C 71 %
162 21-02-2020 02:57:18 10 C 71 %
163 21-02-2020 03:07:18 10 C 71 %
164 21-02-2020 03:17:18 10 C 71 %
165 21-02-2020 03:27:18 10 C 71 %
166 21-02-2020 03:37:18 10 C 71 %
167 21-02-2020 03:47:17 10 C 71 %
168 21-02-2020 03:57:17 10 C 71 %
169 21-02-2020 04:07:18 9.9 C 72 %
170 21-02-2020 04:17:18 9.9 C 72 %
171 21-02-2020 04:27:18 9.9 C 72 %
172 21-02-2020 04:37:18 9.9 C 71 %
173 21-02-2020 04:47:17 9.9 C 71 %
174 21-02-2020 04:57:17 9.9 C 71 %
175 21-02-2020 05:07:17 9.8 C 71 %
Sensor: Nr:Datum:Temp:Feuchte:
G-T/H 176 21-02-2020 05:17:17 9.8 C 71 %
177 21-02-2020 05:27:17 9.8 C 71 %
178 21-02-2020 05:37:17 9.8 C 71 %
179 21-02-2020 05:47:17 9.8 C 71 %
180 21-02-2020 05:57:17 9.8 C 71 %
181 21-02-2020 06:07:17 9.8 C 71 %
182 21-02-2020 06:17:17 9.7 C 71 %
183 21-02-2020 06:27:17 9.7 C 71 %
184 21-02-2020 06:37:18 9.7 C 71 %
185 21-02-2020 06:47:17 9.7 C 71 %
186 21-02-2020 06:57:17 9.7 C 71 %
187 21-02-2020 07:07:17 9.7 C 71 %
188 21-02-2020 07:17:18 9.6 C 71 %
189 21-02-2020 07:27:18 9.6 C 71 %
190 21-02-2020 07:37:18 9.6 C 71 %
191 21-02-2020 07:47:17 9.6 C 71 %
192 21-02-2020 07:57:17 9.6 C 71 %
193 21-02-2020 08:07:17 9.6 C 71 %
194 21-02-2020 08:17:17 9.5 C 71 %
195 21-02-2020 08:27:17 9.5 C 71 %
196 21-02-2020 08:37:17 9.5 C 71 %
197 21-02-2020 08:47:17 9.5 C 71 %
198 21-02-2020 08:57:17 9.5 C 71 %
199 21-02-2020 09:07:17 9.5 C 71 %
200 21-02-2020 09:17:17 9.5 C 71 %
Sensor: Nr:Datum:Temp:Feuchte:
G-T/H 201 21-02-2020 09:27:17 9.5 C 71 %
202 21-02-2020 09:37:17 9.4 C 71 %
203 21-02-2020 09:47:17 9.4 C 71 %
204 21-02-2020 09:57:17 9.4 C 71 %
205 21-02-2020 10:07:17 9.4 C 71 %
206 21-02-2020 10:17:17 9.3 C 71 %
207 21-02-2020 10:27:17 9.3 C 71 %
208 21-02-2020 10:37:18 9.3 C 71 %
209 21-02-2020 10:47:17 9.3 C 71 %
210 21-02-2020 10:57:17 9.3 C 71 %
211 21-02-2020 11:07:18 9.3 C 71 %
212 21-02-2020 11:17:17 9.3 C 71 %
213 21-02-2020 11:27:17 9.3 C 71 %
214 21-02-2020 11:37:18 9.3 C 71 %
215 21-02-2020 11:47:17 9.3 C 71 %
216 21-02-2020 11:57:17 9.3 C 71 %
217 21-02-2020 12:07:18 9.3 C 71 %
218 21-02-2020 12:17:18 9.3 C 71 %
219 21-02-2020 12:27:18 9.3 C 71 %
220 21-02-2020 12:37:18 9.3 C 71 %
221 21-02-2020 12:47:17 9.3 C 71 %
222 21-02-2020 12:57:17 9.3 C 71 %
223 21-02-2020 13:07:17 9.3 C 71 %
224 21-02-2020 13:17:18 9.3 C 71 %
225 21-02-2020 13:27:18 9.3 C 71 %
Sensor: Nr:Datum:Temp:Feuchte:
G-T/H 226 21-02-2020 13:37:18 9.3 C 71 %
227 21-02-2020 13:47:17 9.3 C 71 %
228 21-02-2020 13:57:17 9.3 C 71 %
229 21-02-2020 14:07:18 9.3 C 71 %
230 21-02-2020 14:17:17 9.3 C 72 %
231 21-02-2020 14:27:18 9.3 C 72 %
232 21-02-2020 14:37:18 9.3 C 72 %
233 21-02-2020 14:47:17 9.3 C 72 %
234 21-02-2020 14:57:17 9.3 C 72 %
235 21-02-2020 15:07:18 9.3 C 72 %
236 21-02-2020 15:17:18 9.3 C 72 %
237 21-02-2020 15:27:18 9.4 C 72 %
238 21-02-2020 15:37:18 9.3 C 72 %
239 21-02-2020 15:47:17 9.3 C 72 %
240 21-02-2020 15:57:17 9.4 C 72 %
241 21-02-2020 16:07:17 9.4 C 72 %
242 21-02-2020 16:17:17 9.4 C 72 %
243 21-02-2020 16:27:17 9.4 C 72 %
244 21-02-2020 16:37:17 9.4 C 72 %
245 21-02-2020 16:47:17 9.4 C 72 %
246 21-02-2020 16:57:17 9.4 C 72 %
247 21-02-2020 17:07:18 9.5 C 72 %
248 21-02-2020 17:17:17 9.5 C 72 %
249 21-02-2020 17:27:17 9.4 C 72 %
250 21-02-2020 17:37:18 9.4 C 72 %
Sensor: Nr:Datum:Temp:Feuchte:
G-T/H 251 21-02-2020 17:47:17 9.4 C 72 %
252 21-02-2020 17:57:18 9.4 C 72 %
253 21-02-2020 18:07:18 9.4 C 72 %
254 21-02-2020 18:17:17 9.5 C 72 %
255 21-02-2020 18:27:17 9.4 C 72 %
256 21-02-2020 18:37:17 9.5 C 72 %
257 21-02-2020 18:47:17 9.5 C 72 %
258 21-02-2020 18:57:17 9.4 C 72 %
259 21-02-2020 19:07:17 9.4 C 72 %
260 21-02-2020 19:17:17 9.5 C 72 %
261 21-02-2020 19:27:17 9.4 C 72 %
262 21-02-2020 19:37:17 9.4 C 72 %
263 21-02-2020 19:47:17 9.4 C 72 %
264 21-02-2020 19:57:17 9.4 C 72 %
265 21-02-2020 20:07:18 9.5 C 72 %
266 21-02-2020 20:17:18 9.5 C 72 %
267 21-02-2020 20:27:18 9.5 C 72 %
268 21-02-2020 20:37:18 9.5 C 72 %
269 21-02-2020 20:47:17 9.5 C 72 %
270 21-02-2020 20:57:17 9.5 C 72 %
271 21-02-2020 21:07:18 9.5 C 72 %
272 21-02-2020 21:17:18 9.5 C 72 %
273 21-02-2020 21:27:18 9.5 C 72 %
274 21-02-2020 21:37:18 9.5 C 72 %
275 21-02-2020 21:47:18 9.5 C 72 %
Sensor: Nr:Datum:Temp:Feuchte:
G-T/H 276 21-02-2020 21:57:18 9.5 C 72 %
277 21-02-2020 22:07:18 9.4 C 72 %
278 21-02-2020 22:17:17 9.5 C 72 %
279 21-02-2020 22:27:17 9.4 C 72 %
280 21-02-2020 22:37:17 9.5 C 72 %
281 21-02-2020 22:47:17 9.5 C 72 %
282 21-02-2020 22:57:17 9.5 C 72 %
283 21-02-2020 23:07:17 9.4 C 72 %
284 21-02-2020 23:17:17 9.4 C 72 %
285 21-02-2020 23:27:18 9.4 C 72 %
286 21-02-2020 23:37:18 9.4 C 72 %
287 21-02-2020 23:47:18 9.4 C 72 %
288 21-02-2020 23:57:18 9.4 C 72 %
289 22-02-2020 00:07:18 9.4 C 72 %
290 22-02-2020 00:17:17 9.4 C 72 %
291 22-02-2020 00:27:17 9.3 C 72 %
292 22-02-2020 00:37:17 9.3 C 72 %
293 22-02-2020 00:47:18 9.3 C 72 %
294 22-02-2020 00:57:18 9.3 C 72 %
295 22-02-2020 01:07:18 9.3 C 72 %
296 22-02-2020 01:17:18 9.3 C 72 %
297 22-02-2020 01:27:18 9.3 C 72 %
298 22-02-2020 01:37:18 9.3 C 72 %
299 22-02-2020 01:47:17 9.3 C 72 %
300 22-02-2020 01:57:18 9.3 C 72 %
Sensor: Nr:Datum:Temp:Feuchte:
G-T/H 301 22-02-2020 02:07:18 9.3 C 71 %
302 22-02-2020 02:17:18 9.3 C 71 %
303 22-02-2020 02:27:18 9.3 C 71 %
304 22-02-2020 02:37:17 9.3 C 71 %
305 22-02-2020 02:47:17 9.2 C 72 %
306 22-02-2020 02:57:17 9.2 C 71 %
307 22-02-2020 03:07:17 9.2 C 71 %
308 22-02-2020 03:17:17 9.2 C 71 %
309 22-02-2020 03:27:17 9.2 C 71 %
310 22-02-2020 03:37:17 9.2 C 71 %
311 22-02-2020 03:47:17 9.2 C 71 %
312 22-02-2020 03:57:18 9.2 C 71 %
313 22-02-2020 04:07:18 9.2 C 71 %
314 22-02-2020 04:17:18 9.2 C 71 %
315 22-02-2020 04:27:18 9.2 C 71 %
316 22-02-2020 04:37:18 9.2 C 71 %
317 22-02-2020 04:47:17 9.2 C 71 %
318 22-02-2020 04:57:18 9.1 C 71 %
319 22-02-2020 05:07:18 9.1 C 71 %
320 22-02-2020 05:17:18 9.1 C 71 %
321 22-02-2020 05:27:18 9.1 C 71 %
322 22-02-2020 05:37:17 9.1 C 71 %
323 22-02-2020 05:47:18 9.1 C 71 %
324 22-02-2020 05:57:18 9.1 C 71 %
325 22-02-2020 06:07:18 9.1 C 71 %
Sensor: Nr:Datum:Temp:Feuchte:
G-T/H 326 22-02-2020 06:17:17 9.1 C 71 %
327 22-02-2020 06:27:17 9.1 C 71 %
328 22-02-2020 06:37:17 9.1 C 71 %
329 22-02-2020 06:47:18 9.1 C 71 %
330 22-02-2020 06:57:18 9 C 71 %
331 22-02-2020 07:07:18 9 C 71 %
332 22-02-2020 07:17:18 9 C 71 %
333 22-02-2020 07:27:18 9 C 71 %
334 22-02-2020 07:37:18 9.1 C 71 %
335 22-02-2020 07:47:17 9 C 71 %
336 22-02-2020 07:57:18 9 C 71 %
337 22-02-2020 08:07:18 9 C 71 %
338 22-02-2020 08:17:18 9 C 71 %
339 22-02-2020 08:27:18 9 C 71 %
340 22-02-2020 08:37:18 9 C 71 %
341 22-02-2020 08:47:17 9 C 71 %
342 22-02-2020 08:57:17 9 C 71 %
343 22-02-2020 09:07:17 9 C 71 %
344 22-02-2020 09:17:17 9 C 71 %
345 22-02-2020 09:27:17 9 C 72 %
346 22-02-2020 09:37:17 9 C 72 %
347 22-02-2020 09:47:17 9 C 72 %
348 22-02-2020 09:57:17 9 C 72 %
349 22-02-2020 10:07:17 9 C 72 %
350 22-02-2020 10:17:17 9.1 C 72 %
Sensor: Nr:Datum:Temp:Feuchte:
G-T/H 351 22-02-2020 10:27:17 9 C 72 %
352 22-02-2020 10:37:17 9 C 72 %
353 22-02-2020 10:47:18 9 C 72 %
354 22-02-2020 10:57:18 9 C 72 %
355 22-02-2020 11:07:18 9 C 72 %
356 22-02-2020 11:17:18 9 C 72 %
357 22-02-2020 11:27:18 9 C 72 %
358 22-02-2020 11:37:18 9 C 72 %
359 22-02-2020 11:47:17 9 C 72 %
360 22-02-2020 11:57:17 9.1 C 72 %
361 22-02-2020 12:07:18 9.1 C 72 %
362 22-02-2020 12:17:18 9.1 C 72 %
363 22-02-2020 12:27:18 9.1 C 72 %
364 22-02-2020 12:37:18 9.1 C 72 %
365 22-02-2020 12:47:18 9.1 C 72 %
366 22-02-2020 12:57:18 9.1 C 72 %
367 22-02-2020 13:07:18 9.1 C 72 %
368 22-02-2020 13:17:18 9.1 C 72 %
369 22-02-2020 13:27:18 9.1 C 72 %
370 22-02-2020 13:37:18 9.1 C 72 %
371 22-02-2020 13:47:17 9.1 C 72 %
372 22-02-2020 13:57:18 9.1 C 72 %
373 22-02-2020 14:07:18 9.1 C 72 %
374 22-02-2020 14:17:17 9.1 C 72 %
375 22-02-2020 14:27:18 9.1 C 72 %
Sensor: Nr:Datum:Temp:Feuchte:
G-T/H 376 22-02-2020 14:37:18 9.1 C 72 %
377 22-02-2020 14:47:17 9.2 C 72 %
378 22-02-2020 14:57:17 9.1 C 72 %
379 22-02-2020 15:07:17 9.2 C 72 %
380 22-02-2020 15:17:17 9.2 C 72 %
381 22-02-2020 15:27:18 9.2 C 72 %
382 22-02-2020 15:37:18 9.2 C 72 %
383 22-02-2020 15:47:17 9.2 C 72 %
384 22-02-2020 15:57:17 9.2 C 72 %
385 22-02-2020 16:07:18 9.2 C 72 %
386 22-02-2020 16:17:18 9.3 C 72 %
387 22-02-2020 16:27:18 9.3 C 72 %
388 22-02-2020 16:37:18 9.3 C 72 %
389 22-02-2020 16:47:18 9.3 C 72 %
390 22-02-2020 16:57:18 9.3 C 72 %
391 22-02-2020 17:07:17 9.3 C 72 %
392 22-02-2020 17:17:18 9.3 C 72 %
393 22-02-2020 17:27:18 9.3 C 73 %
394 22-02-2020 17:37:18 9.3 C 73 %
395 22-02-2020 17:47:18 9.3 C 73 %
396 22-02-2020 17:57:18 9.4 C 73 %
397 22-02-2020 18:07:18 9.4 C 73 %
398 22-02-2020 18:17:18 9.4 C 73 %
399 22-02-2020 18:27:18 9.4 C 73 %
400 22-02-2020 18:37:18 9.4 C 73 %
Sensor: Nr:Datum:Temp:Feuchte:
G-T/H 401 22-02-2020 18:47:18 9.4 C 73 %
402 22-02-2020 18:57:18 9.4 C 73 %
403 22-02-2020 19:07:18 9.5 C 73 %
404 22-02-2020 19:17:17 9.5 C 73 %
405 22-02-2020 19:27:17 9.5 C 73 %
406 22-02-2020 19:37:17 9.5 C 73 %
407 22-02-2020 19:47:18 9.5 C 73 %
408 22-02-2020 19:57:18 9.5 C 73 %
409 22-02-2020 20:07:18 9.5 C 73 %
410 22-02-2020 20:17:18 9.5 C 73 %
411 22-02-2020 20:27:18 9.6 C 73 %
412 22-02-2020 20:37:18 9.6 C 73 %
413 22-02-2020 20:47:17 9.6 C 73 %
414 22-02-2020 20:57:17 9.6 C 73 %
415 22-02-2020 21:07:18 9.6 C 73 %
416 22-02-2020 21:17:17 9.6 C 73 %
417 22-02-2020 21:27:17 9.6 C 73 %
418 22-02-2020 21:37:18 9.6 C 73 %
419 22-02-2020 21:47:17 9.6 C 73 %
420 22-02-2020 21:57:17 9.7 C 73 %
421 22-02-2020 22:07:17 9.6 C 74 %
422 22-02-2020 22:17:17 9.7 C 74 %
423 22-02-2020 22:27:17 9.7 C 74 %
424 22-02-2020 22:37:18 9.7 C 74 %
425 22-02-2020 22:47:17 9.7 C 74 %
Sensor: Nr:Datum:Temp:Feuchte:
G-T/H 426 22-02-2020 22:57:17 9.7 C 74 %
427 22-02-2020 23:07:17 9.7 C 74 %
428 22-02-2020 23:17:17 9.7 C 74 %
429 22-02-2020 23:27:17 9.7 C 74 %
430 22-02-2020 23:37:17 9.8 C 74 %
431 22-02-2020 23:47:17 9.8 C 74 %
432 22-02-2020 23:57:18 9.8 C 74 %
433 23-02-2020 00:07:18 9.8 C 74 %
434 23-02-2020 00:17:18 9.8 C 74 %
435 23-02-2020 00:27:18 9.8 C 74 %
436 23-02-2020 00:37:18 9.8 C 74 %
437 23-02-2020 00:47:17 9.8 C 74 %
438 23-02-2020 00:57:18 9.8 C 74 %
439 23-02-2020 01:07:18 9.9 C 74 %
440 23-02-2020 01:17:18 9.8 C 74 %
441 23-02-2020 01:27:18 9.9 C 74 %
442 23-02-2020 01:37:18 9.9 C 74 %
443 23-02-2020 01:47:17 9.9 C 74 %
444 23-02-2020 01:57:17 9.9 C 74 %
445 23-02-2020 02:07:18 9.9 C 74 %
446 23-02-2020 02:17:18 9.9 C 74 %
447 23-02-2020 02:27:18 9.9 C 74 %
448 23-02-2020 02:37:18 9.9 C 74 %
449 23-02-2020 02:47:17 9.9 C 74 %
450 23-02-2020 02:57:17 10 C 73 %
Sensor: Nr:Datum:Temp:Feuchte:
G-T/H 451 23-02-2020 03:07:18 10 C 73 %
452 23-02-2020 03:17:17 10 C 73 %
453 23-02-2020 03:27:17 10 C 73 %
454 23-02-2020 03:37:17 10 C 73 %
455 23-02-2020 03:47:17 10 C 73 %
456 23-02-2020 03:57:17 10 C 73 %
457 23-02-2020 04:07:17 10 C 73 %
458 23-02-2020 04:17:17 10 C 73 %
459 23-02-2020 04:27:17 10 C 73 %
460 23-02-2020 04:37:17 10 C 73 %
461 23-02-2020 04:47:17 10.1 C 73 %
462 23-02-2020 04:57:17 10.1 C 73 %
463 23-02-2020 05:07:18 10.1 C 73 %
464 23-02-2020 05:17:17 10.1 C 73 %
465 23-02-2020 05:27:17 10.1 C 73 %
466 23-02-2020 05:37:18 10.1 C 73 %
467 23-02-2020 05:47:17 10.1 C 73 %
468 23-02-2020 05:57:17 10.1 C 73 %
469 23-02-2020 06:07:18 10.1 C 73 %
470 23-02-2020 06:17:17 10.1 C 73 %
471 23-02-2020 06:27:17 10.1 C 73 %
472 23-02-2020 06:37:18 10.1 C 73 %
473 23-02-2020 06:47:17 10.1 C 73 %
474 23-02-2020 06:57:17 10.1 C 73 %
475 23-02-2020 07:07:18 10.1 C 73 %
Sensor: Nr:Datum:Temp:Feuchte:
G-T/H 476 23-02-2020 07:17:18 10.1 C 73 %
477 23-02-2020 07:27:18 10.1 C 73 %
478 23-02-2020 07:37:18 10.2 C 73 %
479 23-02-2020 07:47:17 10.2 C 73 %
480 23-02-2020 07:57:17 10.2 C 73 %
481 23-02-2020 08:07:17 10.2 C 73 %
482 23-02-2020 08:17:17 10.2 C 73 %
483 23-02-2020 08:27:17 10.2 C 74 %
484 23-02-2020 08:37:17 10.2 C 74 %
485 23-02-2020 08:47:17 10.2 C 74 %
486 23-02-2020 08:57:17 10.2 C 74 %
487 23-02-2020 09:07:17 10.2 C 74 %
488 23-02-2020 09:17:17 10.2 C 74 %
489 23-02-2020 09:27:17 10.2 C 74 %
490 23-02-2020 09:37:17 10.2 C 74 %
491 23-02-2020 09:47:18 10.2 C 74 %
492 23-02-2020 09:57:18 10.2 C 74 %
493 23-02-2020 10:07:17 10.2 C 74 %
494 23-02-2020 10:17:17 10.2 C 74 %
495 23-02-2020 10:27:18 10.3 C 74 %
496 23-02-2020 10:37:17 10.3 C 74 %
497 23-02-2020 10:47:17 10.3 C 74 %
498 23-02-2020 10:57:17 10.3 C 74 %
499 23-02-2020 11:07:17 10.3 C 74 %
500 23-02-2020 11:17:17 10.3 C 74 %
Sensor: Nr:Datum:Temp:Feuchte:
G-T/H 501 23-02-2020 11:27:17 10.4 C 74 %
502 23-02-2020 11:37:17 10.3 C 74 %
503 23-02-2020 11:47:17 10.3 C 74 %
504 23-02-2020 11:57:17 10.4 C 74 %
505